Darstellungsparameter: Aktuell verwendete Einstellungen:
Skalierung der Graphiken ... ?
xyx+y,   Skalierungsfaktor:      Skalierung: Modus: x, Faktor: 1
Darstellungszeitraum ... ?
Vom - - bis: - -   Zeitraum: 23.12.2003 - 22.06.2004
Min/Max/Avg-Anzeige ... ?
Zeige MMA aktuell
Zeige MMA Monat
Zeige MMA alles
Zeige --A aktuell
Zeige --A Monat
Zeige --A alles
Keine MMA-Anzeige
MMA:
Keine MMA-Graphiken
MMA-Basis: 23.12.2003 - 22.06.2004
Quicknavigation für Darstellung... ?
Tage:      1T, 2T, 3T, 5T -1T -2T -3T -5T +1T +2T +3T +5T
Wochen: 1W, 2W, 3W -1W -2W -3W +1W +2W +3W
Monate: 1M, 3M, 6M -1M -3M -6M +1M +3M +6M
Jahre:    1J, 3J, 5J, 10J -1J -3J -5J -10J +1J +3J +5J +10J
Nutze für die Darstellung ... ?
Originaldaten oder Mittelwerte auf ...
Stundenbasis Tagesbasis Wochenbasis
Monatsbasis Jahresbasis      Datenbasis: Original-Daten
Darstellen als:
Statistik (Auto) Statistik J:M      Darstellung:
Zur Graphik,    zurück zur Übersicht aller Sensoren.
 
Tabellarische Datenbersicht: ?
 
Sensor: Nr:Datum:Temp:Abs-Feuchte:Windchill:Wind:
Aussen-T/F 1 23-12-2003 00:00:00 -1.9 C 3.4 g/m*3 -1.9 C 0 km/h
2 23-12-2003 00:13:01 -2 C 3.37 g/m*3 -2 C 0 km/h
3 23-12-2003 00:25:01 -1.9 C 3.44 g/m*3 -1.9 C 0 km/h
4 23-12-2003 00:36:00 -2 C 3.41 g/m*3 -2 C 0 km/h
5 23-12-2003 00:36:01 -2 C 3.41 g/m*3 -2 C 0 km/h
6 23-12-2003 00:48:00 -2.1 C 3.39 g/m*3 -2.1 C 0 km/h
7 23-12-2003 01:00:00 -2.3 C 3.34 g/m*3 -2.3 C 0 km/h
8 23-12-2003 01:12:00 -2.3 C 3.38 g/m*3 -2.3 C 0 km/h
9 23-12-2003 01:24:00 -2.2 C 3.41 g/m*3 -2.2 C 0 km/h
10 23-12-2003 01:36:01 -2.3 C 3.34 g/m*3 -2.3 C 0 km/h
11 23-12-2003 01:48:01 -2.4 C 3.32 g/m*3 -2.4 C 0 km/h
12 23-12-2003 02:00:01 -2.4 C 3.32 g/m*3 -2.4 C 0 km/h
13 23-12-2003 02:12:00 -2.5 C 3.3 g/m*3 -2.5 C 0 km/h
14 23-12-2003 02:24:00 -2.4 C 3.32 g/m*3 -2.4 C 0 km/h
15 23-12-2003 02:36:00 -2.3 C 3.34 g/m*3 -2.3 C 0 km/h
16 23-12-2003 02:48:00 -1.9 C 3.35 g/m*3 -1.9 C 0 km/h
17 23-12-2003 03:00:00 -2.1 C 3.31 g/m*3 -2.1 C 0 km/h
18 23-12-2003 03:13:01 -2.1 C 3.31 g/m*3 -2.1 C 0 km/h
19 23-12-2003 03:25:01 -2.1 C 3.26 g/m*3 -2.1 C 0 km/h
20 23-12-2003 03:36:01 -2.3 C 3.26 g/m*3 -2.3 C 0 km/h
21 23-12-2003 03:48:01 -2.5 C 3.21 g/m*3 -2.5 C 0 km/h
22 23-12-2003 04:00:01 -2.5 C 3.21 g/m*3 -2.5 C 0 km/h
23 23-12-2003 04:12:00 -2.6 C 3.19 g/m*3 -2.6 C 0 km/h
24 23-12-2003 04:24:00 -2.6 C 3.19 g/m*3 -2.6 C 0 km/h
25 23-12-2003 04:36:00 -2.4 C 3.24 g/m*3 -2.4 C 0 km/h
Sensor: Nr:Datum:Temp:Abs-Feuchte:Windchill:Wind:
Aussen-T/F 26 23-12-2003 04:48:00 -2.4 C 3.2 g/m*3 -2.4 C 0 km/h
27 23-12-2003 05:00:00 -2.4 C 3.2 g/m*3 -2.4 C 0 km/h
28 23-12-2003 05:13:01 -2.4 C 3.2 g/m*3 -2.4 C 0 km/h
29 23-12-2003 05:25:01 -2.2 C 3.2 g/m*3 -2.2 C 0 km/h
30 23-12-2003 05:36:01 -2 C 3.2 g/m*3 -2 C 0 km/h
31 23-12-2003 05:48:01 -2 C 3.2 g/m*3 -2 C 0 km/h
32 23-12-2003 06:00:01 -1.9 C 3.23 g/m*3 -1.9 C 0 km/h
33 23-12-2003 06:12:00 -1.9 C 3.31 g/m*3 -1.9 C 0 km/h
34 23-12-2003 06:24:00 -1.8 C 3.33 g/m*3 -1.8 C 0 km/h
35 23-12-2003 06:36:01 -1.7 C 3.36 g/m*3 -1.7 C 0 km/h
36 23-12-2003 06:48:01 -1.7 C 3.36 g/m*3 -1.7 C 0 km/h
37 23-12-2003 07:00:01 -1.7 C 3.36 g/m*3 -1.7 C 0 km/h
38 23-12-2003 07:12:00 -1.8 C 3.33 g/m*3 -1.8 C 0 km/h
39 23-12-2003 07:24:00 -1.7 C 3.4 g/m*3 -1.7 C 0 km/h
40 23-12-2003 07:36:00 -1.4 C 3.43 g/m*3 -1.4 C 0 km/h
41 23-12-2003 07:48:00 -1.4 C 3.43 g/m*3 -1.4 C 0 km/h
42 23-12-2003 08:00:00 -1.5 C 3.41 g/m*3 -1.5 C 0 km/h
43 23-12-2003 08:13:00 -1.4 C 3.43 g/m*3 -1.4 C 0 km/h
44 23-12-2003 08:25:00 -1 C 3.53 g/m*3 -1 C 0 km/h
45 23-12-2003 08:36:01 -0.7 C 3.6 g/m*3 -0.7 C 0 km/h
46 23-12-2003 08:48:01 -0.7 C 3.55 g/m*3 -0.7 C 0 km/h
47 23-12-2003 09:00:01 -0.6 C 3.58 g/m*3 -0.6 C 0 km/h
48 23-12-2003 09:12:00 -0.5 C 3.6 g/m*3 -0.5 C 0 km/h
49 23-12-2003 09:24:00 -0.4 C 3.63 g/m*3 -0.4 C 0 km/h
50 23-12-2003 09:36:01 -0.4 C 3.68 g/m*3 -0.4 C 0 km/h
Sensor: Nr:Datum:Temp:Abs-Feuchte:Windchill:Wind:
Aussen-T/F 51 23-12-2003 09:48:01 0 C 3.78 g/m*3 0 C 0 km/h
52 23-12-2003 10:00:01 0.3 C 3.81 g/m*3 0.3 C 0 km/h
53 23-12-2003 10:12:00 0.6 C 3.84 g/m*3 0.6 C 0 km/h
54 23-12-2003 10:24:00 0.7 C 3.86 g/m*3 0.7 C 0 km/h
55 23-12-2003 10:36:01 0.6 C 3.79 g/m*3 0.6 C 0 km/h
56 23-12-2003 10:48:01 0.6 C 3.79 g/m*3 0.6 C 0 km/h
57 23-12-2003 11:00:01 0.7 C 3.81 g/m*3 0.7 C 0 km/h
58 23-12-2003 11:12:00 0.9 C 3.81 g/m*3 0.9 C 0 km/h
59 23-12-2003 11:24:00 1.2 C 3.79 g/m*3 1.2 C 0 km/h
60 23-12-2003 11:36:00 1.5 C 3.76 g/m*3 1.5 C 0 km/h
61 23-12-2003 11:48:16 1.6 C 3.68 g/m*3 1.6 C 0 km/h
62 23-12-2003 12:00:16 1.9 C 3.7 g/m*3 1.9 C 0 km/h
63 23-12-2003 12:13:01 2 C 3.61 g/m*3 2 C 0 km/h
64 23-12-2003 12:25:01 2.1 C 3.64 g/m*3 2.1 C 0 km/h
65 23-12-2003 12:36:00 2 C 3.67 g/m*3 2 C 0 km/h
66 23-12-2003 12:48:01 1.9 C 3.7 g/m*3 1.9 C 0 km/h
67 23-12-2003 13:00:01 1.9 C 3.7 g/m*3 1.9 C 0 km/h
68 23-12-2003 13:12:00 1.6 C 3.62 g/m*3 1.6 C 0 km/h
69 23-12-2003 13:24:00 1.7 C 3.59 g/m*3 1.7 C 0 km/h
70 23-12-2003 13:36:01 1.6 C 3.57 g/m*3 1.6 C 0 km/h
71 23-12-2003 13:48:01 1.8 C 3.62 g/m*3 1.8 C 0 km/h
72 23-12-2003 14:00:01 1.8 C 3.62 g/m*3 1.8 C 0 km/h
73 23-12-2003 14:12:00 1.8 C 3.56 g/m*3 1.8 C 0 km/h
74 23-12-2003 14:24:00 1.8 C 3.51 g/m*3 1.8 C 0 km/h
75 23-12-2003 14:36:00 1.7 C 3.48 g/m*3 1.7 C 0 km/h
Sensor: Nr:Datum:Temp:Abs-Feuchte:Windchill:Wind:
Aussen-T/F 76 23-12-2003 14:48:00 1.7 C 3.48 g/m*3 1.7 C 0 km/h
77 23-12-2003 15:00:00 1.8 C 3.51 g/m*3 1.8 C 0 km/h
78 23-12-2003 15:13:00 1.8 C 3.56 g/m*3 1.8 C 0 km/h
79 23-12-2003 15:25:01 1.8 C 3.56 g/m*3 1.8 C 0 km/h
80 23-12-2003 15:36:01 1.8 C 3.56 g/m*3 1.8 C 0 km/h
81 23-12-2003 15:48:01 1.8 C 3.56 g/m*3 1.8 C 0 km/h
82 23-12-2003 16:00:01 1.8 C 3.51 g/m*3 1.8 C 0 km/h
83 23-12-2003 16:12:00 1.6 C 3.51 g/m*3 1.6 C 0 km/h
84 23-12-2003 16:24:00 1.5 C 3.54 g/m*3 1.5 C 0 km/h
85 23-12-2003 16:36:01 1.4 C 3.57 g/m*3 1.4 C 0 km/h
86 23-12-2003 16:48:01 1.1 C 3.66 g/m*3 1.1 C 0 km/h
87 23-12-2003 17:00:01 0.9 C 3.71 g/m*3 0.9 C 0 km/h
88 23-12-2003 17:12:00 0.9 C 3.76 g/m*3 0.9 C 0 km/h
89 23-12-2003 17:24:00 1 C 3.74 g/m*3 1 C 0 km/h
90 23-12-2003 17:36:00 0.9 C 3.81 g/m*3 0.9 C 0 km/h
91 23-12-2003 17:48:00 0.8 C 3.89 g/m*3 0.8 C 0 km/h
92 23-12-2003 18:00:00 0.7 C 3.97 g/m*3 0.7 C 0 km/h
93 23-12-2003 18:13:01 0.7 C 4.02 g/m*3 0.7 C 0 km/h
94 23-12-2003 18:25:01 0.7 C 4.02 g/m*3 0.7 C 0 km/h
95 23-12-2003 18:36:05 0.9 C 4.02 g/m*3 0.9 C 0 km/h
96 23-12-2003 21:45:53 1.4 C 3.89 g/m*3 1.4 C 0 km/h
97 23-12-2003 21:50:01 1.4 C 3.89 g/m*3 1.4 C 0 km/h
98 23-12-2003 22:30:01 1.4 C 3.89 g/m*3 1.4 C 0 km/h
99 23-12-2003 22:42:00 1.5 C 3.92 g/m*3 1.5 C 0 km/h
100 23-12-2003 22:54:00 1.6 C 3.95 g/m*3 1.6 C 0 km/h
Sensor: Nr:Datum:Temp:Abs-Feuchte:Windchill:Wind:
Aussen-T/F 101 23-12-2003 23:06:59 1.5 C 3.92 g/m*3 1.5 C 0 km/h
102 23-12-2003 23:18:59 1.5 C 3.92 g/m*3 1.5 C 0 km/h
103 23-12-2003 23:30:59 1.6 C 3.95 g/m*3 1.6 C 0 km/h
104 23-12-2003 23:43:01 1.6 C 3.95 g/m*3 1.6 C 0 km/h
105 23-12-2003 23:55:01 1.6 C 3.89 g/m*3 1.6 C 0 km/h
106 24-12-2003 00:07:01 1.5 C 3.92 g/m*3 1.5 C 0 km/h
107 24-12-2003 00:19:01 1.4 C 3.95 g/m*3 1.4 C 0 km/h
108 24-12-2003 00:31:01 1.3 C 3.97 g/m*3 1.3 C 0 km/h
109 24-12-2003 00:43:01 1.3 C 3.97 g/m*3 1.3 C 0 km/h
110 24-12-2003 00:55:01 1.3 C 3.92 g/m*3 1.3 C 0 km/h
111 24-12-2003 01:07:01 1.4 C 3.95 g/m*3 1.4 C 0 km/h
112 24-12-2003 01:19:01 1.5 C 3.92 g/m*3 1.5 C 0 km/h
113 24-12-2003 01:31:01 1.5 C 3.92 g/m*3 1.5 C 0 km/h
114 24-12-2003 01:43:01 1.5 C 3.92 g/m*3 1.5 C 0 km/h
115 24-12-2003 01:55:01 1.5 C 3.92 g/m*3 1.5 C 0 km/h
116 24-12-2003 02:07:01 1.4 C 3.95 g/m*3 1.4 C 0 km/h
117 24-12-2003 02:19:01 1.5 C 3.97 g/m*3 1.5 C 0 km/h
118 24-12-2003 02:31:01 1.5 C 3.92 g/m*3 1.5 C 0 km/h
119 24-12-2003 02:43:01 1.5 C 3.92 g/m*3 1.5 C 0 km/h
120 24-12-2003 02:55:01 1.4 C 3.89 g/m*3 1.4 C 0 km/h
121 24-12-2003 03:07:01 1.4 C 3.95 g/m*3 1.4 C 0 km/h
122 24-12-2003 03:19:01 1.3 C 3.92 g/m*3 1.3 C 0 km/h
123 24-12-2003 03:31:01 1.2 C 3.95 g/m*3 1.2 C 0 km/h
124 24-12-2003 03:43:01 1.1 C 3.92 g/m*3 1.1 C 0 km/h
125 24-12-2003 03:55:01 0.9 C 3.92 g/m*3 0.9 C 0 km/h
Sensor: Nr:Datum:Temp:Abs-Feuchte:Windchill:Wind:
Aussen-T/F 126 24-12-2003 04:07:01 0.8 C 3.89 g/m*3 0.8 C 0 km/h
127 24-12-2003 04:19:01 0.9 C 3.92 g/m*3 0.9 C 0 km/h
128 24-12-2003 04:31:01 1.1 C 3.97 g/m*3 1.1 C 0 km/h
129 24-12-2003 04:43:01 1.2 C 3.95 g/m*3 1.2 C 0 km/h
130 24-12-2003 04:55:01 1.4 C 3.95 g/m*3 1.4 C 0 km/h
131 24-12-2003 05:07:01 1.4 C 3.95 g/m*3 1.4 C 0 km/h
132 24-12-2003 05:19:01 1.4 C 3.95 g/m*3 1.4 C 0 km/h
133 24-12-2003 05:31:01 1.5 C 3.92 g/m*3 1.5 C 0 km/h
134 24-12-2003 05:43:01 1.5 C 3.92 g/m*3 1.5 C 0 km/h
135 24-12-2003 05:55:01 1.6 C 3.95 g/m*3 1.6 C 0 km/h
136 24-12-2003 05:55:32 1.6 C 3.95 g/m*3 1.6 C 0 km/h
137 24-12-2003 06:07:32 1.6 C 3.95 g/m*3 1.6 C 0 km/h
138 24-12-2003 06:19:32 1.6 C 3.95 g/m*3 1.6 C 0 km/h
139 24-12-2003 06:31:32 1.6 C 3.89 g/m*3 1.6 C 0 km/h
140 24-12-2003 06:43:32 1.5 C 3.92 g/m*3 1.5 C 0 km/h
141 24-12-2003 06:55:32 1.5 C 3.92 g/m*3 1.5 C 0 km/h
142 24-12-2003 07:07:32 1.4 C 3.89 g/m*3 1.4 C 0 km/h
143 24-12-2003 07:19:32 1.2 C 3.84 g/m*3 1.2 C 0 km/h
144 24-12-2003 07:31:32 0.8 C 3.79 g/m*3 0.8 C 0 km/h
145 24-12-2003 07:31:35 0.8 C 3.79 g/m*3 0.8 C 0 km/h
146 24-12-2003 07:43:35 0.4 C 3.74 g/m*3 0.4 C 0 km/h
147 24-12-2003 07:55:35 0.3 C 3.76 g/m*3 0.3 C 0 km/h
148 24-12-2003 08:07:35 0.2 C 3.73 g/m*3 0.2 C 0 km/h
149 24-12-2003 08:19:35 0.1 C 3.71 g/m*3 0.1 C 0 km/h
150 24-12-2003 08:31:35 0.1 C 3.71 g/m*3 0.1 C 0 km/h
Sensor: Nr:Datum:Temp:Abs-Feuchte:Windchill:Wind:
Aussen-T/F 151 24-12-2003 08:43:35 0.1 C 3.71 g/m*3 0.1 C 0 km/h
152 24-12-2003 08:55:35 0 C 3.68 g/m*3 0 C 0 km/h
153 24-12-2003 09:07:35 -0.2 C 3.63 g/m*3 -0.2 C 0 km/h
154 24-12-2003 09:19:35 -0.3 C 3.61 g/m*3 -0.3 C 0 km/h
155 24-12-2003 09:31:35 -0.1 C 3.66 g/m*3 -0.1 C 0 km/h
156 24-12-2003 09:43:35 -0.1 C 3.61 g/m*3 -0.1 C 0 km/h
157 24-12-2003 09:55:35 -0.2 C 3.58 g/m*3 -0.2 C 0 km/h
158 24-12-2003 10:07:35 -0.2 C 3.63 g/m*3 -0.2 C 0 km/h
159 24-12-2003 10:19:35 -0.3 C 3.65 g/m*3 -0.3 C 0 km/h
160 24-12-2003 10:31:35 -0.4 C 3.68 g/m*3 -0.4 C 0 km/h
161 24-12-2003 10:43:35 -0.4 C 3.72 g/m*3 -0.4 C 0 km/h
162 24-12-2003 10:55:35 -0.3 C 3.75 g/m*3 -0.3 C 0 km/h
163 24-12-2003 11:07:35 -0.3 C 3.75 g/m*3 -0.3 C 0 km/h
164 24-12-2003 11:19:35 -0.2 C 3.78 g/m*3 -0.2 C 0 km/h
165 24-12-2003 11:31:35 0 C 3.78 g/m*3 0 C 0 km/h
166 24-12-2003 11:43:35 0.1 C 3.76 g/m*3 0.1 C 0 km/h
167 24-12-2003 11:55:35 0.3 C 3.81 g/m*3 0.3 C 0 km/h
168 24-12-2003 12:07:58 0.5 C 3.81 g/m*3 0.5 C 0 km/h
169 24-12-2003 12:19:01 0.8 C 3.89 g/m*3 0.8 C 0 km/h
170 24-12-2003 12:31:01 1.4 C 3.89 g/m*3 1.4 C 0 km/h
171 24-12-2003 12:43:01 2.1 C 3.92 g/m*3 2.1 C 0 km/h
172 24-12-2003 12:55:01 2.3 C 3.86 g/m*3 2.3 C 0 km/h
173 24-12-2003 13:07:00 2.8 C 3.7 g/m*3 2.8 C 0 km/h
174 24-12-2003 13:19:00 3.2 C 3.56 g/m*3 3.2 C 0 km/h
175 24-12-2003 13:31:00 3.2 C 3.62 g/m*3 3.2 C 0 km/h
Sensor: Nr:Datum:Temp:Abs-Feuchte:Windchill:Wind:
Aussen-T/F 176 24-12-2003 13:43:01 3.2 C 3.62 g/m*3 3.2 C 0 km/h
177 24-12-2003 13:55:01 3 C 3.69 g/m*3 3 C 0 km/h
178 24-12-2003 14:07:01 2.9 C 3.78 g/m*3 2.9 C 0 km/h
179 24-12-2003 14:19:01 3.1 C 3.71 g/m*3 3.1 C 0 km/h
180 24-12-2003 14:31:01 3.5 C 3.81 g/m*3 3.5 C 0 km/h
181 24-12-2003 14:43:00 3.7 C 3.86 g/m*3 3.7 C 0 km/h
182 24-12-2003 14:55:00 3.8 C 3.76 g/m*3 3.8 C 0 km/h
183 24-12-2003 14:55:58 3.8 C 3.76 g/m*3 3.8 C 0 km/h
184 24-12-2003 15:07:58 3.8 C 3.64 g/m*3 3.8 C 0 km/h
185 24-12-2003 15:07:59 3.8 C 3.64 g/m*3 3.8 C 0 km/h
186 24-12-2003 15:19:59 3.2 C 3.74 g/m*3 3.2 C 0 km/h
187 24-12-2003 15:31:01 2.4 C 3.77 g/m*3 2.4 C 0 km/h
188 24-12-2003 15:43:01 2.2 C 3.72 g/m*3 2.2 C 0 km/h
189 24-12-2003 15:43:49 2.2 C 3.72 g/m*3 2.2 C 0 km/h
190 24-12-2003 15:55:49 1.8 C 3.84 g/m*3 1.8 C 0 km/h
191 24-12-2003 16:07:39 1.4 C 3.73 g/m*3 1.4 C 0 km/h
192 24-12-2003 16:19:39 1.3 C 3.71 g/m*3 1.3 C 0 km/h
193 24-12-2003 16:31:01 1.4 C 3.68 g/m*3 1.4 C 0 km/h
194 24-12-2003 16:43:01 1.6 C 3.62 g/m*3 1.6 C 0 km/h
195 24-12-2003 16:55:01 1.6 C 3.51 g/m*3 1.6 C 0 km/h
196 24-12-2003 17:07:02 1.5 C 3.65 g/m*3 1.5 C 0 km/h
197 24-12-2003 17:19:02 1.5 C 3.65 g/m*3 1.5 C 0 km/h
198 24-12-2003 17:31:02 1.5 C 3.65 g/m*3 1.5 C 0 km/h
199 24-12-2003 17:43:00 1.4 C 3.63 g/m*3 1.4 C 0 km/h
200 24-12-2003 17:55:00 1.3 C 3.6 g/m*3 1.3 C 0 km/h
Sensor: Nr:Datum:Temp:Abs-Feuchte:Windchill:Wind:
Aussen-T/F 201 24-12-2003 18:07:59 1.3 C 3.66 g/m*3 1.3 C 0 km/h
202 24-12-2003 18:19:59 1.2 C 3.58 g/m*3 1.2 C 0 km/h
203 24-12-2003 18:31:01 1.2 C 3.63 g/m*3 1.2 C 0 km/h
204 24-12-2003 18:43:01 1.2 C 3.63 g/m*3 1.2 C 0 km/h
205 24-12-2003 18:55:01 1.2 C 3.63 g/m*3 1.2 C 0 km/h
206 24-12-2003 19:07:00 1.2 C 3.58 g/m*3 1.2 C 0 km/h
207 24-12-2003 19:19:00 1.2 C 3.53 g/m*3 1.2 C 0 km/h
208 24-12-2003 19:31:00 1.1 C 3.55 g/m*3 1.1 C 0 km/h
209 24-12-2003 19:43:01 1 C 3.53 g/m*3 1 C 0 km/h
210 24-12-2003 19:55:01 1.1 C 3.55 g/m*3 1.1 C 0 km/h
211 24-12-2003 20:07:01 1.3 C 3.6 g/m*3 1.3 C 0 km/h
212 24-12-2003 20:19:01 1.5 C 3.65 g/m*3 1.5 C 0 km/h
213 24-12-2003 20:31:01 1.6 C 3.68 g/m*3 1.6 C 0 km/h
214 24-12-2003 20:43:01 1.7 C 3.65 g/m*3 1.7 C 0 km/h
215 24-12-2003 20:55:01 1.7 C 3.65 g/m*3 1.7 C 0 km/h
216 24-12-2003 21:07:01 1.8 C 3.67 g/m*3 1.8 C 0 km/h
217 24-12-2003 21:19:01 1.8 C 3.67 g/m*3 1.8 C 0 km/h
218 24-12-2003 21:31:01 2 C 3.5 g/m*3 2 C 0 km/h
219 24-12-2003 21:43:00 2.3 C 3.35 g/m*3 2.3 C 0 km/h
220 24-12-2003 21:55:00 2.4 C 3.43 g/m*3 2.4 C 0 km/h
221 24-12-2003 22:07:01 2.4 C 3.37 g/m*3 2.4 C 0 km/h
222 24-12-2003 22:07:59 2.4 C 3.37 g/m*3 2.4 C 0 km/h
223 24-12-2003 22:19:01 2.4 C 3.31 g/m*3 2.4 C 0 km/h
224 24-12-2003 22:31:01 2.4 C 3.31 g/m*3 2.4 C 0 km/h
225 24-12-2003 22:43:01 2.5 C 3.28 g/m*3 2.5 C 0 km/h
Sensor: Nr:Datum:Temp:Abs-Feuchte:Windchill:Wind:
Aussen-T/F 226 24-12-2003 22:55:01 2.4 C 3.31 g/m*3 2.4 C 0 km/h
227 24-12-2003 23:07:00 2.5 C 3.28 g/m*3 2.5 C 0 km/h
228 24-12-2003 23:19:00 2.6 C 3.24 g/m*3 2.6 C 0 km/h
229 24-12-2003 23:31:00 2.6 C 3.3 g/m*3 2.6 C 0 km/h
230 24-12-2003 23:43:01 2.6 C 3.3 g/m*3 2.6 C 0 km/h
231 24-12-2003 23:55:01 2.7 C 3.26 g/m*3 2.7 C 0 km/h
232 25-12-2003 00:07:01 2.8 C 3.23 g/m*3 2.8 C 0 km/h
233 25-12-2003 00:19:01 3 C 3.15 g/m*3 3 C 0 km/h
234 25-12-2003 00:31:01 3 C 3.15 g/m*3 3 C 0 km/h
235 25-12-2003 00:43:01 2.9 C 3.19 g/m*3 2.9 C 0 km/h
236 25-12-2003 00:55:01 2.8 C 3.23 g/m*3 2.8 C 0 km/h
237 25-12-2003 01:07:01 2.8 C 3.28 g/m*3 2.8 C 0 km/h
238 25-12-2003 01:19:01 2.8 C 3.28 g/m*3 2.8 C 0 km/h
239 25-12-2003 01:31:01 2.8 C 3.34 g/m*3 2.8 C 0 km/h
240 25-12-2003 01:43:00 2.8 C 3.28 g/m*3 2.8 C 0 km/h
241 25-12-2003 01:55:00 2.9 C 3.31 g/m*3 2.9 C 0 km/h
242 25-12-2003 02:07:59 2.9 C 3.31 g/m*3 2.9 C 0 km/h
243 25-12-2003 02:19:59 3 C 3.33 g/m*3 3 C 0 km/h
244 25-12-2003 02:31:01 3 C 3.33 g/m*3 3 C 0 km/h
245 25-12-2003 02:43:01 3 C 3.33 g/m*3 3 C 0 km/h
246 25-12-2003 02:55:01 3.1 C 3.35 g/m*3 3.1 C 0 km/h
247 25-12-2003 03:07:00 3 C 3.33 g/m*3 3 C 0 km/h
248 25-12-2003 03:19:00 3 C 3.33 g/m*3 3 C 0 km/h
249 25-12-2003 03:31:00 3.1 C 3.35 g/m*3 3.1 C 0 km/h
250 25-12-2003 03:43:00 3.2 C 3.31 g/m*3 3.2 C 0 km/h
Sensor: Nr:Datum:Temp:Abs-Feuchte:Windchill:Wind:
Aussen-T/F 251 25-12-2003 03:55:00 3.1 C 3.29 g/m*3 3.1 C 0 km/h
252 25-12-2003 04:08:00 3.1 C 3.29 g/m*3 3.1 C 0 km/h
253 25-12-2003 04:20:00 3.1 C 3.29 g/m*3 3.1 C 0 km/h
254 25-12-2003 04:31:01 3.1 C 3.35 g/m*3 3.1 C 0 km/h
255 25-12-2003 04:43:01 3.1 C 3.35 g/m*3 3.1 C 0 km/h
256 25-12-2003 04:55:01 3 C 3.33 g/m*3 3 C 0 km/h
257 25-12-2003 05:07:00 3 C 3.33 g/m*3 3 C 0 km/h
258 25-12-2003 05:19:00 3 C 3.39 g/m*3 3 C 0 km/h
259 25-12-2003 05:31:00 3 C 3.39 g/m*3 3 C 0 km/h
260 25-12-2003 05:43:01 3 C 3.45 g/m*3 3 C 0 km/h
261 25-12-2003 05:55:01 3 C 3.51 g/m*3 3 C 0 km/h
262 25-12-2003 06:07:00 3 C 3.57 g/m*3 3 C 0 km/h
263 25-12-2003 06:19:00 2.8 C 3.7 g/m*3 2.8 C 0 km/h
264 25-12-2003 06:31:00 2.7 C 3.73 g/m*3 2.7 C 0 km/h
265 25-12-2003 06:43:00 2.8 C 3.75 g/m*3 2.8 C 0 km/h
266 25-12-2003 06:55:00 2.7 C 3.79 g/m*3 2.7 C 0 km/h
267 25-12-2003 07:08:00 2.7 C 3.79 g/m*3 2.7 C 0 km/h
268 25-12-2003 07:20:01 2.8 C 3.81 g/m*3 2.8 C 0 km/h
269 25-12-2003 07:31:01 2.7 C 3.79 g/m*3 2.7 C 0 km/h
270 25-12-2003 07:43:01 2.8 C 3.87 g/m*3 2.8 C 0 km/h
271 25-12-2003 07:55:01 2.8 C 3.99 g/m*3 2.8 C 0 km/h
272 25-12-2003 08:07:00 2.8 C 4.05 g/m*3 2.8 C 0 km/h
273 25-12-2003 08:19:00 2.7 C 4.08 g/m*3 2.7 C 0 km/h
274 25-12-2003 08:31:00 2.7 C 4.08 g/m*3 2.7 C 0 km/h
275 25-12-2003 08:43:00 2.6 C 4.11 g/m*3 2.6 C 0 km/h
Sensor: Nr:Datum:Temp:Abs-Feuchte:Windchill:Wind:
Aussen-T/F 276 25-12-2003 08:55:00 2.6 C 4.17 g/m*3 2.6 C 0 km/h
277 25-12-2003 09:08:00 2.7 C 4.2 g/m*3 2.7 C 0 km/h
278 25-12-2003 09:20:01 2.7 C 4.2 g/m*3 2.7 C 0 km/h
279 25-12-2003 09:31:00 2.7 C 4.2 g/m*3 2.7 C 0 km/h
280 25-12-2003 09:43:01 2.7 C 4.2 g/m*3 2.7 C 0 km/h
281 25-12-2003 09:55:01 2.7 C 4.25 g/m*3 2.7 C 0 km/h
282 25-12-2003 10:07:00 2.8 C 4.28 g/m*3 2.8 C 0 km/h
283 25-12-2003 10:19:00 2.9 C 4.31 g/m*3 2.9 C 0 km/h
284 25-12-2003 10:31:00 3 C 4.28 g/m*3 3 C 0 km/h
285 25-12-2003 10:43:00 3.1 C 4.37 g/m*3 3.1 C 0 km/h
286 25-12-2003 10:55:00 3 C 4.34 g/m*3 3 C 0 km/h
287 25-12-2003 11:08:00 3 C 4.34 g/m*3 3 C 0 km/h
288 25-12-2003 11:20:01 3.1 C 4.43 g/m*3 3.1 C 0 km/h
289 25-12-2003 11:31:48 3.1 C 4.43 g/m*3 3.1 C 0 km/h
290 25-12-2003 11:43:48 3.1 C 4.49 g/m*3 3.1 C 0 km/h
291 25-12-2003 11:56:00 3.2 C 4.52 g/m*3 3.2 C 0 km/h
292 25-12-2003 12:08:01 3.3 C 4.55 g/m*3 3.3 C 0 km/h
293 25-12-2003 12:20:01 3.5 C 4.61 g/m*3 3.5 C 0 km/h
294 25-12-2003 12:31:00 3.4 C 4.58 g/m*3 3.4 C 0 km/h
295 25-12-2003 12:43:01 3.5 C 4.61 g/m*3 3.5 C 0 km/h
296 25-12-2003 12:55:01 3.6 C 4.7 g/m*3 3.6 C 0 km/h
297 25-12-2003 13:07:00 3.6 C 4.64 g/m*3 3.6 C 0 km/h
298 25-12-2003 13:19:00 3.6 C 4.7 g/m*3 3.6 C 0 km/h
299 25-12-2003 13:31:00 3.6 C 4.7 g/m*3 3.6 C 0 km/h
300 25-12-2003 13:43:00 3.7 C 4.74 g/m*3 3.7 C 0 km/h
Sensor: Nr:Datum:Temp:Abs-Feuchte:Windchill:Wind:
Aussen-T/F 301 25-12-2003 13:55:01 3.7 C 4.74 g/m*3 3.7 C 0 km/h
302 25-12-2003 14:07:00 3.7 C 4.74 g/m*3 3.7 C 0 km/h
303 25-12-2003 15:31:20 4 C 4.83 g/m*3 4 C 0 km/h
304 25-12-2003 15:43:49 4.1 C 4.86 g/m*3 4.1 C 0 km/h
305 25-12-2003 15:55:00 4.1 C 4.86 g/m*3 4.1 C 0 km/h
306 25-12-2003 16:04:05 4.1 C 4.86 g/m*3 4.1 C 0 km/h
307 25-12-2003 16:07:05 4.1 C 4.86 g/m*3 4.1 C 0 km/h
308 25-12-2003 16:10:06 4.1 C 4.86 g/m*3 4.1 C 0 km/h
309 25-12-2003 16:21:08 4.3 C 4.93 g/m*3 4.3 C 0 km/h
310 25-12-2003 16:24:07 4.1 C 4.86 g/m*3 4.1 C 0 km/h
311 25-12-2003 16:26:50 4.1 C 4.86 g/m*3 4.1 C 0 km/h
312 25-12-2003 16:38:50 4.1 C 4.86 g/m*3 4.1 C 0 km/h
313 25-12-2003 16:51:01 4.2 C 4.96 g/m*3 4.2 C 0 km/h
314 25-12-2003 17:03:01 4.2 C 4.96 g/m*3 4.2 C 0 km/h
315 25-12-2003 17:15:01 4.2 C 4.96 g/m*3 4.2 C 0 km/h
316 25-12-2003 17:27:01 4.3 C 4.99 g/m*3 4.3 C 0 km/h
317 25-12-2003 17:38:01 4.1 C 4.93 g/m*3 4.1 C 0 km/h
318 25-12-2003 17:50:01 4 C 4.96 g/m*3 4 C 0 km/h
319 25-12-2003 18:02:00 4 C 4.96 g/m*3 4 C 0 km/h
320 25-12-2003 18:14:00 4 C 4.96 g/m*3 4 C 0 km/h
321 25-12-2003 18:26:00 4 C 4.96 g/m*3 4 C 0 km/h
322 25-12-2003 18:38:00 4 C 4.96 g/m*3 4 C 0 km/h
323 25-12-2003 18:50:00 4 C 5.02 g/m*3 4 C 0 km/h
324 25-12-2003 19:02:00 4.1 C 5.06 g/m*3 4.1 C 0 km/h
325 25-12-2003 19:14:00 4.1 C 5.06 g/m*3 4.1 C 0 km/h
Sensor: Nr:Datum:Temp:Abs-Feuchte:Windchill:Wind:
Aussen-T/F 326 25-12-2003 19:26:00 4.3 C 5.12 g/m*3 4.3 C 0 km/h
327 25-12-2003 19:38:46 4.2 C 5.09 g/m*3 4.2 C 0 km/h
328 25-12-2003 19:50:46 4.2 C 5.09 g/m*3 4.2 C 0 km/h
329 25-12-2003 20:03:01 4.3 C 5.12 g/m*3 4.3 C 0 km/h
330 25-12-2003 20:15:01 4.5 C 5.19 g/m*3 4.5 C 0 km/h
331 25-12-2003 20:27:01 4.6 C 5.23 g/m*3 4.6 C 0 km/h
332 25-12-2003 20:38:00 4.7 C 5.2 g/m*3 4.7 C 0 km/h
333 25-12-2003 20:50:01 4.8 C 5.23 g/m*3 4.8 C 0 km/h
334 25-12-2003 21:02:00 4.8 C 5.23 g/m*3 4.8 C 0 km/h
335 25-12-2003 21:14:00 4.9 C 5.27 g/m*3 4.9 C 0 km/h
336 25-12-2003 21:26:00 5 C 5.23 g/m*3 5 C 0 km/h
337 25-12-2003 21:38:00 5.1 C 5.27 g/m*3 5.1 C 0 km/h
338 25-12-2003 21:50:00 5.2 C 5.23 g/m*3 5.2 C 0 km/h
339 25-12-2003 22:02:01 5.2 C 5.23 g/m*3 5.2 C 0 km/h
340 25-12-2003 22:14:01 5.3 C 5.27 g/m*3 5.3 C 0 km/h
341 25-12-2003 22:26:01 5.3 C 5.27 g/m*3 5.3 C 0 km/h
342 25-12-2003 22:38:01 5.3 C 5.27 g/m*3 5.3 C 0 km/h
343 25-12-2003 22:50:01 5.3 C 5.34 g/m*3 5.3 C 0 km/h
344 25-12-2003 23:02:00 5.3 C 5.41 g/m*3 5.3 C 0 km/h
345 25-12-2003 23:14:00 5.3 C 5.41 g/m*3 5.3 C 0 km/h
346 25-12-2003 23:26:00 5.3 C 5.41 g/m*3 5.3 C 0 km/h
347 25-12-2003 23:38:00 5.4 C 5.44 g/m*3 5.4 C 0 km/h
348 25-12-2003 23:50:00 5.3 C 5.48 g/m*3 5.3 C 0 km/h
349 26-12-2003 00:03:01 5.4 C 5.44 g/m*3 5.4 C 0 km/h
350 26-12-2003 00:15:01 5.5 C 5.48 g/m*3 5.5 C 0 km/h
Sensor: Nr:Datum:Temp:Abs-Feuchte:Windchill:Wind:
Aussen-T/F 351 26-12-2003 00:27:01 5.5 C 5.48 g/m*3 5.5 C 0 km/h
352 26-12-2003 00:38:01 5.5 C 5.41 g/m*3 5.5 C 0 km/h
353 26-12-2003 00:50:01 5.5 C 5.41 g/m*3 5.5 C 0 km/h
354 26-12-2003 01:02:00 5.5 C 5.48 g/m*3 5.5 C 0 km/h
355 26-12-2003 01:14:00 5.5 C 5.41 g/m*3 5.5 C 0 km/h
356 26-12-2003 01:26:00 5.6 C 5.44 g/m*3 5.6 C 0 km/h
357 26-12-2003 01:38:01 5.6 C 5.44 g/m*3 5.6 C 0 km/h
358 26-12-2003 01:50:01 5.6 C 5.44 g/m*3 5.6 C 0 km/h
359 26-12-2003 02:02:00 5.6 C 5.44 g/m*3 5.6 C 0 km/h
360 26-12-2003 02:14:00 5.5 C 5.41 g/m*3 5.5 C 0 km/h
361 26-12-2003 02:26:00 5.5 C 5.41 g/m*3 5.5 C 0 km/h
362 26-12-2003 02:38:01 5.5 C 5.41 g/m*3 5.5 C 0 km/h
363 26-12-2003 02:50:01 5.4 C 5.44 g/m*3 5.4 C 0 km/h
364 26-12-2003 03:02:00 5.3 C 5.41 g/m*3 5.3 C 0 km/h
365 26-12-2003 03:14:00 5.4 C 5.44 g/m*3 5.4 C 0 km/h
366 26-12-2003 03:26:00 5.5 C 5.41 g/m*3 5.5 C 0 km/h
367 26-12-2003 03:38:00 5.3 C 5.34 g/m*3 5.3 C 0 km/h
368 26-12-2003 03:50:00 5.2 C 5.3 g/m*3 5.2 C 0 km/h
369 26-12-2003 04:03:01 5.2 C 5.3 g/m*3 5.2 C 0 km/h
370 26-12-2003 04:15:01 5.3 C 5.27 g/m*3 5.3 C 0 km/h
371 26-12-2003 04:27:01 5.1 C 5.27 g/m*3 5.1 C 0 km/h
372 26-12-2003 04:38:01 5 C 5.3 g/m*3 5 C 0 km/h
373 26-12-2003 04:50:01 5 C 5.37 g/m*3 5 C 0 km/h
374 26-12-2003 05:02:00 5 C 5.37 g/m*3 5 C 0 km/h
375 26-12-2003 05:14:00 5.3 C 5.48 g/m*3 5.3 C 0 km/h
Sensor: Nr:Datum:Temp:Abs-Feuchte:Windchill:Wind:
Aussen-T/F 376 26-12-2003 05:26:00 5.5 C 5.41 g/m*3 5.5 C 0 km/h
377 26-12-2003 05:38:00 5.6 C 5.3 g/m*3 5.6 C 0 km/h
378 26-12-2003 05:50:00 5.7 C 5.34 g/m*3 5.7 C 0 km/h
379 26-12-2003 06:03:01 5.7 C 5.34 g/m*3 5.7 C 0 km/h
380 26-12-2003 06:15:01 5.7 C 5.34 g/m*3 5.7 C 0 km/h
381 26-12-2003 06:27:01 5.7 C 5.41 g/m*3 5.7 C 0 km/h
382 26-12-2003 06:38:01 5.6 C 5.37 g/m*3 5.6 C 0 km/h
383 26-12-2003 06:50:01 5.5 C 5.41 g/m*3 5.5 C 0 km/h
384 26-12-2003 07:02:00 5.5 C 5.41 g/m*3 5.5 C 0 km/h
385 26-12-2003 07:14:00 5.5 C 5.34 g/m*3 5.5 C 0 km/h
386 26-12-2003 07:26:00 5.5 C 5.34 g/m*3 5.5 C 0 km/h
387 26-12-2003 07:38:00 5.5 C 5.34 g/m*3 5.5 C 0 km/h
388 26-12-2003 07:50:01 5.5 C 5.34 g/m*3 5.5 C 0 km/h
389 26-12-2003 08:02:00 5.5 C 5.27 g/m*3 5.5 C 0 km/h
390 26-12-2003 08:14:00 5.5 C 5.27 g/m*3 5.5 C 0 km/h
391 26-12-2003 08:26:00 5.6 C 5.3 g/m*3 5.6 C 0 km/h
392 26-12-2003 08:38:00 5.5 C 5.27 g/m*3 5.5 C 0 km/h
393 26-12-2003 08:50:00 5.5 C 5.27 g/m*3 5.5 C 0 km/h
394 26-12-2003 09:03:01 5.6 C 5.23 g/m*3 5.6 C 0 km/h
395 26-12-2003 09:15:01 5.6 C 5.23 g/m*3 5.6 C 0 km/h
396 26-12-2003 09:27:01 5.7 C 5.27 g/m*3 5.7 C 0 km/h
397 26-12-2003 09:38:01 5.7 C 5.19 g/m*3 5.7 C 0 km/h
398 26-12-2003 09:50:01 5.7 C 5.19 g/m*3 5.7 C 0 km/h
399 26-12-2003 10:02:00 5.7 C 5.19 g/m*3 5.7 C 0 km/h
400 26-12-2003 10:14:00 5.7 C 5.12 g/m*3 5.7 C 0 km/h
Sensor: Nr:Datum:Temp:Abs-Feuchte:Windchill:Wind:
Aussen-T/F 401 26-12-2003 10:26:00 5.7 C 5.12 g/m*3 5.7 C 0 km/h
402 26-12-2003 10:38:01 5.8 C 5.16 g/m*3 5.8 C 0 km/h
403 26-12-2003 10:50:01 5.8 C 5.16 g/m*3 5.8 C 0 km/h
404 26-12-2003 11:02:00 5.9 C 5.12 g/m*3 5.9 C 0 km/h
405 26-12-2003 11:14:00 6 C 5.01 g/m*3 6 C 0 km/h
406 26-12-2003 11:38:12 6 C 5.08 g/m*3 6 C 0 km/h
407 26-12-2003 11:50:12 6 C 5.08 g/m*3 6 C 0 km/h
408 26-12-2003 12:02:12 6.2 C 5 g/m*3 6.2 C 0 km/h
409 26-12-2003 12:15:00 6.2 C 5 g/m*3 6.2 C 0 km/h
410 26-12-2003 12:27:00 6.4 C 4.99 g/m*3 6.4 C 0 km/h
411 26-12-2003 12:38:02 6.4 C 4.99 g/m*3 6.4 C 0 km/h
412 26-12-2003 12:50:02 6.5 C 5.02 g/m*3 6.5 C 0 km/h
413 26-12-2003 13:02:00 6.5 C 4.95 g/m*3 6.5 C 0 km/h
414 26-12-2003 13:14:00 6.7 C 5.01 g/m*3 6.7 C 0 km/h
415 26-12-2003 13:26:00 6.7 C 5.01 g/m*3 6.7 C 0 km/h
416 26-12-2003 13:38:00 6.7 C 5.01 g/m*3 6.7 C 0 km/h
417 26-12-2003 13:50:00 6.7 C 4.94 g/m*3 6.7 C 0 km/h
418 26-12-2003 14:02:01 6.7 C 4.94 g/m*3 6.7 C 0 km/h
419 26-12-2003 14:14:01 6.6 C 4.98 g/m*3 6.6 C 0 km/h
420 26-12-2003 14:26:01 6.8 C 5.05 g/m*3 6.8 C 0 km/h
421 26-12-2003 14:38:00 6.4 C 4.84 g/m*3 6.4 C 0 km/h
422 26-12-2003 14:50:00 6.5 C 4.87 g/m*3 6.5 C 0 km/h
423 26-12-2003 15:02:00 6.4 C 4.92 g/m*3 6.4 C 0 km/h
424 26-12-2003 15:14:00 6.2 C 4.85 g/m*3 6.2 C 0 km/h
425 26-12-2003 15:26:00 6.1 C 4.82 g/m*3 6.1 C 0 km/h
Sensor: Nr:Datum:Temp:Abs-Feuchte:Windchill:Wind:
Aussen-T/F 426 26-12-2003 15:38:00 6 C 4.79 g/m*3 6 C 0 km/h
427 26-12-2003 15:50:00 5.8 C 4.8 g/m*3 5.8 C 0 km/h
428 26-12-2003 16:03:01 5.6 C 4.74 g/m*3 5.6 C 0 km/h
429 26-12-2003 16:15:01 5.4 C 4.74 g/m*3 5.4 C 0 km/h
430 26-12-2003 16:27:01 5.2 C 4.75 g/m*3 5.2 C 0 km/h
431 26-12-2003 16:38:01 5.1 C 4.65 g/m*3 5.1 C 0 km/h
432 26-12-2003 16:50:01 4.9 C 4.73 g/m*3 4.9 C 0 km/h
433 26-12-2003 17:02:00 4.9 C 4.66 g/m*3 4.9 C 0 km/h
434 26-12-2003 17:14:00 4.7 C 4.66 g/m*3 4.7 C 0 km/h
435 26-12-2003 17:26:01 4.4 C 4.7 g/m*3 4.4 C 0 km/h
436 26-12-2003 17:38:00 4.3 C 4.67 g/m*3 4.3 C 0 km/h
437 26-12-2003 17:50:00 4.3 C 4.74 g/m*3 4.3 C 0 km/h
438 26-12-2003 18:03:00 4.1 C 4.67 g/m*3 4.1 C 0 km/h
439 26-12-2003 18:15:01 4.1 C 4.67 g/m*3 4.1 C 0 km/h
440 26-12-2003 18:27:01 4 C 4.64 g/m*3 4 C 0 km/h
441 26-12-2003 18:38:01 4 C 4.7 g/m*3 4 C 0 km/h
442 26-12-2003 18:50:01 3.9 C 4.8 g/m*3 3.9 C 0 km/h
443 26-12-2003 19:02:00 3.9 C 4.8 g/m*3 3.9 C 0 km/h
444 26-12-2003 19:14:00 3.9 C 4.8 g/m*3 3.9 C 0 km/h
445 26-12-2003 19:26:01 3.9 C 4.74 g/m*3 3.9 C 0 km/h
446 26-12-2003 19:38:00 4.1 C 4.67 g/m*3 4.1 C 0 km/h
447 26-12-2003 19:50:00 4.8 C 4.69 g/m*3 4.8 C 0 km/h
448 26-12-2003 20:03:01 5.8 C 4.73 g/m*3 5.8 C 0 km/h
449 26-12-2003 20:15:01 6.4 C 4.62 g/m*3 6.4 C 0 km/h
450 26-12-2003 20:27:01 6.9 C 4.7 g/m*3 6.9 C 0 km/h
Sensor: Nr:Datum:Temp:Abs-Feuchte:Windchill:Wind:
Aussen-T/F 451 26-12-2003 20:38:00 6.8 C 4.74 g/m*3 6.8 C 0 km/h
452 26-12-2003 20:50:01 6.8 C 4.82 g/m*3 6.8 C 0 km/h
453 26-12-2003 21:02:00 6.7 C 4.79 g/m*3 6.7 C 0 km/h
454 26-12-2003 21:14:00 6.7 C 4.86 g/m*3 6.7 C 0 km/h
455 26-12-2003 21:26:00 6.8 C 4.97 g/m*3 6.8 C 0 km/h
456 26-12-2003 21:38:01 6.5 C 4.95 g/m*3 6.5 C 0 km/h
457 26-12-2003 21:50:01 6.5 C 5.02 g/m*3 6.5 C 0 km/h
458 26-12-2003 22:02:00 6.5 C 5.02 g/m*3 6.5 C 0 km/h
459 26-12-2003 22:14:00 6.5 C 5.1 g/m*3 6.5 C 0 km/h
460 26-12-2003 22:26:00 6.8 C 5.35 g/m*3 6.8 C 0 km/h
461 26-12-2003 22:38:00 6.7 C 5.32 g/m*3 6.7 C 0 km/h
462 26-12-2003 22:50:00 6.8 C 5.35 g/m*3 6.8 C 0 km/h
463 26-12-2003 23:03:01 7 C 5.35 g/m*3 7 C 0 km/h
464 26-12-2003 23:15:01 7 C 5.35 g/m*3 7 C 0 km/h
465 26-12-2003 23:27:01 7.3 C 5.45 g/m*3 7.3 C 0 km/h
466 26-12-2003 23:38:01 7.3 C 5.45 g/m*3 7.3 C 0 km/h
467 26-12-2003 23:50:01 7.4 C 5.49 g/m*3 7.4 C 0 km/h
468 27-12-2003 00:02:00 7.4 C 5.41 g/m*3 7.4 C 0 km/h
469 27-12-2003 00:14:00 7.5 C 5.36 g/m*3 7.5 C 0 km/h
470 27-12-2003 00:26:00 7.5 C 5.36 g/m*3 7.5 C 0 km/h
471 27-12-2003 00:38:01 7.5 C 5.36 g/m*3 7.5 C 0 km/h
472 27-12-2003 00:50:01 7.5 C 5.36 g/m*3 7.5 C 0 km/h
473 27-12-2003 01:02:00 7.6 C 5.4 g/m*3 7.6 C 0 km/h
474 27-12-2003 01:14:00 7.6 C 5.4 g/m*3 7.6 C 0 km/h
475 27-12-2003 01:26:01 7.8 C 5.47 g/m*3 7.8 C 0 km/h
Sensor: Nr:Datum:Temp:Abs-Feuchte:Windchill:Wind:
Aussen-T/F 476 27-12-2003 01:38:00 7.9 C 5.59 g/m*3 7.9 C 0 km/h
477 27-12-2003 01:50:00 8.1 C 5.49 g/m*3 8.1 C 0 km/h
478 27-12-2003 02:03:01 8.1 C 5.57 g/m*3 8.1 C 0 km/h
479 27-12-2003 02:15:01 8.4 C 5.6 g/m*3 8.4 C 0 km/h
480 27-12-2003 02:27:01 8.4 C 5.6 g/m*3 8.4 C 0 km/h
481 27-12-2003 02:38:01 8.4 C 5.6 g/m*3 8.4 C 0 km/h
482 27-12-2003 02:50:01 8.5 C 5.64 g/m*3 8.5 C 0 km/h
483 27-12-2003 03:02:00 8.4 C 5.68 g/m*3 8.4 C 0 km/h
484 27-12-2003 03:14:00 8.4 C 5.6 g/m*3 8.4 C 0 km/h
485 27-12-2003 03:26:00 8.4 C 5.6 g/m*3 8.4 C 0 km/h
486 27-12-2003 03:38:01 8.5 C 5.64 g/m*3 8.5 C 0 km/h
487 27-12-2003 03:50:01 8.6 C 5.67 g/m*3 8.6 C 0 km/h
488 27-12-2003 04:02:00 8.5 C 5.64 g/m*3 8.5 C 0 km/h
489 27-12-2003 04:14:00 8.6 C 5.67 g/m*3 8.6 C 0 km/h
490 27-12-2003 04:26:00 8.6 C 5.59 g/m*3 8.6 C 0 km/h
491 27-12-2003 04:38:00 8.5 C 5.64 g/m*3 8.5 C 0 km/h
492 27-12-2003 04:50:00 8.6 C 5.59 g/m*3 8.6 C 0 km/h
493 27-12-2003 05:03:01 8.7 C 5.62 g/m*3 8.7 C 0 km/h
494 27-12-2003 05:15:01 8.7 C 5.62 g/m*3 8.7 C 0 km/h
495 27-12-2003 05:27:01 8.6 C 5.59 g/m*3 8.6 C 0 km/h
496 27-12-2003 05:38:01 8.7 C 5.53 g/m*3 8.7 C 0 km/h
497 27-12-2003 05:50:01 8.8 C 5.57 g/m*3 8.8 C 0 km/h
498 27-12-2003 06:02:00 8.9 C 5.61 g/m*3 8.9 C 0 km/h
499 27-12-2003 06:14:00 8.8 C 5.48 g/m*3 8.8 C 0 km/h
500 27-12-2003 06:26:00 8.8 C 5.48 g/m*3 8.8 C 0 km/h
Sensor: Nr:Datum:Temp:Abs-Feuchte:Windchill:Wind:
Aussen-T/F 501 27-12-2003 06:38:00 8.8 C 5.48 g/m*3 8.8 C 0 km/h
502 27-12-2003 06:50:00 8.8 C 5.48 g/m*3 8.8 C 0 km/h
503 27-12-2003 07:03:01 8.8 C 5.48 g/m*3 8.8 C 0 km/h
504 27-12-2003 07:15:01 8.8 C 5.48 g/m*3 8.8 C 0 km/h
505 27-12-2003 07:27:01 8.8 C 5.48 g/m*3 8.8 C 0 km/h
506 27-12-2003 07:38:01 8.5 C 5.46 g/m*3 8.5 C 0 km/h
507 27-12-2003 07:50:01 8.7 C 5.53 g/m*3 8.7 C 0 km/h
508 27-12-2003 08:02:00 8.8 C 5.57 g/m*3 8.8 C 0 km/h
509 27-12-2003 08:14:00 8.8 C 5.57 g/m*3 8.8 C 0 km/h
510 27-12-2003 08:26:00 8.8 C 5.66 g/m*3 8.8 C 0 km/h
511 27-12-2003 08:38:01 8.9 C 5.69 g/m*3 8.9 C 0 km/h
512 27-12-2003 08:50:01 8.7 C 5.71 g/m*3 8.7 C 0 km/h
513 27-12-2003 09:02:00 8.4 C 5.77 g/m*3 8.4 C 0 km/h
514 27-12-2003 09:14:00 8.3 C 5.82 g/m*3 8.3 C 0 km/h
515 27-12-2003 09:26:00 8.1 C 5.82 g/m*3 8.1 C 0 km/h
516 27-12-2003 09:38:00 7.7 C 5.92 g/m*3 7.7 C 0 km/h
517 27-12-2003 09:50:00 7.1 C 5.77 g/m*3 7.1 C 0 km/h
518 27-12-2003 10:03:01 6.6 C 5.74 g/m*3 6.6 C 0 km/h
519 27-12-2003 10:15:01 6.5 C 5.85 g/m*3 6.5 C 0 km/h
520 27-12-2003 10:27:01 6.4 C 5.89 g/m*3 6.4 C 0 km/h
521 27-12-2003 10:38:00 6.4 C 5.89 g/m*3 6.4 C 0 km/h
522 27-12-2003 10:50:00 6.4 C 5.89 g/m*3 6.4 C 0 km/h
523 27-12-2003 11:02:00 6.4 C 5.89 g/m*3 6.4 C 0 km/h
524 27-12-2003 11:14:00 6.6 C 5.89 g/m*3 6.6 C 0 km/h
525 27-12-2003 11:26:01 6.9 C 5.85 g/m*3 6.9 C 0 km/h
Sensor: Nr:Datum:Temp:Abs-Feuchte:Windchill:Wind:
Aussen-T/F 526 27-12-2003 11:38:00 7 C 5.66 g/m*3 7 C 0 km/h
527 27-12-2003 11:50:00 7 C 5.42 g/m*3 7 C 0 km/h
528 27-12-2003 12:03:00 7 C 5.5 g/m*3 7 C 0 km/h
529 27-12-2003 12:15:01 7 C 5.35 g/m*3 7 C 0 km/h
530 27-12-2003 12:27:01 7 C 5.27 g/m*3 7 C 0 km/h
531 27-12-2003 12:38:00 7 C 5.27 g/m*3 7 C 0 km/h
532 27-12-2003 12:50:00 6.9 C 5.39 g/m*3 6.9 C 0 km/h
533 27-12-2003 13:02:00 7 C 5.35 g/m*3 7 C 0 km/h
534 27-12-2003 13:14:00 7.2 C 5.34 g/m*3 7.2 C 0 km/h
535 27-12-2003 13:26:00 7.1 C 5.23 g/m*3 7.1 C 0 km/h
536 27-12-2003 13:38:00 7.1 C 5.23 g/m*3 7.1 C 0 km/h
537 27-12-2003 13:50:00 7 C 5.19 g/m*3 7 C 0 km/h
538 27-12-2003 14:03:00 6.8 C 5.2 g/m*3 6.8 C 0 km/h
539 27-12-2003 14:15:00 6.9 C 5.23 g/m*3 6.9 C 0 km/h
540 27-12-2003 14:27:01 6.9 C 5.23 g/m*3 6.9 C 0 km/h
541 27-12-2003 14:38:25 7 C 5.27 g/m*3 7 C 0 km/h
542 27-12-2003 14:50:25 7 C 5.27 g/m*3 7 C 0 km/h
543 27-12-2003 14:57:01 7 C 5.27 g/m*3 7 C 0 km/h
544 27-12-2003 15:09:00 6.9 C 5.31 g/m*3 6.9 C 0 km/h
545 27-12-2003 15:21:00 6.9 C 5.31 g/m*3 6.9 C 0 km/h
546 27-12-2003 15:33:00 6.9 C 5.23 g/m*3 6.9 C 0 km/h
547 27-12-2003 15:45:00 7 C 5.19 g/m*3 7 C 0 km/h
548 27-12-2003 15:57:01 6.8 C 5.2 g/m*3 6.8 C 0 km/h
549 27-12-2003 16:09:00 6.7 C 5.17 g/m*3 6.7 C 0 km/h
550 27-12-2003 16:21:00 6.5 C 5.17 g/m*3 6.5 C 0 km/h
Sensor: Nr:Datum:Temp:Abs-Feuchte:Windchill:Wind:
Aussen-T/F 551 27-12-2003 16:33:00 6.8 C 5.2 g/m*3 6.8 C 0 km/h
552 27-12-2003 16:45:00 6.3 C 5.4 g/m*3 6.3 C 0 km/h
553 27-12-2003 16:57:00 6 C 5.52 g/m*3 6 C 0 km/h
554 27-12-2003 17:10:01 5.9 C 5.34 g/m*3 5.9 C 0 km/h
555 27-12-2003 17:22:01 6.2 C 5.29 g/m*3 6.2 C 0 km/h
556 27-12-2003 17:33:01 6.4 C 5.29 g/m*3 6.4 C 0 km/h
557 27-12-2003 17:45:01 6.1 C 5.19 g/m*3 6.1 C 0 km/h
558 27-12-2003 17:57:01 5.9 C 5.26 g/m*3 5.9 C 0 km/h
559 27-12-2003 18:09:00 5.6 C 5.16 g/m*3 5.6 C 0 km/h
560 27-12-2003 18:21:00 5.2 C 5.1 g/m*3 5.2 C 0 km/h
561 27-12-2003 18:33:01 5.2 C 5.1 g/m*3 5.2 C 0 km/h
562 27-12-2003 18:45:01 5.1 C 4.99 g/m*3 5.1 C 0 km/h
563 27-12-2003 18:57:01 5.1 C 4.99 g/m*3 5.1 C 0 km/h
564 27-12-2003 19:09:00 5.2 C 4.96 g/m*3 5.2 C 0 km/h
565 27-12-2003 19:21:00 5.1 C 4.99 g/m*3 5.1 C 0 km/h
566 27-12-2003 19:33:00 4.8 C 5.16 g/m*3 4.8 C 0 km/h
567 27-12-2003 19:45:00 4.9 C 5.2 g/m*3 4.9 C 0 km/h
568 27-12-2003 19:57:00 4.8 C 5.1 g/m*3 4.8 C 0 km/h
569 27-12-2003 20:10:01 4.9 C 5.2 g/m*3 4.9 C 0 km/h
570 27-12-2003 20:22:01 4.8 C 5.16 g/m*3 4.8 C 0 km/h
571 27-12-2003 20:33:00 5 C 5.1 g/m*3 5 C 0 km/h
572 27-12-2003 20:45:01 5.3 C 5.06 g/m*3 5.3 C 0 km/h
573 27-12-2003 20:57:01 5.3 C 4.99 g/m*3 5.3 C 0 km/h
574 27-12-2003 21:09:00 5.2 C 4.96 g/m*3 5.2 C 0 km/h
575 27-12-2003 21:21:00 5.4 C 5.02 g/m*3 5.4 C 0 km/h
Sensor: Nr:Datum:Temp:Abs-Feuchte:Windchill:Wind:
Aussen-T/F 576 27-12-2003 21:33:00 5.7 C 5.05 g/m*3 5.7 C 0 km/h
577 27-12-2003 21:45:01 5.6 C 5.09 g/m*3 5.6 C 0 km/h
578 27-12-2003 21:57:01 5.7 C 5.12 g/m*3 5.7 C 0 km/h
579 27-12-2003 22:09:00 5.8 C 5.16 g/m*3 5.8 C 0 km/h
580 27-12-2003 22:21:00 5.9 C 5.19 g/m*3 5.9 C 0 km/h
581 27-12-2003 22:33:00 5.7 C 5.19 g/m*3 5.7 C 0 km/h
582 27-12-2003 22:45:00 5.6 C 5.16 g/m*3 5.6 C 0 km/h
583 27-12-2003 22:57:00 5.4 C 5.16 g/m*3 5.4 C 0 km/h
584 27-12-2003 23:10:01 5.3 C 5.2 g/m*3 5.3 C 0 km/h
585 27-12-2003 23:22:01 5.3 C 5.2 g/m*3 5.3 C 0 km/h
586 27-12-2003 23:33:01 5.3 C 5.2 g/m*3 5.3 C 0 km/h
587 27-12-2003 23:45:01 5.3 C 5.27 g/m*3 5.3 C 0 km/h
588 27-12-2003 23:57:01 5.3 C 5.27 g/m*3 5.3 C 0 km/h
589 28-12-2003 00:09:00 5.4 C 5.37 g/m*3 5.4 C 0 km/h
590 28-12-2003 00:21:01 5.6 C 5.37 g/m*3 5.6 C 0 km/h
591 28-12-2003 00:33:00 5.4 C 5.37 g/m*3 5.4 C 0 km/h
592 28-12-2003 00:45:00 5.3 C 5.34 g/m*3 5.3 C 0 km/h
593 28-12-2003 00:57:00 5.6 C 5.44 g/m*3 5.6 C 0 km/h
594 28-12-2003 01:10:01 5.6 C 5.44 g/m*3 5.6 C 0 km/h
595 28-12-2003 01:22:01 5.8 C 5.59 g/m*3 5.8 C 0 km/h
596 28-12-2003 01:33:01 5.7 C 5.62 g/m*3 5.7 C 0 km/h
597 28-12-2003 01:45:01 5.9 C 5.77 g/m*3 5.9 C 0 km/h
598 28-12-2003 01:57:01 5.8 C 5.8 g/m*3 5.8 C 0 km/h
599 28-12-2003 02:09:00 5.9 C 5.84 g/m*3 5.9 C 0 km/h
600 28-12-2003 02:21:00 5.9 C 5.84 g/m*3 5.9 C 0 km/h
Sensor: Nr:Datum:Temp:Abs-Feuchte:Windchill:Wind:
Aussen-T/F 601 28-12-2003 02:33:00 5.7 C 5.84 g/m*3 5.7 C 0 km/h
602 28-12-2003 02:45:00 5.7 C 5.91 g/m*3 5.7 C 0 km/h
603 28-12-2003 02:57:00 5.6 C 5.87 g/m*3 5.6 C 0 km/h
604 28-12-2003 03:10:01 5.6 C 5.87 g/m*3 5.6 C 0 km/h
605 28-12-2003 03:22:01 5.7 C 5.91 g/m*3 5.7 C 0 km/h
606 28-12-2003 03:33:00 6.3 C 5.92 g/m*3 6.3 C 0 km/h
607 28-12-2003 03:45:01 7 C 5.89 g/m*3 7 C 0 km/h
608 28-12-2003 03:57:01 6.9 C 5.85 g/m*3 6.9 C 0 km/h
609 28-12-2003 04:09:00 7.2 C 5.73 g/m*3 7.2 C 0 km/h
610 28-12-2003 04:21:00 7.1 C 5.77 g/m*3 7.1 C 0 km/h
611 28-12-2003 04:33:00 7.6 C 5.72 g/m*3 7.6 C 0 km/h
612 28-12-2003 04:45:00 7.7 C 5.76 g/m*3 7.7 C 0 km/h
613 28-12-2003 04:57:00 7.4 C 5.88 g/m*3 7.4 C 0 km/h
614 28-12-2003 05:10:01 7.1 C 6.01 g/m*3 7.1 C 0 km/h
615 28-12-2003 05:22:01 6.9 C 6.16 g/m*3 6.9 C 0 km/h
616 28-12-2003 05:33:01 6.8 C 6.19 g/m*3 6.8 C 0 km/h
617 28-12-2003 05:45:01 6.9 C 6.16 g/m*3 6.9 C 0 km/h
618 28-12-2003 05:57:01 7 C 6.12 g/m*3 7 C 0 km/h
619 28-12-2003 06:09:00 6.9 C 6.24 g/m*3 6.9 C 0 km/h
620 28-12-2003 06:21:00 7 C 6.12 g/m*3 7 C 0 km/h
621 28-12-2003 06:33:01 6.9 C 6.31 g/m*3 6.9 C 0 km/h
622 28-12-2003 06:45:01 6.8 C 6.35 g/m*3 6.8 C 0 km/h
623 28-12-2003 06:57:01 6.7 C 6.31 g/m*3 6.7 C 0 km/h
624 28-12-2003 07:09:00 6.5 C 6.3 g/m*3 6.5 C 0 km/h
625 28-12-2003 07:21:00 6.4 C 6.26 g/m*3 6.4 C 0 km/h
Sensor: Nr:Datum:Temp:Abs-Feuchte:Windchill:Wind:
Aussen-T/F 626 28-12-2003 07:33:00 6.5 C 6.37 g/m*3 6.5 C 0 km/h
627 28-12-2003 07:45:00 6.5 C 6.3 g/m*3 6.5 C 0 km/h
628 28-12-2003 07:57:00 6.5 C 6.3 g/m*3 6.5 C 0 km/h
629 28-12-2003 08:10:01 6.5 C 6.37 g/m*3 6.5 C 0 km/h
630 28-12-2003 08:22:01 6.8 C 6.42 g/m*3 6.8 C 0 km/h
631 28-12-2003 08:33:01 6.7 C 6.31 g/m*3 6.7 C 0 km/h
632 28-12-2003 08:45:01 7.1 C 6.4 g/m*3 7.1 C 0 km/h
633 28-12-2003 08:57:01 7.6 C 6.36 g/m*3 7.6 C 0 km/h
634 28-12-2003 09:09:00 7.6 C 6.28 g/m*3 7.6 C 0 km/h
635 28-12-2003 09:21:00 7.7 C 6.24 g/m*3 7.7 C 0 km/h
636 28-12-2003 09:33:00 7.8 C 6.2 g/m*3 7.8 C 0 km/h
637 28-12-2003 09:45:00 7.6 C 6.2 g/m*3 7.6 C 0 km/h
638 28-12-2003 09:57:00 7.9 C 6.16 g/m*3 7.9 C 0 km/h
639 28-12-2003 10:10:01 8 C 6.12 g/m*3 8 C 0 km/h
640 28-12-2003 10:22:01 8.1 C 6.16 g/m*3 8.1 C 0 km/h
641 28-12-2003 10:33:01 8.5 C 6.23 g/m*3 8.5 C 0 km/h
642 28-12-2003 10:45:01 8.2 C 6.36 g/m*3 8.2 C 0 km/h
643 28-12-2003 10:57:01 8.2 C 6.45 g/m*3 8.2 C 0 km/h
644 28-12-2003 11:09:00 8.2 C 6.45 g/m*3 8.2 C 0 km/h
645 28-12-2003 11:21:00 8.3 C 6.49 g/m*3 8.3 C 0 km/h
646 28-12-2003 11:33:00 8.7 C 6.57 g/m*3 8.7 C 0 km/h
647 28-12-2003 11:45:00 9.1 C 6.48 g/m*3 9.1 C 0 km/h
648 28-12-2003 11:57:00 9.7 C 6.36 g/m*3 9.7 C 0 km/h
649 28-12-2003 12:10:01 9.8 C 6.31 g/m*3 9.8 C 0 km/h
650 28-12-2003 12:22:01 10.1 C 6.24 g/m*3 10.1 C 0 km/h
Sensor: Nr:Datum:Temp:Abs-Feuchte:Windchill:Wind:
Aussen-T/F 651 28-12-2003 12:33:00 10.2 C 6.28 g/m*3 10.2 C 0 km/h
652 28-12-2003 12:45:01 10.3 C 6.32 g/m*3 10.3 C 0 km/h
653 28-12-2003 12:57:01 10.3 C 6.03 g/m*3 10.3 C 0 km/h
654 28-12-2003 13:09:00 10.4 C 6.17 g/m*3 10.4 C 0 km/h
655 28-12-2003 13:21:00 10.4 C 6.07 g/m*3 10.4 C 0 km/h
656 28-12-2003 13:33:00 10.6 C 5.95 g/m*3 10.6 C 0 km/h
657 28-12-2003 13:45:00 10.6 C 6.05 g/m*3 10.6 C 0 km/h
658 28-12-2003 13:57:00 10.9 C 5.77 g/m*3 10.9 C 0 km/h
659 28-12-2003 14:10:01 11.1 C 5.54 g/m*3 11.1 C 0 km/h
660 28-12-2003 14:22:01 11.2 C 5.47 g/m*3 11.2 C 0 km/h
661 28-12-2003 14:33:01 11.2 C 5.47 g/m*3 11.2 C 0 km/h
662 28-12-2003 14:45:01 11.4 C 5.23 g/m*3 11.4 C 0 km/h
663 28-12-2003 14:57:01 11.4 C 5.23 g/m*3 11.4 C 0 km/h
664 28-12-2003 15:09:00 11.2 C 5.17 g/m*3 11.2 C 0 km/h
665 28-12-2003 15:21:00 8.4 C 6.11 g/m*3 8.4 C 0 km/h
666 28-12-2003 15:33:01 8.1 C 6.16 g/m*3 8.1 C 0 km/h
667 28-12-2003 15:45:01 8.2 C 6.11 g/m*3 8.2 C 0 km/h
668 28-12-2003 15:57:01 8.2 C 6.11 g/m*3 8.2 C 0 km/h
669 28-12-2003 16:09:00 8.5 C 5.98 g/m*3 8.5 C 0 km/h
670 28-12-2003 16:21:00 8.6 C 5.84 g/m*3 8.6 C 0 km/h
671 28-12-2003 16:33:00 8.1 C 5.82 g/m*3 8.1 C 0 km/h
672 28-12-2003 16:45:00 7.9 C 5.75 g/m*3 7.9 C 0 km/h
673 28-12-2003 16:57:00 7.8 C 5.63 g/m*3 7.8 C 0 km/h
674 28-12-2003 17:10:00 7.7 C 5.59 g/m*3 7.7 C 0 km/h
675 28-12-2003 17:22:01 7.2 C 5.65 g/m*3 7.2 C 0 km/h
Sensor: Nr:Datum:Temp:Abs-Feuchte:Windchill:Wind:
Aussen-T/F 676 28-12-2003 17:33:01 6.6 C 5.74 g/m*3 6.6 C 0 km/h
677 28-12-2003 17:45:01 6 C 5.01 g/m*3 6 C 0 km/h
678 28-12-2003 17:57:01 5.6 C 4.95 g/m*3 5.6 C 0 km/h
679 28-12-2003 18:09:00 5.5 C 4.85 g/m*3 5.5 C 0 km/h
680 28-12-2003 18:21:00 5.5 C 4.85 g/m*3 5.5 C 0 km/h
681 28-12-2003 18:33:00 5.5 C 4.85 g/m*3 5.5 C 0 km/h
682 28-12-2003 18:45:00 5.4 C 4.81 g/m*3 5.4 C 0 km/h
683 28-12-2003 18:57:00 5.5 C 4.78 g/m*3 5.5 C 0 km/h
684 28-12-2003 19:10:01 5.4 C 4.74 g/m*3 5.4 C 0 km/h
685 28-12-2003 19:22:01 5.4 C 4.67 g/m*3 5.4 C 0 km/h
686 28-12-2003 19:33:01 5.5 C 4.71 g/m*3 5.5 C 0 km/h
687 28-12-2003 19:45:01 5.5 C 4.71 g/m*3 5.5 C 0 km/h
688 28-12-2003 19:57:01 5.4 C 4.67 g/m*3 5.4 C 0 km/h
689 28-12-2003 20:09:00 5.3 C 4.71 g/m*3 5.3 C 0 km/h
690 28-12-2003 20:21:00 5.2 C 4.68 g/m*3 5.2 C 0 km/h
691 28-12-2003 20:33:00 5.2 C 4.68 g/m*3 5.2 C 0 km/h
692 28-12-2003 20:45:00 5.3 C 4.71 g/m*3 5.3 C 0 km/h
693 28-12-2003 20:57:00 5.2 C 4.68 g/m*3 5.2 C 0 km/h
694 28-12-2003 21:10:00 5.2 C 4.68 g/m*3 5.2 C 0 km/h
695 28-12-2003 21:22:00 5.2 C 4.61 g/m*3 5.2 C 0 km/h
696 28-12-2003 21:33:01 5.2 C 4.61 g/m*3 5.2 C 0 km/h
697 28-12-2003 21:45:01 5 C 4.69 g/m*3 5 C 0 km/h
698 28-12-2003 21:57:01 5.1 C 4.72 g/m*3 5.1 C 0 km/h
699 28-12-2003 22:09:00 5 C 4.62 g/m*3 5 C 0 km/h
700 28-12-2003 22:21:00 4.9 C 4.46 g/m*3 4.9 C 0 km/h
Sensor: Nr:Datum:Temp:Abs-Feuchte:Windchill:Wind:
Aussen-T/F 701 28-12-2003 22:33:00 4.8 C 4.09 g/m*3 4.8 C 0 km/h
702 28-12-2003 22:45:01 4.7 C 3.93 g/m*3 4.7 C 0 km/h
703 28-12-2003 22:57:01 4.7 C 4 g/m*3 4.7 C 0 km/h
704 28-12-2003 23:09:00 4.6 C 3.9 g/m*3 4.6 C 0 km/h
705 28-12-2003 23:21:00 4.5 C 3.94 g/m*3 4.5 C 0 km/h
706 28-12-2003 23:33:00 4.3 C 3.83 g/m*3 4.3 C 0 km/h
707 28-12-2003 23:45:00 4 C 3.62 g/m*3 4 C 0 km/h
708 28-12-2003 23:57:00 3.7 C 3.55 g/m*3 3.7 C 0 km/h
709 29-12-2003 00:10:01 3.6 C 3.71 g/m*3 3.6 C 0 km/h
710 29-12-2003 00:22:01 3.3 C 3.76 g/m*3 3.3 C 0 km/h
711 29-12-2003 00:33:00 3.7 C 3.8 g/m*3 3.7 C 0 km/h
712 29-12-2003 00:45:00 3.6 C 3.78 g/m*3 3.6 C 0 km/h
713 29-12-2003 00:57:01 3.4 C 3.79 g/m*3 3.4 C 0 km/h
714 29-12-2003 01:09:00 3.3 C 3.82 g/m*3 3.3 C 0 km/h
715 29-12-2003 01:21:00 3.1 C 3.77 g/m*3 3.1 C 0 km/h
716 29-12-2003 01:33:00 2.8 C 3.81 g/m*3 2.8 C 0 km/h
717 29-12-2003 01:45:00 2.6 C 3.82 g/m*3 2.6 C 0 km/h
718 29-12-2003 01:57:00 2.6 C 3.88 g/m*3 2.6 C 0 km/h
719 29-12-2003 02:10:01 2.7 C 3.85 g/m*3 2.7 C 0 km/h
720 29-12-2003 02:22:01 2.7 C 3.85 g/m*3 2.7 C 0 km/h
721 29-12-2003 02:33:01 2.9 C 3.9 g/m*3 2.9 C 0 km/h
722 29-12-2003 02:45:01 2.9 C 3.84 g/m*3 2.9 C 0 km/h
723 29-12-2003 02:57:01 3 C 3.81 g/m*3 3 C 0 km/h
724 29-12-2003 03:09:00 3 C 3.86 g/m*3 3 C 0 km/h
725 29-12-2003 03:21:00 3 C 3.92 g/m*3 3 C 0 km/h
Sensor: Nr:Datum:Temp:Abs-Feuchte:Windchill:Wind:
Aussen-T/F 726 29-12-2003 03:33:01 2.9 C 3.96 g/m*3 2.9 C 0 km/h
727 29-12-2003 03:45:01 2.9 C 4.02 g/m*3 2.9 C 0 km/h
728 29-12-2003 03:57:01 2.8 C 3.99 g/m*3 2.8 C 0 km/h
729 29-12-2003 04:09:00 2.7 C 4.02 g/m*3 2.7 C 0 km/h
730 29-12-2003 04:21:00 2.7 C 4.08 g/m*3 2.7 C 0 km/h
731 29-12-2003 04:33:00 2.5 C 4.02 g/m*3 2.5 C 0 km/h
732 29-12-2003 04:45:00 2.5 C 4.02 g/m*3 2.5 C 0 km/h
733 29-12-2003 04:57:00 2.6 C 4.05 g/m*3 2.6 C 0 km/h
734 29-12-2003 05:10:01 3.1 C 4.07 g/m*3 3.1 C 0 km/h
735 29-12-2003 05:22:01 3.1 C 3.95 g/m*3 3.1 C 0 km/h
736 29-12-2003 05:33:01 2.6 C 3.94 g/m*3 2.6 C 0 km/h
737 29-12-2003 05:45:01 2.7 C 4.02 g/m*3 2.7 C 0 km/h
738 29-12-2003 05:57:01 3.1 C 3.95 g/m*3 3.1 C 0 km/h
739 29-12-2003 06:09:00 3.2 C 3.98 g/m*3 3.2 C 0 km/h
740 29-12-2003 06:21:00 2.9 C 3.96 g/m*3 2.9 C 0 km/h
741 29-12-2003 06:33:00 2.7 C 3.9 g/m*3 2.7 C 0 km/h
742 29-12-2003 06:45:00 2.5 C 3.91 g/m*3 2.5 C 0 km/h
743 29-12-2003 06:57:00 2.5 C 3.91 g/m*3 2.5 C 0 km/h
744 29-12-2003 07:10:01 2.6 C 3.99 g/m*3 2.6 C 0 km/h
745 29-12-2003 07:22:01 2.6 C 3.94 g/m*3 2.6 C 0 km/h
746 29-12-2003 07:33:01 2.3 C 3.86 g/m*3 2.3 C 0 km/h
747 29-12-2003 07:45:01 2.1 C 3.86 g/m*3 2.1 C 0 km/h
748 29-12-2003 07:57:01 2.3 C 3.86 g/m*3 2.3 C 0 km/h
749 29-12-2003 08:09:00 2.3 C 3.8 g/m*3 2.3 C 0 km/h
750 29-12-2003 08:21:00 2 C 3.72 g/m*3 2 C 0 km/h
Sensor: Nr:Datum:Temp:Abs-Feuchte:Windchill:Wind:
Aussen-T/F 751 29-12-2003 08:33:01 1.8 C 3.84 g/m*3 1.8 C 0 km/h
752 29-12-2003 08:45:01 2.1 C 3.86 g/m*3 2.1 C 0 km/h
753 29-12-2003 08:57:01 2.2 C 3.83 g/m*3 2.2 C 0 km/h
754 29-12-2003 09:09:00 2.3 C 3.74 g/m*3 2.3 C 0 km/h
755 29-12-2003 09:21:00 2.3 C 3.74 g/m*3 2.3 C 0 km/h
756 29-12-2003 09:33:00 2.5 C 3.79 g/m*3 2.5 C 0 km/h
757 29-12-2003 09:45:00 2.7 C 3.79 g/m*3 2.7 C 0 km/h
758 29-12-2003 09:57:00 2.8 C 3.75 g/m*3 2.8 C 0 km/h
759 29-12-2003 10:10:00 2.6 C 3.76 g/m*3 2.6 C 0 km/h
760 29-12-2003 10:22:00 2.4 C 3.77 g/m*3 2.4 C 0 km/h
761 29-12-2003 10:33:01 2.5 C 3.74 g/m*3 2.5 C 0 km/h
762 29-12-2003 10:45:01 2.7 C 3.73 g/m*3 2.7 C 0 km/h
763 29-12-2003 10:57:01 2.6 C 3.7 g/m*3 2.6 C 0 km/h
764 29-12-2003 11:09:01 2.7 C 3.73 g/m*3 2.7 C 0 km/h
765 29-12-2003 11:21:01 2.7 C 3.67 g/m*3 2.7 C 0 km/h
766 29-12-2003 11:33:35 2.6 C 3.65 g/m*3 2.6 C 0 km/h
767 29-12-2003 11:45:35 2.5 C 3.68 g/m*3 2.5 C 0 km/h
768 29-12-2003 11:57:00 2.4 C 3.77 g/m*3 2.4 C 0 km/h
769 29-12-2003 12:10:00 3.1 C 3.77 g/m*3 3.1 C 0 km/h
770 29-12-2003 12:22:00 3.5 C 3.75 g/m*3 3.5 C 0 km/h
771 29-12-2003 12:33:09 3.7 C 3.68 g/m*3 3.7 C 0 km/h
772 29-12-2003 12:45:01 3.7 C 3.61 g/m*3 3.7 C 0 km/h
773 29-12-2003 12:57:01 3.7 C 3.61 g/m*3 3.7 C 0 km/h
774 29-12-2003 13:09:00 3.9 C 3.73 g/m*3 3.9 C 0 km/h
775 29-12-2003 13:21:00 3.8 C 3.58 g/m*3 3.8 C 0 km/h
Sensor: Nr:Datum:Temp:Abs-Feuchte:Windchill:Wind:
Aussen-T/F 776 29-12-2003 13:33:01 3.8 C 3.58 g/m*3 3.8 C 0 km/h
777 29-12-2003 13:45:01 3.6 C 3.59 g/m*3 3.6 C 0 km/h
778 29-12-2003 13:57:01 3.3 C 3.64 g/m*3 3.3 C 0 km/h
779 29-12-2003 14:09:00 3.2 C 3.62 g/m*3 3.2 C 0 km/h
780 29-12-2003 14:21:00 3.2 C 3.56 g/m*3 3.2 C 0 km/h
781 29-12-2003 14:33:00 3 C 3.51 g/m*3 3 C 0 km/h
782 29-12-2003 14:45:00 2.7 C 3.61 g/m*3 2.7 C 0 km/h
783 29-12-2003 14:57:00 2.5 C 3.62 g/m*3 2.5 C 0 km/h
784 29-12-2003 15:10:00 2.3 C 3.69 g/m*3 2.3 C 0 km/h
785 29-12-2003 15:22:01 2.2 C 3.66 g/m*3 2.2 C 0 km/h
786 29-12-2003 15:33:00 2.1 C 3.75 g/m*3 2.1 C 0 km/h
787 29-12-2003 15:45:01 1.9 C 3.75 g/m*3 1.9 C 0 km/h
788 29-12-2003 15:57:01 1.6 C 3.79 g/m*3 1.6 C 0 km/h
789 29-12-2003 16:09:00 1.4 C 3.79 g/m*3 1.4 C 0 km/h
790 29-12-2003 16:21:00 1.2 C 3.68 g/m*3 1.2 C 0 km/h
791 29-12-2003 16:33:00 1 C 3.74 g/m*3 1 C 0 km/h
792 29-12-2003 16:45:00 1 C 3.74 g/m*3 1 C 0 km/h
793 29-12-2003 16:57:00 0.9 C 3.76 g/m*3 0.9 C 0 km/h
794 29-12-2003 17:10:01 1.1 C 3.81 g/m*3 1.1 C 0 km/h
795 29-12-2003 17:22:01 1.2 C 3.84 g/m*3 1.2 C 0 km/h
796 29-12-2003 17:33:00 1.4 C 3.84 g/m*3 1.4 C 0 km/h
797 29-12-2003 17:45:00 1.4 C 3.84 g/m*3 1.4 C 0 km/h
798 29-12-2003 17:57:00 1.3 C 3.81 g/m*3 1.3 C 0 km/h
799 29-12-2003 18:09:00 1.3 C 3.87 g/m*3 1.3 C 0 km/h
800 29-12-2003 18:21:00 1 C 3.79 g/m*3 1 C 0 km/h
Sensor: Nr:Datum:Temp:Abs-Feuchte:Windchill:Wind:
Aussen-T/F 801 29-12-2003 18:33:00 0.7 C 3.81 g/m*3 0.7 C 0 km/h
802 29-12-2003 18:45:00 0.4 C 3.74 g/m*3 0.4 C 0 km/h
803 29-12-2003 18:57:00 0.2 C 3.73 g/m*3 0.2 C 0 km/h
804 29-12-2003 19:10:00 0.1 C 3.76 g/m*3 0.1 C 0 km/h
805 29-12-2003 19:22:01 0 C 3.73 g/m*3 0 C 0 km/h
806 29-12-2003 19:33:00 -0.1 C 3.75 g/m*3 -0.1 C 0 km/h
807 29-12-2003 19:45:00 0 C 3.78 g/m*3 0 C 0 km/h
808 29-12-2003 19:57:00 0 C 3.78 g/m*3 0 C 0 km/h
809 29-12-2003 20:09:00 -0.1 C 3.75 g/m*3 -0.1 C 0 km/h
810 29-12-2003 20:21:00 -0.2 C 3.73 g/m*3 -0.2 C 0 km/h
811 29-12-2003 20:33:00 -0.3 C 3.65 g/m*3 -0.3 C 0 km/h
812 29-12-2003 20:45:00 -0.5 C 3.65 g/m*3 -0.5 C 0 km/h
813 29-12-2003 20:57:00 -0.6 C 3.67 g/m*3 -0.6 C 0 km/h
814 29-12-2003 21:10:00 -0.9 C 3.6 g/m*3 -0.9 C 0 km/h
815 29-12-2003 21:22:01 -0.9 C 3.6 g/m*3 -0.9 C 0 km/h
816 29-12-2003 21:33:01 -1 C 3.57 g/m*3 -1 C 0 km/h
817 29-12-2003 21:45:01 -1.1 C 3.55 g/m*3 -1.1 C 0 km/h
818 29-12-2003 21:57:01 -0.9 C 3.64 g/m*3 -0.9 C 0 km/h
819 29-12-2003 22:09:00 -1.1 C 3.59 g/m*3 -1.1 C 0 km/h
820 29-12-2003 22:21:00 -1.2 C 3.57 g/m*3 -1.2 C 0 km/h
821 29-12-2003 22:33:00 -1.3 C 3.54 g/m*3 -1.3 C 0 km/h
822 29-12-2003 22:45:00 -1.2 C 3.61 g/m*3 -1.2 C 0 km/h
823 29-12-2003 22:57:00 -1.4 C 3.56 g/m*3 -1.4 C 0 km/h
824 29-12-2003 23:10:00 -1.5 C 3.54 g/m*3 -1.5 C 0 km/h
825 29-12-2003 23:22:00 -1.3 C 3.59 g/m*3 -1.3 C 0 km/h
Sensor: Nr:Datum:Temp:Abs-Feuchte:Windchill:Wind:
Aussen-T/F 826 29-12-2003 23:33:01 -1.3 C 3.63 g/m*3 -1.3 C 0 km/h
827 29-12-2003 23:45:01 -1.4 C 3.6 g/m*3 -1.4 C 0 km/h
828 29-12-2003 23:57:01 -1.4 C 3.56 g/m*3 -1.4 C 0 km/h
829 30-12-2003 00:09:00 -1.4 C 3.56 g/m*3 -1.4 C 0 km/h
830 30-12-2003 00:21:00 -1.3 C 3.59 g/m*3 -1.3 C 0 km/h
831 30-12-2003 00:33:01 -1.2 C 3.66 g/m*3 -1.2 C 0 km/h
832 30-12-2003 00:45:01 -1.1 C 3.68 g/m*3 -1.1 C 0 km/h
833 30-12-2003 00:57:01 -1.1 C 3.68 g/m*3 -1.1 C 0 km/h
834 30-12-2003 01:09:00 -1.1 C 3.68 g/m*3 -1.1 C 0 km/h
835 30-12-2003 01:21:00 -1.1 C 3.68 g/m*3 -1.1 C 0 km/h
836 30-12-2003 01:33:01 -1.1 C 3.68 g/m*3 -1.1 C 0 km/h
837 30-12-2003 01:45:01 -1.2 C 3.61 g/m*3 -1.2 C 0 km/h
838 30-12-2003 01:57:01 -1.2 C 3.61 g/m*3 -1.2 C 0 km/h
839 30-12-2003 02:09:00 -1.1 C 3.64 g/m*3 -1.1 C 0 km/h
840 30-12-2003 02:21:00 -1.1 C 3.68 g/m*3 -1.1 C 0 km/h
841 30-12-2003 02:33:00 -1.2 C 3.66 g/m*3 -1.2 C 0 km/h
842 30-12-2003 02:45:00 -1.3 C 3.63 g/m*3 -1.3 C 0 km/h
843 30-12-2003 02:57:00 -1.3 C 3.63 g/m*3 -1.3 C 0 km/h
844 30-12-2003 03:10:01 -1.4 C 3.6 g/m*3 -1.4 C 0 km/h
845 30-12-2003 03:22:01 -1.5 C 3.58 g/m*3 -1.5 C 0 km/h
846 30-12-2003 03:33:01 -1.6 C 3.55 g/m*3 -1.6 C 0 km/h
847 30-12-2003 03:45:01 -1.7 C 3.53 g/m*3 -1.7 C 0 km/h
848 30-12-2003 03:57:01 -1.7 C 3.57 g/m*3 -1.7 C 0 km/h
849 30-12-2003 04:09:00 -1.8 C 3.55 g/m*3 -1.8 C 0 km/h
850 30-12-2003 04:21:00 -1.8 C 3.55 g/m*3 -1.8 C 0 km/h
Sensor: Nr:Datum:Temp:Abs-Feuchte:Windchill:Wind:
Aussen-T/F 851 30-12-2003 04:33:00 -2 C 3.5 g/m*3 -2 C 0 km/h
852 30-12-2003 04:45:00 -2 C 3.5 g/m*3 -2 C 0 km/h
853 30-12-2003 04:57:00 -2.1 C 3.47 g/m*3 -2.1 C 0 km/h
854 30-12-2003 05:10:01 -2 C 3.5 g/m*3 -2 C 0 km/h
855 30-12-2003 05:22:01 -2.1 C 3.52 g/m*3 -2.1 C 0 km/h
856 30-12-2003 05:33:01 -2 C 3.54 g/m*3 -2 C 0 km/h
857 30-12-2003 05:45:01 -1.9 C 3.57 g/m*3 -1.9 C 0 km/h
858 30-12-2003 05:57:01 -2 C 3.54 g/m*3 -2 C 0 km/h
859 30-12-2003 06:09:00 -1.9 C 3.57 g/m*3 -1.9 C 0 km/h
860 30-12-2003 06:21:00 -2.1 C 3.52 g/m*3 -2.1 C 0 km/h
861 30-12-2003 06:33:01 -2.2 C 3.49 g/m*3 -2.2 C 0 km/h
862 30-12-2003 06:45:01 -2.1 C 3.52 g/m*3 -2.1 C 0 km/h
863 30-12-2003 06:57:01 -2.3 C 3.47 g/m*3 -2.3 C 0 km/h
864 30-12-2003 07:09:00 -2.2 C 3.49 g/m*3 -2.2 C 0 km/h
865 30-12-2003 07:21:00 -2.4 C 3.44 g/m*3 -2.4 C 0 km/h
866 30-12-2003 07:33:00 -2.4 C 3.44 g/m*3 -2.4 C 0 km/h
867 30-12-2003 07:45:00 -2.6 C 3.39 g/m*3 -2.6 C 0 km/h
868 30-12-2003 07:57:00 -2.8 C 3.35 g/m*3 -2.8 C 0 km/h
869 30-12-2003 08:10:01 -2.8 C 3.35 g/m*3 -2.8 C 0 km/h
870 30-12-2003 08:22:01 -2.8 C 3.35 g/m*3 -2.8 C 0 km/h
871 30-12-2003 08:33:00 -2.8 C 3.35 g/m*3 -2.8 C 0 km/h
872 30-12-2003 08:45:01 -2.8 C 3.39 g/m*3 -2.8 C 0 km/h
873 30-12-2003 08:57:01 -2.7 C 3.41 g/m*3 -2.7 C 0 km/h
874 30-12-2003 09:09:00 -2.5 C 3.46 g/m*3 -2.5 C 0 km/h
875 30-12-2003 09:21:00 -2.2 C 3.53 g/m*3 -2.2 C 0 km/h
Sensor: Nr:Datum:Temp:Abs-Feuchte:Windchill:Wind:
Aussen-T/F 876 30-12-2003 09:33:00 -2.1 C 3.6 g/m*3 -2.1 C 0 km/h
877 30-12-2003 09:45:00 -1.8 C 3.68 g/m*3 -1.8 C 0 km/h
878 30-12-2003 09:57:00 -1.4 C 3.78 g/m*3 -1.4 C 0 km/h
879 30-12-2003 10:10:00 -1.2 C 3.79 g/m*3 -1.2 C 0 km/h
880 30-12-2003 10:22:00 -1 C 3.89 g/m*3 -1 C 0 km/h
881 30-12-2003 10:33:01 -0.7 C 3.92 g/m*3 -0.7 C 0 km/h
882 30-12-2003 10:45:01 -0.7 C 3.92 g/m*3 -0.7 C 0 km/h
883 30-12-2003 10:57:01 -0.7 C 3.92 g/m*3 -0.7 C 0 km/h
884 30-12-2003 11:09:00 -0.6 C 3.95 g/m*3 -0.6 C 0 km/h
885 30-12-2003 11:21:00 -0.6 C 3.95 g/m*3 -0.6 C 0 km/h
886 30-12-2003 11:33:01 -0.4 C 4.01 g/m*3 -0.4 C 0 km/h
887 30-12-2003 11:45:01 -0.4 C 4.01 g/m*3 -0.4 C 0 km/h
888 30-12-2003 11:57:01 -0.1 C 4.04 g/m*3 -0.1 C 0 km/h
889 30-12-2003 12:09:01 -0.2 C 3.97 g/m*3 -0.2 C 0 km/h
890 30-12-2003 12:21:01 -0.2 C 3.97 g/m*3 -0.2 C 0 km/h
891 30-12-2003 12:33:01 -0.3 C 3.94 g/m*3 -0.3 C 0 km/h
892 30-12-2003 12:45:01 -0.4 C 3.91 g/m*3 -0.4 C 0 km/h
893 30-12-2003 12:57:01 -0.5 C 3.88 g/m*3 -0.5 C 0 km/h
894 30-12-2003 13:10:01 -0.5 C 3.88 g/m*3 -0.5 C 0 km/h
895 30-12-2003 13:22:01 -0.4 C 3.96 g/m*3 -0.4 C 0 km/h
896 30-12-2003 13:33:00 -0.5 C 3.93 g/m*3 -0.5 C 0 km/h
897 30-12-2003 13:45:00 -0.4 C 3.96 g/m*3 -0.4 C 0 km/h
898 30-12-2003 13:57:00 -0.4 C 3.91 g/m*3 -0.4 C 0 km/h
899 30-12-2003 14:09:01 -0.5 C 3.88 g/m*3 -0.5 C 0 km/h
900 30-12-2003 14:21:01 -0.6 C 3.86 g/m*3 -0.6 C 0 km/h
Sensor: Nr:Datum:Temp:Abs-Feuchte:Windchill:Wind:
Aussen-T/F 901 30-12-2003 14:33:00 -0.5 C 3.88 g/m*3 -0.5 C 0 km/h
902 30-12-2003 14:45:01 -0.4 C 3.91 g/m*3 -0.4 C 0 km/h
903 30-12-2003 14:57:01 -0.5 C 3.88 g/m*3 -0.5 C 0 km/h
904 30-12-2003 15:09:00 -0.4 C 3.91 g/m*3 -0.4 C 0 km/h
905 30-12-2003 15:21:00 -0.4 C 3.91 g/m*3 -0.4 C 0 km/h
906 30-12-2003 15:33:00 -0.4 C 3.86 g/m*3 -0.4 C 0 km/h
907 30-12-2003 15:45:01 -0.7 C 3.78 g/m*3 -0.7 C 0 km/h
908 30-12-2003 15:57:01 -0.4 C 3.86 g/m*3 -0.4 C 0 km/h
909 30-12-2003 16:09:00 -0.6 C 3.81 g/m*3 -0.6 C 0 km/h
910 30-12-2003 16:21:00 -0.6 C 3.81 g/m*3 -0.6 C 0 km/h
911 30-12-2003 16:33:00 -0.9 C 3.69 g/m*3 -0.9 C 0 km/h
912 30-12-2003 16:45:00 -1 C 3.66 g/m*3 -1 C 0 km/h
913 30-12-2003 16:57:00 -1.2 C 3.61 g/m*3 -1.2 C 0 km/h
914 30-12-2003 17:09:01 -1.2 C 3.66 g/m*3 -1.2 C 0 km/h
915 30-12-2003 17:21:01 -1.6 C 3.55 g/m*3 -1.6 C 0 km/h
916 30-12-2003 17:33:00 -1.5 C 3.58 g/m*3 -1.5 C 0 km/h
917 30-12-2003 17:45:00 -1.7 C 3.57 g/m*3 -1.7 C 0 km/h
918 30-12-2003 17:57:01 -1.9 C 3.52 g/m*3 -1.9 C 0 km/h
919 30-12-2003 18:09:00 -2 C 3.5 g/m*3 -2 C 0 km/h
920 30-12-2003 18:21:00 -1.9 C 3.57 g/m*3 -1.9 C 0 km/h
921 30-12-2003 18:33:00 -2 C 3.54 g/m*3 -2 C 0 km/h
922 30-12-2003 18:45:00 -2 C 3.54 g/m*3 -2 C 0 km/h
923 30-12-2003 18:57:00 -2.2 C 3.49 g/m*3 -2.2 C 0 km/h
924 30-12-2003 19:10:00 -2.2 C 3.49 g/m*3 -2.2 C 0 km/h
925 30-12-2003 19:22:01 -2.5 C 3.42 g/m*3 -2.5 C 0 km/h
Sensor: Nr:Datum:Temp:Abs-Feuchte:Windchill:Wind:
Aussen-T/F 926 30-12-2003 19:33:00 -2.4 C 3.44 g/m*3 -2.4 C 0 km/h
927 30-12-2003 19:45:01 -2.6 C 3.39 g/m*3 -2.6 C 0 km/h
928 30-12-2003 19:57:01 -2.5 C 3.42 g/m*3 -2.5 C 0 km/h
929 30-12-2003 20:09:00 -2.6 C 3.39 g/m*3 -2.6 C 0 km/h
930 30-12-2003 20:21:00 -2.6 C 3.39 g/m*3 -2.6 C 0 km/h
931 30-12-2003 20:33:01 -2.7 C 3.37 g/m*3 -2.7 C 0 km/h
932 30-12-2003 20:45:01 -2.9 C 3.32 g/m*3 -2.9 C 0 km/h
933 30-12-2003 20:57:01 -2.7 C 3.41 g/m*3 -2.7 C 0 km/h
934 30-12-2003 21:09:00 -2.8 C 3.39 g/m*3 -2.8 C 0 km/h
935 30-12-2003 21:21:00 -3 C 3.34 g/m*3 -3 C 0 km/h
936 30-12-2003 21:33:00 -3.1 C 3.32 g/m*3 -3.1 C 0 km/h
937 30-12-2003 21:45:00 -3.2 C 3.29 g/m*3 -3.2 C 0 km/h
938 30-12-2003 21:57:00 -3.4 C 3.25 g/m*3 -3.4 C 0 km/h
939 30-12-2003 22:10:01 -3.5 C 3.22 g/m*3 -3.5 C 0 km/h
940 30-12-2003 22:22:01 -3.4 C 3.25 g/m*3 -3.4 C 0 km/h
941 30-12-2003 22:33:01 -3.5 C 3.22 g/m*3 -3.5 C 0 km/h
942 30-12-2003 22:45:01 -3.6 C 3.2 g/m*3 -3.6 C 0 km/h
943 30-12-2003 22:57:01 -3.5 C 3.22 g/m*3 -3.5 C 0 km/h
944 30-12-2003 23:09:00 -3.4 C 3.28 g/m*3 -3.4 C 0 km/h
945 30-12-2003 23:21:00 -3.3 C 3.31 g/m*3 -3.3 C 0 km/h
946 30-12-2003 23:33:00 -3.3 C 3.31 g/m*3 -3.3 C 0 km/h
947 30-12-2003 23:45:00 -3.1 C 3.35 g/m*3 -3.1 C 0 km/h
948 30-12-2003 23:57:00 -3 C 3.42 g/m*3 -3 C 0 km/h
949 31-12-2003 00:11:29 -3 C 3.42 g/m*3 -3 C 0 km/h
950 31-12-2003 00:23:29 -2.5 C 3.54 g/m*3 -2.5 C 0 km/h
Sensor: Nr:Datum:Temp:Abs-Feuchte:Windchill:Wind:
Aussen-T/F 951 31-12-2003 00:35:29 -2.4 C 3.57 g/m*3 -2.4 C 0 km/h
952 31-12-2003 00:47:29 -2.5 C 3.54 g/m*3 -2.5 C 0 km/h
953 31-12-2003 00:59:29 -2.4 C 3.57 g/m*3 -2.4 C 0 km/h
954 31-12-2003 01:11:29 -2.4 C 3.57 g/m*3 -2.4 C 0 km/h
955 31-12-2003 01:23:29 -2.4 C 3.57 g/m*3 -2.4 C 0 km/h
956 31-12-2003 01:35:29 -2.2 C 3.62 g/m*3 -2.2 C 0 km/h
957 31-12-2003 01:47:29 -2.2 C 3.62 g/m*3 -2.2 C 0 km/h
958 31-12-2003 01:59:29 -2.1 C 3.64 g/m*3 -2.1 C 0 km/h
959 31-12-2003 02:11:29 -1.8 C 3.72 g/m*3 -1.8 C 0 km/h
960 31-12-2003 02:23:29 -1.8 C 3.72 g/m*3 -1.8 C 0 km/h
961 31-12-2003 02:35:29 -2 C 3.67 g/m*3 -2 C 0 km/h
962 31-12-2003 02:47:29 -1.9 C 3.69 g/m*3 -1.9 C 0 km/h
963 31-12-2003 02:59:29 -1.9 C 3.69 g/m*3 -1.9 C 0 km/h
964 31-12-2003 03:11:29 -1.9 C 3.69 g/m*3 -1.9 C 0 km/h
965 31-12-2003 03:23:29 -2 C 3.63 g/m*3 -2 C 0 km/h
966 31-12-2003 03:35:29 -2.1 C 3.6 g/m*3 -2.1 C 0 km/h
967 31-12-2003 03:47:29 -2 C 3.63 g/m*3 -2 C 0 km/h
968 31-12-2003 03:59:29 -1.9 C 3.65 g/m*3 -1.9 C 0 km/h
969 31-12-2003 04:11:29 -1.9 C 3.65 g/m*3 -1.9 C 0 km/h
970 31-12-2003 04:23:29 -1.9 C 3.65 g/m*3 -1.9 C 0 km/h
971 31-12-2003 04:35:29 -2 C 3.58 g/m*3 -2 C 0 km/h
972 31-12-2003 04:47:29 -2.1 C 3.56 g/m*3 -2.1 C 0 km/h
973 31-12-2003 04:59:29 -2.2 C 3.53 g/m*3 -2.2 C 0 km/h
974 31-12-2003 05:11:29 -2.4 C 3.48 g/m*3 -2.4 C 0 km/h
975 31-12-2003 05:23:29 -2.7 C 3.37 g/m*3 -2.7 C 0 km/h
Sensor: Nr:Datum:Temp:Abs-Feuchte:Windchill:Wind:
Aussen-T/F 976 31-12-2003 05:35:29 -2.8 C 3.35 g/m*3 -2.8 C 0 km/h
977 31-12-2003 05:47:29 -2.8 C 3.35 g/m*3 -2.8 C 0 km/h
978 31-12-2003 05:59:29 -2.8 C 3.35 g/m*3 -2.8 C 0 km/h
979 31-12-2003 06:11:29 -3 C 3.3 g/m*3 -3 C 0 km/h
980 31-12-2003 06:23:29 -3 C 3.34 g/m*3 -3 C 0 km/h
981 31-12-2003 06:35:29 -2.7 C 3.41 g/m*3 -2.7 C 0 km/h
982 31-12-2003 06:47:29 -2.7 C 3.41 g/m*3 -2.7 C 0 km/h
983 31-12-2003 06:59:29 -2.4 C 3.48 g/m*3 -2.4 C 0 km/h
984 31-12-2003 07:11:29 -2.3 C 3.47 g/m*3 -2.3 C 0 km/h
985 31-12-2003 07:23:29 -2.2 C 3.45 g/m*3 -2.2 C 0 km/h
986 31-12-2003 07:35:29 -2.5 C 3.34 g/m*3 -2.5 C 0 km/h
987 31-12-2003 07:47:29 -2.6 C 3.35 g/m*3 -2.6 C 0 km/h
988 31-12-2003 07:59:29 -2.6 C 3.35 g/m*3 -2.6 C 0 km/h
989 31-12-2003 08:11:29 -2.6 C 3.35 g/m*3 -2.6 C 0 km/h
990 31-12-2003 08:23:29 -2.8 C 3.31 g/m*3 -2.8 C 0 km/h
991 31-12-2003 08:35:29 -2.8 C 3.31 g/m*3 -2.8 C 0 km/h
992 31-12-2003 08:47:01 -2.8 C 3.31 g/m*3 -2.8 C 0 km/h
993 31-12-2003 08:59:01 -2.8 C 3.31 g/m*3 -2.8 C 0 km/h
994 31-12-2003 09:11:00 -2.7 C 3.33 g/m*3 -2.7 C 0 km/h
995 31-12-2003 09:23:00 -2.7 C 3.33 g/m*3 -2.7 C 0 km/h
996 31-12-2003 09:35:01 -2.4 C 3.44 g/m*3 -2.4 C 0 km/h
997 31-12-2003 09:47:01 -2.4 C 3.4 g/m*3 -2.4 C 0 km/h
998 31-12-2003 09:59:01 -2 C 3.54 g/m*3 -2 C 0 km/h
999 31-12-2003 10:11:01 -1.7 C 3.62 g/m*3 -1.7 C 0 km/h
1000 31-12-2003 10:23:01 -1.6 C 3.64 g/m*3 -1.6 C 0 km/h
Sensor: Nr:Datum:Temp:Abs-Feuchte:Windchill:Wind:
Aussen-T/F 1001 31-12-2003 10:35:00 -1.3 C 3.72 g/m*3 -1.3 C 0 km/h
1002 31-12-2003 10:47:00 -1 C 3.75 g/m*3 -1 C 0 km/h
1003 31-12-2003 10:59:00 -0.7 C 3.83 g/m*3 -0.7 C 0 km/h
1004 31-12-2003 11:11:59 -0.5 C 3.88 g/m*3 -0.5 C 0 km/h
1005 31-12-2003 11:23:59 -0.3 C 3.8 g/m*3 -0.3 C 0 km/h
1006 31-12-2003 11:35:01 0 C 3.83 g/m*3 0 C 0 km/h
1007 31-12-2003 11:47:01 0.1 C 3.76 g/m*3 0.1 C 0 km/h
1008 31-12-2003 11:59:01 0.3 C 3.76 g/m*3 0.3 C 0 km/h
1009 31-12-2003 12:11:02 0.4 C 3.79 g/m*3 0.4 C 0 km/h
1010 31-12-2003 12:23:02 0.6 C 3.79 g/m*3 0.6 C 0 km/h
1011 31-12-2003 12:35:01 0.8 C 3.89 g/m*3 0.8 C 0 km/h
1012 31-12-2003 12:47:01 1 C 3.89 g/m*3 1 C 0 km/h
1013 31-12-2003 12:59:01 1.2 C 3.95 g/m*3 1.2 C 0 km/h
1014 31-12-2003 13:11:59 1.3 C 3.97 g/m*3 1.3 C 0 km/h
1015 31-12-2003 13:23:59 1.4 C 4 g/m*3 1.4 C 0 km/h
1016 31-12-2003 13:35:01 1.5 C 4.03 g/m*3 1.5 C 0 km/h
1017 31-12-2003 13:47:01 1.7 C 4.14 g/m*3 1.7 C 0 km/h
1018 31-12-2003 13:59:01 1.8 C 4.11 g/m*3 1.8 C 0 km/h
1019 31-12-2003 14:11:01 1.9 C 4.08 g/m*3 1.9 C 0 km/h
1020 31-12-2003 14:23:01 2 C 4.06 g/m*3 2 C 0 km/h
1021 31-12-2003 14:35:01 2 C 3.89 g/m*3 2 C 0 km/h
1022 31-12-2003 14:47:01 2 C 3.89 g/m*3 2 C 0 km/h
1023 31-12-2003 14:59:01 1.9 C 3.86 g/m*3 1.9 C 0 km/h
1024 31-12-2003 15:11:01 1.8 C 3.89 g/m*3 1.8 C 0 km/h
1025 31-12-2003 15:23:01 1.7 C 3.92 g/m*3 1.7 C 0 km/h
Sensor: Nr:Datum:Temp:Abs-Feuchte:Windchill:Wind:
Aussen-T/F 1026 31-12-2003 15:35:01 1.7 C 3.92 g/m*3 1.7 C 0 km/h
1027 31-12-2003 15:47:01 1.7 C 3.92 g/m*3 1.7 C 0 km/h
1028 31-12-2003 15:59:01 1.6 C 3.89 g/m*3 1.6 C 0 km/h
1029 31-12-2003 16:11:58 1.4 C 3.84 g/m*3 1.4 C 0 km/h
1030 31-12-2003 16:23:58 1.2 C 3.79 g/m*3 1.2 C 0 km/h
1031 31-12-2003 16:35:00 1.1 C 3.76 g/m*3 1.1 C 0 km/h
1032 31-12-2003 16:47:00 1.1 C 3.71 g/m*3 1.1 C 0 km/h
1033 31-12-2003 16:59:00 1.2 C 3.63 g/m*3 1.2 C 0 km/h
1034 31-12-2003 17:11:01 1.1 C 3.61 g/m*3 1.1 C 0 km/h
1035 31-12-2003 17:23:01 1.2 C 3.47 g/m*3 1.2 C 0 km/h
1036 31-12-2003 17:35:00 1.1 C 3.4 g/m*3 1.1 C 0 km/h
1037 31-12-2003 17:47:00 1.2 C 3.37 g/m*3 1.2 C 0 km/h
1038 31-12-2003 17:59:00 0.9 C 3.4 g/m*3 0.9 C 0 km/h
1039 31-12-2003 18:11:58 0.7 C 3.36 g/m*3 0.7 C 0 km/h
1040 31-12-2003 18:23:58 0.5 C 3.41 g/m*3 0.5 C 0 km/h
1041 31-12-2003 18:35:01 0.5 C 3.41 g/m*3 0.5 C 0 km/h
1042 31-12-2003 18:47:01 0.5 C 3.41 g/m*3 0.5 C 0 km/h
1043 31-12-2003 18:59:01 0.3 C 3.41 g/m*3 0.3 C 0 km/h
1044 31-12-2003 19:11:01 0.4 C 3.34 g/m*3 0.4 C 0 km/h
1045 31-12-2003 19:23:01 0.2 C 3.24 g/m*3 0.2 C 0 km/h
1046 31-12-2003 19:35:00 -0.2 C 3.2 g/m*3 -0.2 C 0 km/h
1047 31-12-2003 19:47:00 -0.6 C 3.21 g/m*3 -0.6 C 0 km/h
1048 31-12-2003 19:59:00 -1 C 3.16 g/m*3 -1 C 0 km/h
1049 31-12-2003 20:11:58 -1.2 C 3.21 g/m*3 -1.2 C 0 km/h
1050 31-12-2003 20:23:58 -1.4 C 3.21 g/m*3 -1.4 C 0 km/h
Sensor: Nr:Datum:Temp:Abs-Feuchte:Windchill:Wind:
Aussen-T/F 1051 31-12-2003 20:35:01 -1.5 C 3.23 g/m*3 -1.5 C 0 km/h
1052 31-12-2003 20:47:01 -1.6 C 3.25 g/m*3 -1.6 C 0 km/h
1053 31-12-2003 20:59:01 -1.8 C 3.12 g/m*3 -1.8 C 0 km/h
1054 31-12-2003 21:11:01 -2 C 3.12 g/m*3 -2 C 0 km/h
1055 31-12-2003 21:23:01 -2.3 C 3.1 g/m*3 -2.3 C 0 km/h
1056 31-12-2003 21:35:01 -2.3 C 3.14 g/m*3 -2.3 C 0 km/h
1057 31-12-2003 21:47:01 -2.3 C 3.14 g/m*3 -2.3 C 0 km/h
1058 31-12-2003 21:59:01 -2.4 C 3.11 g/m*3 -2.4 C 0 km/h
1059 31-12-2003 22:11:01 -2.6 C 3.11 g/m*3 -2.6 C 0 km/h
1060 31-12-2003 22:23:01 -2.7 C 3.09 g/m*3 -2.7 C 0 km/h
1061 31-12-2003 22:35:00 -2.8 C 3.11 g/m*3 -2.8 C 0 km/h
1062 31-12-2003 22:47:00 -2.8 C 3.11 g/m*3 -2.8 C 0 km/h
1063 31-12-2003 22:59:00 -2.8 C 3.07 g/m*3 -2.8 C 0 km/h
1064 31-12-2003 23:11:58 -3 C 3.06 g/m*3 -3 C 0 km/h
1065 31-12-2003 23:23:58 -3.3 C 2.96 g/m*3 -3.3 C 0 km/h
1066 01-01-2004 02:35:55 -4.7 C 2.82 g/m*3 -4.7 C 0 km/h
1067 01-01-2004 02:47:55 -4.8 C 2.8 g/m*3 -4.8 C 0 km/h
1068 01-01-2004 02:59:55 -4.9 C 2.74 g/m*3 -4.9 C 0 km/h
1069 01-01-2004 03:09:55 -5.1 C 2.7 g/m*3 -5.1 C 0 km/h
1070 01-01-2004 03:21:55 -4.9 C 2.78 g/m*3 -4.9 C 0 km/h
1071 01-01-2004 03:32:01 -5.1 C 2.74 g/m*3 -5.1 C 0 km/h
1072 01-01-2004 03:44:01 -5.2 C 2.72 g/m*3 -5.2 C 0 km/h
1073 01-01-2004 03:56:01 -5.2 C 2.72 g/m*3 -5.2 C 0 km/h
1074 01-01-2004 04:08:00 -5.4 C 2.68 g/m*3 -5.4 C 0 km/h
1075 01-01-2004 04:20:00 -5.4 C 2.68 g/m*3 -5.4 C 0 km/h
Sensor: Nr:Datum:Temp:Abs-Feuchte:Windchill:Wind:
Aussen-T/F 1076 01-01-2004 04:30:55 -5.4 C 2.68 g/m*3 -5.4 C 0 km/h
1077 01-01-2004 04:42:55 -5.5 C 2.66 g/m*3 -5.5 C 0 km/h
1078 01-01-2004 04:54:55 -5.7 C 2.62 g/m*3 -5.7 C 0 km/h
1079 01-01-2004 05:03:55 -5.7 C 2.62 g/m*3 -5.7 C 0 km/h
1080 01-01-2004 05:15:55 -5.7 C 2.62 g/m*3 -5.7 C 0 km/h
1081 01-01-2004 05:27:55 -5.8 C 2.6 g/m*3 -5.8 C 0 km/h
1082 01-01-2004 05:37:55 -5.7 C 2.62 g/m*3 -5.7 C 0 km/h
1083 01-01-2004 05:49:55 -5.8 C 2.6 g/m*3 -5.8 C 0 km/h
1084 01-01-2004 05:58:55 -5.9 C 2.58 g/m*3 -5.9 C 0 km/h
1085 01-01-2004 06:10:55 -6 C 2.57 g/m*3 -6 C 0 km/h
1086 01-01-2004 06:22:55 -6 C 2.57 g/m*3 -6 C 0 km/h
1087 01-01-2004 06:32:55 -5.9 C 2.58 g/m*3 -5.9 C 0 km/h
1088 01-01-2004 06:44:55 -5.9 C 2.58 g/m*3 -5.9 C 0 km/h
1089 01-01-2004 06:56:55 -5.9 C 2.58 g/m*3 -5.9 C 0 km/h
1090 01-01-2004 07:05:55 -5.9 C 2.58 g/m*3 -5.9 C 0 km/h
1091 01-01-2004 07:17:55 -5.8 C 2.6 g/m*3 -5.8 C 0 km/h
1092 01-01-2004 07:29:55 -5.8 C 2.6 g/m*3 -5.8 C 0 km/h
1093 01-01-2004 07:38:55 -5.8 C 2.6 g/m*3 -5.8 C 0 km/h
1094 01-01-2004 07:50:55 -5.7 C 2.62 g/m*3 -5.7 C 0 km/h
1095 01-01-2004 08:00:55 -5.6 C 2.64 g/m*3 -5.6 C 0 km/h
1096 01-01-2004 08:12:55 -5.4 C 2.71 g/m*3 -5.4 C 0 km/h
1097 01-01-2004 08:24:55 -5.4 C 2.71 g/m*3 -5.4 C 0 km/h
1098 01-01-2004 08:33:55 -5.3 C 2.73 g/m*3 -5.3 C 0 km/h
1099 01-01-2004 08:45:55 -5.1 C 2.77 g/m*3 -5.1 C 0 km/h
1100 01-01-2004 08:57:55 -5 C 2.79 g/m*3 -5 C 0 km/h
Sensor: Nr:Datum:Temp:Abs-Feuchte:Windchill:Wind:
Aussen-T/F 1101 01-01-2004 09:06:55 -4.8 C 2.8 g/m*3 -4.8 C 0 km/h
1102 01-01-2004 09:18:55 -4.7 C 2.82 g/m*3 -4.7 C 0 km/h
1103 01-01-2004 09:30:55 -4.5 C 2.86 g/m*3 -4.5 C 0 km/h
1104 01-01-2004 09:40:55 -4.3 C 2.86 g/m*3 -4.3 C 0 km/h
1105 01-01-2004 09:52:55 -4 C 2.93 g/m*3 -4 C 0 km/h
1106 01-01-2004 10:01:55 -3.9 C 2.91 g/m*3 -3.9 C 0 km/h
1107 01-01-2004 10:13:55 -3.7 C 2.92 g/m*3 -3.7 C 0 km/h
1108 01-01-2004 10:25:55 -3.5 C 2.96 g/m*3 -3.5 C 0 km/h
1109 01-01-2004 10:34:55 -3.2 C 3.02 g/m*3 -3.2 C 0 km/h
1110 01-01-2004 10:46:55 -3 C 3.02 g/m*3 -3 C 0 km/h
1111 01-01-2004 10:58:55 -2.5 C 3.13 g/m*3 -2.5 C 0 km/h
1112 01-01-2004 11:08:55 -2.4 C 3.16 g/m*3 -2.4 C 0 km/h
1113 01-01-2004 11:20:55 -2.3 C 3.14 g/m*3 -2.3 C 0 km/h
1114 01-01-2004 11:29:55 -2 C 3.25 g/m*3 -2 C 0 km/h
1115 01-01-2004 11:41:55 -1.7 C 3.31 g/m*3 -1.7 C 0 km/h
1116 01-01-2004 11:53:55 -1.3 C 3.45 g/m*3 -1.3 C 0 km/h
1117 01-01-2004 12:01:55 -1 C 3.53 g/m*3 -1 C 0 km/h
1118 01-01-2004 12:13:55 -1 C 3.48 g/m*3 -1 C 0 km/h
1119 01-01-2004 12:25:55 -0.7 C 3.55 g/m*3 -0.7 C 0 km/h
1120 01-01-2004 12:34:55 -0.5 C 3.6 g/m*3 -0.5 C 0 km/h
1121 01-01-2004 12:46:55 -0.4 C 3.63 g/m*3 -0.4 C 0 km/h
1122 01-01-2004 12:58:55 -0.2 C 3.58 g/m*3 -0.2 C 0 km/h
1123 01-01-2004 13:08:55 0.1 C 3.61 g/m*3 0.1 C 0 km/h
1124 01-01-2004 13:20:55 0.3 C 3.56 g/m*3 0.3 C 0 km/h
1125 01-01-2004 13:29:55 0.3 C 3.56 g/m*3 0.3 C 0 km/h
Sensor: Nr:Datum:Temp:Abs-Feuchte:Windchill:Wind:
Aussen-T/F 1126 01-01-2004 13:41:55 0.4 C 3.49 g/m*3 0.4 C 0 km/h
1127 01-01-2004 13:53:55 0.4 C 3.54 g/m*3 0.4 C 0 km/h
1128 01-01-2004 14:03:55 0.2 C 3.49 g/m*3 0.2 C 0 km/h
1129 01-01-2004 14:15:55 0.1 C 3.51 g/m*3 0.1 C 0 km/h
1130 01-01-2004 14:27:55 0.1 C 3.51 g/m*3 0.1 C 0 km/h
1131 01-01-2004 14:36:55 0 C 3.49 g/m*3 0 C 0 km/h
1132 01-01-2004 14:48:55 0 C 3.54 g/m*3 0 C 0 km/h
1133 01-01-2004 15:00:55 0 C 3.49 g/m*3 0 C 0 km/h
1134 01-01-2004 15:09:56 0.1 C 3.56 g/m*3 0.1 C 0 km/h
1135 01-01-2004 15:21:56 0 C 3.54 g/m*3 0 C 0 km/h
1136 01-01-2004 15:31:55 0 C 3.54 g/m*3 0 C 0 km/h
1137 01-01-2004 15:43:55 0 C 3.54 g/m*3 0 C 0 km/h
1138 01-01-2004 15:55:55 0.1 C 3.56 g/m*3 0.1 C 0 km/h
1139 01-01-2004 16:04:55 0.1 C 3.56 g/m*3 0.1 C 0 km/h
1140 01-01-2004 16:16:55 0 C 3.54 g/m*3 0 C 0 km/h
1141 01-01-2004 16:28:55 -0.1 C 3.51 g/m*3 -0.1 C 0 km/h
1142 01-01-2004 16:38:55 -0.2 C 3.49 g/m*3 -0.2 C 0 km/h
1143 01-01-2004 16:50:55 -0.2 C 3.49 g/m*3 -0.2 C 0 km/h
1144 01-01-2004 16:59:55 -0.1 C 3.51 g/m*3 -0.1 C 0 km/h
1145 01-01-2004 17:11:56 -0.1 C 3.51 g/m*3 -0.1 C 0 km/h
1146 01-01-2004 17:23:56 -0.1 C 3.51 g/m*3 -0.1 C 0 km/h
1147 01-01-2004 17:33:55 -0.1 C 3.51 g/m*3 -0.1 C 0 km/h
1148 01-01-2004 17:45:56 0 C 3.54 g/m*3 0 C 0 km/h
1149 01-01-2004 17:57:56 0 C 3.54 g/m*3 0 C 0 km/h
1150 01-01-2004 18:06:55 0.1 C 3.56 g/m*3 0.1 C 0 km/h
Sensor: Nr:Datum:Temp:Abs-Feuchte:Windchill:Wind:
Aussen-T/F 1151 01-01-2004 18:18:55 0.1 C 3.56 g/m*3 0.1 C 0 km/h
1152 01-01-2004 18:30:55 0.1 C 3.56 g/m*3 0.1 C 0 km/h
1153 01-01-2004 18:40:55 0.1 C 3.51 g/m*3 0.1 C 0 km/h
1154 01-01-2004 18:52:55 0.1 C 3.51 g/m*3 0.1 C 0 km/h
1155 01-01-2004 19:01:55 0.1 C 3.51 g/m*3 0.1 C 0 km/h
1156 01-01-2004 19:13:55 0.2 C 3.54 g/m*3 0.2 C 0 km/h
1157 01-01-2004 19:25:55 0.1 C 3.56 g/m*3 0.1 C 0 km/h
1158 01-01-2004 19:34:55 0 C 3.54 g/m*3 0 C 0 km/h
1159 01-01-2004 19:46:55 -0.1 C 3.61 g/m*3 -0.1 C 0 km/h
1160 01-01-2004 19:58:55 -0.2 C 3.63 g/m*3 -0.2 C 0 km/h
1161 01-01-2004 20:08:55 -0.2 C 3.73 g/m*3 -0.2 C 0 km/h
1162 01-01-2004 20:20:55 -0.3 C 3.75 g/m*3 -0.3 C 0 km/h
1163 01-01-2004 22:44:07 0 C 3.88 g/m*3 0 C 0 km/h
1164 01-01-2004 22:56:07 0 C 3.63 g/m*3 0 C 0 km/h
1165 01-01-2004 23:08:07 0 C 3.39 g/m*3 0 C 0 km/h
1166 01-01-2004 23:20:07 0 C 3.15 g/m*3 0 C 0 km/h
1167 01-01-2004 23:32:07 0 C 2.91 g/m*3 0 C 0 km/h
1168 01-01-2004 23:44:07 0 C 2.66 g/m*3 0 C 0 km/h
1169 01-01-2004 23:56:07 0 C 0.97 g/m*3 0 C 0 km/h
1170 02-01-2004 00:08:07 0 C 0.97 g/m*3 0 C 0 km/h
1171 02-01-2004 00:20:07 0 C 0.97 g/m*3 0 C 0 km/h
1172 02-01-2004 00:32:07 0 C 0.97 g/m*3 0 C 0 km/h
1173 02-01-2004 00:44:07 0 C 0.97 g/m*3 0 C 0 km/h
1174 02-01-2004 00:56:07 0 C 0.97 g/m*3 0 C 0 km/h
1175 02-01-2004 01:08:07 0 C 0.97 g/m*3 0 C 0 km/h
Sensor: Nr:Datum:Temp:Abs-Feuchte:Windchill:Wind:
Aussen-T/F 1176 02-01-2004 01:20:07 0 C 0.97 g/m*3 0 C 0 km/h
1177 02-01-2004 01:32:07 0 C 0.97 g/m*3 0 C 0 km/h
1178 02-01-2004 01:44:07 0 C 0.97 g/m*3 0 C 0 km/h
1179 02-01-2004 01:56:07 0 C 0.97 g/m*3 0 C 0 km/h
1180 02-01-2004 02:08:07 0 C 0.97 g/m*3 0 C 0 km/h
1181 02-01-2004 02:20:07 0 C 0.97 g/m*3 0 C 0 km/h
1182 02-01-2004 02:32:07 0 C 0.97 g/m*3 0 C 0 km/h
1183 02-01-2004 02:44:07 0 C 0.97 g/m*3 0 C 0 km/h
1184 02-01-2004 02:56:07 0 C 0.97 g/m*3 0 C 0 km/h
1185 02-01-2004 03:08:07 0 C 0.97 g/m*3 0 C 0 km/h
1186 02-01-2004 03:20:07 0 C 0.97 g/m*3 0 C 0 km/h
1187 02-01-2004 03:32:07 0 C 0.97 g/m*3 0 C 0 km/h
1188 02-01-2004 03:44:07 0 C 0.97 g/m*3 0 C 0 km/h
1189 02-01-2004 03:56:07 0 C 0.97 g/m*3 0 C 0 km/h
1190 02-01-2004 04:08:07 0 C 0.97 g/m*3 0 C 0 km/h
1191 02-01-2004 04:20:07 0 C 0.97 g/m*3 0 C 0 km/h
1192 02-01-2004 04:32:07 0 C 0.97 g/m*3 0 C 0 km/h
1193 02-01-2004 04:44:07 0 C 0.97 g/m*3 0 C 0 km/h
1194 02-01-2004 04:56:07 0 C 0.97 g/m*3 0 C 0 km/h
1195 02-01-2004 05:08:07 0 C 0.97 g/m*3 0 C 0 km/h
1196 02-01-2004 05:20:07 0 C 0.97 g/m*3 0 C 0 km/h
1197 02-01-2004 05:32:07 0 C 0.97 g/m*3 0 C 0 km/h
1198 02-01-2004 05:44:07 0 C 0.97 g/m*3 0 C 0 km/h
1199 02-01-2004 05:56:07 0 C 0.97 g/m*3 0 C 0 km/h
1200 02-01-2004 06:08:07 0 C 0.97 g/m*3 0 C 0 km/h
Sensor: Nr:Datum:Temp:Abs-Feuchte:Windchill:Wind:
Aussen-T/F 1201 02-01-2004 06:20:07 0 C 0.97 g/m*3 0 C 0 km/h
1202 02-01-2004 06:32:07 0 C 0.97 g/m*3 0 C 0 km/h
1203 02-01-2004 06:44:07 0 C 0.97 g/m*3 0 C 0 km/h
1204 02-01-2004 06:56:07 0 C 0.97 g/m*3 0 C 0 km/h
1205 02-01-2004 07:08:07 0 C 0.97 g/m*3 0 C 0 km/h
1206 02-01-2004 07:20:07 0 C 0.97 g/m*3 0 C 0 km/h
1207 02-01-2004 07:32:07 0 C 0.97 g/m*3 0 C 0 km/h
1208 02-01-2004 07:44:07 0 C 0.97 g/m*3 0 C 0 km/h
1209 02-01-2004 07:56:07 0 C 0.97 g/m*3 0 C 0 km/h
1210 02-01-2004 08:08:07 -1.9 C 0.85 g/m*3 -1.9 C 0 km/h
1211 02-01-2004 08:20:07 -2.1 C 1.05 g/m*3 -2.1 C 0 km/h
1212 02-01-2004 08:32:07 -2.3 C 1.24 g/m*3 -2.3 C 0 km/h
1213 02-01-2004 08:44:07 -2.7 C 1.4 g/m*3 -2.7 C 0 km/h
1214 02-01-2004 08:56:07 -2.9 C 2.77 g/m*3 -2.9 C 0 km/h
1215 02-01-2004 09:08:07 -3.1 C 2.73 g/m*3 -3.1 C 0 km/h
1216 02-01-2004 09:20:07 -3 C 2.75 g/m*3 -3 C 0 km/h
1217 02-01-2004 09:32:07 -3.2 C 2.71 g/m*3 -3.2 C 0 km/h
1218 02-01-2004 09:44:07 -3.2 C 2.75 g/m*3 -3.2 C 0 km/h
1219 02-01-2004 09:56:07 -3 C 2.83 g/m*3 -3 C 0 km/h
1220 02-01-2004 10:11:00 -2.7 C 2.89 g/m*3 -2.7 C 0 km/h
1221 02-01-2004 10:23:00 -2.7 C 2.89 g/m*3 -2.7 C 0 km/h
1222 02-01-2004 10:35:06 -2.6 C 2.83 g/m*3 -2.6 C 0 km/h
1223 02-01-2004 10:47:33 -2.4 C 2.87 g/m*3 -2.4 C 0 km/h
1224 02-01-2004 10:59:01 -2.1 C 2.93 g/m*3 -2.1 C 0 km/h
1225 02-01-2004 11:11:01 -2.1 C 2.8 g/m*3 -2.1 C 0 km/h
Sensor: Nr:Datum:Temp:Abs-Feuchte:Windchill:Wind:
Aussen-T/F 1226 02-01-2004 11:23:01 -2.2 C 2.74 g/m*3 -2.2 C 0 km/h
1227 02-01-2004 11:35:01 -2.2 C 2.74 g/m*3 -2.2 C 0 km/h
1228 02-01-2004 11:47:01 -2.1 C 2.8 g/m*3 -2.1 C 0 km/h
1229 02-01-2004 11:59:01 -1.9 C 2.84 g/m*3 -1.9 C 0 km/h
1230 02-01-2004 12:11:01 -1.7 C 2.84 g/m*3 -1.7 C 0 km/h
1231 02-01-2004 12:23:01 -1.7 C 2.84 g/m*3 -1.7 C 0 km/h
1232 02-01-2004 12:35:01 -1.7 C 2.8 g/m*3 -1.7 C 0 km/h
1233 02-01-2004 12:47:01 -1.2 C 2.81 g/m*3 -1.2 C 0 km/h
1234 02-01-2004 12:59:01 -1.3 C 2.74 g/m*3 -1.3 C 0 km/h
1235 02-01-2004 13:11:59 -1.6 C 2.69 g/m*3 -1.6 C 0 km/h
1236 02-01-2004 13:23:59 -1.6 C 2.69 g/m*3 -1.6 C 0 km/h
1237 02-01-2004 13:35:51 -1.7 C 2.67 g/m*3 -1.7 C 0 km/h
1238 02-01-2004 13:47:51 -1.7 C 2.67 g/m*3 -1.7 C 0 km/h
1239 02-01-2004 15:14:53 -1.4 C 2.64 g/m*3 -1.4 C 0 km/h
1240 02-01-2004 15:26:53 -1.4 C 2.64 g/m*3 -1.4 C 0 km/h
1241 02-01-2004 15:40:28 -1.1 C 2.69 g/m*3 -1.1 C 0 km/h
1242 02-01-2004 15:52:28 -0.9 C 2.78 g/m*3 -0.9 C 0 km/h
1243 02-01-2004 16:04:28 -0.9 C 2.73 g/m*3 -0.9 C 0 km/h
1244 02-01-2004 16:16:28 -1.2 C 2.67 g/m*3 -1.2 C 0 km/h
1245 02-01-2004 16:28:28 -1.5 C 2.62 g/m*3 -1.5 C 0 km/h
1246 02-01-2004 16:40:28 -1.7 C 2.63 g/m*3 -1.7 C 0 km/h
1247 02-01-2004 16:52:28 -2 C 2.53 g/m*3 -2 C 0 km/h
1248 02-01-2004 17:04:30 -2.4 C 2.5 g/m*3 -2.4 C 0 km/h
1249 02-01-2004 17:16:30 -2.5 C 2.52 g/m*3 -2.5 C 0 km/h
1250 02-01-2004 17:28:30 -2.5 C 2.52 g/m*3 -2.5 C 0 km/h
Sensor: Nr:Datum:Temp:Abs-Feuchte:Windchill:Wind:
Aussen-T/F 1251 02-01-2004 17:40:30 -2.5 C 2.52 g/m*3 -2.5 C 0 km/h
1252 02-01-2004 17:49:01 -2.9 C 2.49 g/m*3 -2.9 C 0 km/h
1253 02-01-2004 18:01:01 -3.4 C 2.44 g/m*3 -3.4 C 0 km/h
1254 02-01-2004 18:13:02 -3.5 C 2.46 g/m*3 -3.5 C 0 km/h
1255 02-01-2004 18:25:02 -3.8 C 2.41 g/m*3 -3.8 C 0 km/h
1256 02-01-2004 18:48:59 -4 C 2.41 g/m*3 -4 C 0 km/h
1257 02-01-2004 19:00:59 -4.1 C 2.36 g/m*3 -4.1 C 0 km/h
1258 02-01-2004 19:01:58 -4.1 C 2.36 g/m*3 -4.1 C 0 km/h
1259 02-01-2004 19:13:58 -4.3 C 2.36 g/m*3 -4.3 C 0 km/h
1260 02-01-2004 19:25:58 -4.5 C 2.33 g/m*3 -4.5 C 0 km/h
1261 02-01-2004 19:37:01 -4.3 C 2.36 g/m*3 -4.3 C 0 km/h
1262 02-01-2004 19:49:01 -4.5 C 2.33 g/m*3 -4.5 C 0 km/h
1263 02-01-2004 20:01:01 -4.4 C 2.35 g/m*3 -4.4 C 0 km/h
1264 02-01-2004 20:13:01 -4.5 C 2.33 g/m*3 -4.5 C 0 km/h
1265 02-01-2004 20:25:01 -4.8 C 2.31 g/m*3 -4.8 C 0 km/h
1266 02-01-2004 20:37:01 -4.9 C 2.33 g/m*3 -4.9 C 0 km/h
1267 02-01-2004 20:49:01 -5.1 C 2.3 g/m*3 -5.1 C 0 km/h
1268 02-01-2004 21:01:01 -5.1 C 2.37 g/m*3 -5.1 C 0 km/h
1269 02-01-2004 21:13:01 -5.1 C 2.37 g/m*3 -5.1 C 0 km/h
1270 02-01-2004 21:25:01 -5.3 C 2.33 g/m*3 -5.3 C 0 km/h
1271 02-01-2004 21:37:00 -5.5 C 2.33 g/m*3 -5.5 C 0 km/h
1272 02-01-2004 21:49:00 -5.7 C 2.3 g/m*3 -5.7 C 0 km/h
1273 02-01-2004 22:01:00 -5.8 C 2.31 g/m*3 -5.8 C 0 km/h
1274 02-01-2004 22:13:58 -5.9 C 2.33 g/m*3 -5.9 C 0 km/h
1275 02-01-2004 22:25:58 -5.8 C 2.38 g/m*3 -5.8 C 0 km/h
Sensor: Nr:Datum:Temp:Abs-Feuchte:Windchill:Wind:
Aussen-T/F 1276 02-01-2004 22:37:01 -5.8 C 2.38 g/m*3 -5.8 C 0 km/h
1277 02-01-2004 22:49:01 -5.8 C 2.35 g/m*3 -5.8 C 0 km/h
1278 02-01-2004 23:01:01 -5.4 C 2.41 g/m*3 -5.4 C 0 km/h
1279 02-01-2004 23:13:01 -5.6 C 2.38 g/m*3 -5.6 C 0 km/h
1280 02-01-2004 23:25:01 -6.2 C 2.25 g/m*3 -6.2 C 0 km/h
1281 02-01-2004 23:37:00 -6.5 C 2.23 g/m*3 -6.5 C 0 km/h
1282 02-01-2004 23:49:00 -6.6 C 2.24 g/m*3 -6.6 C 0 km/h
1283 03-01-2004 00:01:00 -6.8 C 2.24 g/m*3 -6.8 C 0 km/h
1284 03-01-2004 00:13:58 -7.1 C 2.16 g/m*3 -7.1 C 0 km/h
1285 03-01-2004 00:25:58 -7.4 C 2.12 g/m*3 -7.4 C 0 km/h
1286 03-01-2004 00:37:01 -7.5 C 2.13 g/m*3 -7.5 C 0 km/h
1287 03-01-2004 00:49:01 -7.6 C 2.11 g/m*3 -7.6 C 0 km/h
1288 03-01-2004 01:01:01 -7.6 C 2.11 g/m*3 -7.6 C 0 km/h
1289 03-01-2004 01:13:00 -7.7 C 2.13 g/m*3 -7.7 C 0 km/h
1290 03-01-2004 01:25:00 -7.7 C 2.13 g/m*3 -7.7 C 0 km/h
1291 03-01-2004 01:37:01 -7.7 C 2.15 g/m*3 -7.7 C 0 km/h
1292 03-01-2004 01:49:01 -7.8 C 2.14 g/m*3 -7.8 C 0 km/h
1293 03-01-2004 02:01:01 -8.1 C 2.09 g/m*3 -8.1 C 0 km/h
1294 03-01-2004 02:13:01 -8.2 C 2.05 g/m*3 -8.2 C 0 km/h
1295 03-01-2004 02:25:01 -8.1 C 2.09 g/m*3 -8.1 C 0 km/h
1296 03-01-2004 02:37:00 -8.2 C 2.07 g/m*3 -8.2 C 0 km/h
1297 03-01-2004 02:49:00 -8.2 C 2.07 g/m*3 -8.2 C 0 km/h
1298 03-01-2004 03:01:00 -8.2 C 2.1 g/m*3 -8.2 C 0 km/h
1299 03-01-2004 03:14:00 -8.2 C 2.1 g/m*3 -8.2 C 0 km/h
1300 03-01-2004 03:26:00 -8.5 C 2.06 g/m*3 -8.5 C 0 km/h
Sensor: Nr:Datum:Temp:Abs-Feuchte:Windchill:Wind:
Aussen-T/F 1301 03-01-2004 03:38:00 -8.4 C 2.07 g/m*3 -8.4 C 0 km/h
1302 03-01-2004 03:50:00 -8.5 C 2.06 g/m*3 -8.5 C 0 km/h
1303 03-01-2004 04:02:01 -8.5 C 2.06 g/m*3 -8.5 C 0 km/h
1304 03-01-2004 04:14:01 -8.5 C 2.06 g/m*3 -8.5 C 0 km/h
1305 03-01-2004 04:26:01 -8.6 C 2.01 g/m*3 -8.6 C 0 km/h
1306 03-01-2004 04:38:00 -8.7 C 2 g/m*3 -8.7 C 0 km/h
1307 03-01-2004 04:50:00 -8.9 C 1.97 g/m*3 -8.9 C 0 km/h
1308 03-01-2004 05:02:01 -9 C 1.95 g/m*3 -9 C 0 km/h
1309 03-01-2004 05:14:01 -9.2 C 1.9 g/m*3 -9.2 C 0 km/h
1310 03-01-2004 05:26:01 -9.1 C 1.94 g/m*3 -9.1 C 0 km/h
1311 03-01-2004 05:38:00 -9.3 C 1.91 g/m*3 -9.3 C 0 km/h
1312 03-01-2004 05:50:00 -9.4 C 1.87 g/m*3 -9.4 C 0 km/h
1313 03-01-2004 06:02:01 -9.2 C 1.93 g/m*3 -9.2 C 0 km/h
1314 03-01-2004 06:14:01 -9.2 C 1.93 g/m*3 -9.2 C 0 km/h
1315 03-01-2004 06:26:01 -9.2 C 1.93 g/m*3 -9.2 C 0 km/h
1316 03-01-2004 06:38:00 -9.3 C 1.91 g/m*3 -9.3 C 0 km/h
1317 03-01-2004 06:50:00 -8.9 C 1.97 g/m*3 -8.9 C 0 km/h
1318 03-01-2004 07:02:01 -8.6 C 2.01 g/m*3 -8.6 C 0 km/h
1319 03-01-2004 07:14:01 -8.3 C 2.03 g/m*3 -8.3 C 0 km/h
1320 03-01-2004 07:26:01 -8.3 C 2.03 g/m*3 -8.3 C 0 km/h
1321 03-01-2004 07:38:00 -8.2 C 2.02 g/m*3 -8.2 C 0 km/h
1322 03-01-2004 07:50:00 -8.1 C 2.04 g/m*3 -8.1 C 0 km/h
1323 03-01-2004 08:02:00 -8.1 C 2.04 g/m*3 -8.1 C 0 km/h
1324 03-01-2004 08:14:00 -7.9 C 2.07 g/m*3 -7.9 C 0 km/h
1325 03-01-2004 08:26:00 -7.8 C 2.08 g/m*3 -7.8 C 0 km/h
Sensor: Nr:Datum:Temp:Abs-Feuchte:Windchill:Wind:
Aussen-T/F 1326 03-01-2004 08:38:00 -7.7 C 2.1 g/m*3 -7.7 C 0 km/h
1327 03-01-2004 08:50:00 -7.7 C 2.07 g/m*3 -7.7 C 0 km/h
1328 03-01-2004 09:02:00 -7.7 C 2.07 g/m*3 -7.7 C 0 km/h
1329 03-01-2004 09:14:00 -7.7 C 2.07 g/m*3 -7.7 C 0 km/h
1330 03-01-2004 09:26:00 -7.4 C 2.12 g/m*3 -7.4 C 0 km/h
1331 03-01-2004 09:38:19 -7.2 C 2.15 g/m*3 -7.2 C 0 km/h
1332 03-01-2004 09:41:08 -7.2 C 2.15 g/m*3 -7.2 C 0 km/h
1333 03-01-2004 10:57:07 -5.9 C 2.3 g/m*3 -5.9 C 0 km/h
1334 03-01-2004 11:09:07 -5.6 C 2.35 g/m*3 -5.6 C 0 km/h
1335 03-01-2004 11:21:22 -5.4 C 2.35 g/m*3 -5.4 C 0 km/h
1336 03-01-2004 11:33:22 -5.2 C 2.35 g/m*3 -5.2 C 0 km/h
1337 03-01-2004 11:45:22 -4.8 C 2.42 g/m*3 -4.8 C 0 km/h
1338 03-01-2004 11:57:46 -4.6 C 2.42 g/m*3 -4.6 C 0 km/h
1339 03-01-2004 12:09:46 -4.4 C 2.45 g/m*3 -4.4 C 0 km/h
1340 03-01-2004 12:21:46 -4.2 C 2.49 g/m*3 -4.2 C 0 km/h
1341 03-01-2004 12:33:46 -4 C 2.52 g/m*3 -4 C 0 km/h
1342 03-01-2004 12:45:46 -3.6 C 2.6 g/m*3 -3.6 C 0 km/h
1343 03-01-2004 12:57:01 -3.2 C 2.67 g/m*3 -3.2 C 0 km/h
1344 03-01-2004 13:09:01 -3 C 2.71 g/m*3 -3 C 0 km/h
1345 03-01-2004 13:21:01 -2.9 C 2.73 g/m*3 -2.9 C 0 km/h
1346 03-01-2004 13:33:00 -2.8 C 2.75 g/m*3 -2.8 C 0 km/h
1347 03-01-2004 13:45:00 -2.7 C 2.77 g/m*3 -2.7 C 0 km/h
1348 03-01-2004 13:57:00 -2.6 C 2.83 g/m*3 -2.6 C 0 km/h
1349 03-01-2004 14:09:59 -2.5 C 2.85 g/m*3 -2.5 C 0 km/h
1350 03-01-2004 14:21:59 -2.5 C 2.85 g/m*3 -2.5 C 0 km/h
Sensor: Nr:Datum:Temp:Abs-Feuchte:Windchill:Wind:
Aussen-T/F 1351 03-01-2004 14:33:01 -2.3 C 2.93 g/m*3 -2.3 C 0 km/h
1352 03-01-2004 14:45:01 -2.2 C 2.95 g/m*3 -2.2 C 0 km/h
1353 03-01-2004 14:57:01 -2.1 C 2.97 g/m*3 -2.1 C 0 km/h
1354 03-01-2004 15:09:00 -2.1 C 2.97 g/m*3 -2.1 C 0 km/h
1355 03-01-2004 15:21:00 -2.2 C 2.95 g/m*3 -2.2 C 0 km/h
1356 03-01-2004 15:33:01 -2.3 C 2.93 g/m*3 -2.3 C 0 km/h
1357 03-01-2004 15:45:01 -2.3 C 2.97 g/m*3 -2.3 C 0 km/h
1358 03-01-2004 15:57:01 -2.3 C 2.93 g/m*3 -2.3 C 0 km/h
1359 03-01-2004 16:09:01 -2.4 C 2.91 g/m*3 -2.4 C 0 km/h
1360 03-01-2004 16:21:01 -2.5 C 2.85 g/m*3 -2.5 C 0 km/h
1361 03-01-2004 16:33:00 -2.5 C 2.73 g/m*3 -2.5 C 0 km/h
1362 03-01-2004 16:45:00 -2.6 C 2.59 g/m*3 -2.6 C 0 km/h
1363 03-01-2004 16:57:00 -2.7 C 2.53 g/m*3 -2.7 C 0 km/h
1364 03-01-2004 17:09:59 -2.8 C 2.47 g/m*3 -2.8 C 0 km/h
1365 03-01-2004 17:21:59 -2.8 C 2.51 g/m*3 -2.8 C 0 km/h
1366 03-01-2004 17:33:01 -2.9 C 2.45 g/m*3 -2.9 C 0 km/h
1367 03-01-2004 17:45:01 -2.9 C 2.45 g/m*3 -2.9 C 0 km/h
1368 03-01-2004 17:57:01 -2.9 C 2.45 g/m*3 -2.9 C 0 km/h
1369 03-01-2004 18:09:01 -3 C 2.44 g/m*3 -3 C 0 km/h
1370 03-01-2004 18:21:01 -3 C 2.4 g/m*3 -3 C 0 km/h
1371 03-01-2004 18:33:00 -2.9 C 2.41 g/m*3 -2.9 C 0 km/h
1372 03-01-2004 18:45:00 -3 C 2.47 g/m*3 -3 C 0 km/h
1373 03-01-2004 18:57:00 -3 C 2.51 g/m*3 -3 C 0 km/h
1374 03-01-2004 19:09:58 -3.1 C 2.54 g/m*3 -3.1 C 0 km/h
1375 03-01-2004 19:21:58 -3.2 C 2.52 g/m*3 -3.2 C 0 km/h
Sensor: Nr:Datum:Temp:Abs-Feuchte:Windchill:Wind:
Aussen-T/F 1376 03-01-2004 19:33:01 -3.2 C 2.52 g/m*3 -3.2 C 0 km/h
1377 03-01-2004 19:45:01 -3.2 C 2.48 g/m*3 -3.2 C 0 km/h
1378 03-01-2004 19:57:01 -3.2 C 2.44 g/m*3 -3.2 C 0 km/h
1379 03-01-2004 20:09:01 -3.2 C 2.4 g/m*3 -3.2 C 0 km/h
1380 03-01-2004 20:21:01 -3.2 C 2.36 g/m*3 -3.2 C 0 km/h
1381 03-01-2004 20:33:01 -3.3 C 2.42 g/m*3 -3.3 C 0 km/h
1382 03-01-2004 20:45:01 -3.7 C 2.35 g/m*3 -3.7 C 0 km/h
1383 03-01-2004 20:57:01 -4 C 2.3 g/m*3 -4 C 0 km/h
1384 03-01-2004 21:09:01 -4.2 C 2.31 g/m*3 -4.2 C 0 km/h
1385 03-01-2004 21:21:01 -4.5 C 2.26 g/m*3 -4.5 C 0 km/h
1386 03-01-2004 21:33:00 -4.7 C 2.26 g/m*3 -4.7 C 0 km/h
1387 03-01-2004 21:45:00 -4.9 C 2.23 g/m*3 -4.9 C 0 km/h
1388 03-01-2004 21:57:00 -5.2 C 2.18 g/m*3 -5.2 C 0 km/h
1389 03-01-2004 22:09:59 -5.7 C 2.17 g/m*3 -5.7 C 0 km/h
1390 03-01-2004 22:21:59 -6 C 2.12 g/m*3 -6 C 0 km/h
1391 03-01-2004 22:33:01 -6.1 C 2.14 g/m*3 -6.1 C 0 km/h
1392 03-01-2004 22:45:01 -6.2 C 2.15 g/m*3 -6.2 C 0 km/h
1393 03-01-2004 22:57:01 -6.3 C 2.17 g/m*3 -6.3 C 0 km/h
1394 03-01-2004 23:09:00 -6.3 C 2.2 g/m*3 -6.3 C 0 km/h
1395 03-01-2004 23:21:00 -6.4 C 2.18 g/m*3 -6.4 C 0 km/h
1396 03-01-2004 23:33:01 -6.5 C 2.2 g/m*3 -6.5 C 0 km/h
1397 03-01-2004 23:45:01 -6.6 C 2.18 g/m*3 -6.6 C 0 km/h
1398 03-01-2004 23:57:01 -6.7 C 2.17 g/m*3 -6.7 C 0 km/h
1399 04-01-2004 00:09:01 -6.7 C 2.2 g/m*3 -6.7 C 0 km/h
1400 04-01-2004 00:21:01 -6.6 C 2.21 g/m*3 -6.6 C 0 km/h
Sensor: Nr:Datum:Temp:Abs-Feuchte:Windchill:Wind:
Aussen-T/F 1401 04-01-2004 00:33:01 -6.4 C 2.25 g/m*3 -6.4 C 0 km/h
1402 04-01-2004 00:45:01 -6.2 C 2.25 g/m*3 -6.2 C 0 km/h
1403 04-01-2004 00:57:01 -6.3 C 2.23 g/m*3 -6.3 C 0 km/h
1404 04-01-2004 01:09:01 -6.2 C 2.25 g/m*3 -6.2 C 0 km/h
1405 04-01-2004 01:21:01 -6.3 C 2.23 g/m*3 -6.3 C 0 km/h
1406 04-01-2004 01:33:00 -6.2 C 2.28 g/m*3 -6.2 C 0 km/h
1407 04-01-2004 01:45:00 -6 C 2.28 g/m*3 -6 C 0 km/h
1408 04-01-2004 01:57:00 -5.9 C 2.3 g/m*3 -5.9 C 0 km/h
1409 04-01-2004 02:09:58 -5.8 C 2.31 g/m*3 -5.8 C 0 km/h
1410 04-01-2004 02:21:58 -5.7 C 2.3 g/m*3 -5.7 C 0 km/h
1411 04-01-2004 02:33:01 -5.6 C 2.31 g/m*3 -5.6 C 0 km/h
1412 04-01-2004 02:45:01 -5.6 C 2.31 g/m*3 -5.6 C 0 km/h
1413 04-01-2004 02:57:01 -5.6 C 2.31 g/m*3 -5.6 C 0 km/h
1414 04-01-2004 03:09:00 -5.5 C 2.33 g/m*3 -5.5 C 0 km/h
1415 04-01-2004 03:21:00 -5.2 C 2.38 g/m*3 -5.2 C 0 km/h
1416 04-01-2004 03:33:00 -4.9 C 2.4 g/m*3 -4.9 C 0 km/h
1417 04-01-2004 03:45:00 -4.9 C 2.4 g/m*3 -4.9 C 0 km/h
1418 04-01-2004 03:57:00 -4.6 C 2.42 g/m*3 -4.6 C 0 km/h
1419 04-01-2004 04:09:01 -4.5 C 2.4 g/m*3 -4.5 C 0 km/h
1420 04-01-2004 04:21:01 -4.6 C 2.38 g/m*3 -4.6 C 0 km/h
1421 04-01-2004 04:33:01 -4.5 C 2.4 g/m*3 -4.5 C 0 km/h
1422 04-01-2004 04:45:01 -4.2 C 2.45 g/m*3 -4.2 C 0 km/h
1423 04-01-2004 04:57:01 -4.1 C 2.43 g/m*3 -4.1 C 0 km/h
1424 04-01-2004 05:09:00 -4.2 C 2.42 g/m*3 -4.2 C 0 km/h
1425 04-01-2004 05:21:00 -4.1 C 2.43 g/m*3 -4.1 C 0 km/h
Sensor: Nr:Datum:Temp:Abs-Feuchte:Windchill:Wind:
Aussen-T/F 1426 04-01-2004 05:33:00 -4 C 2.45 g/m*3 -4 C 0 km/h
1427 04-01-2004 05:45:00 -4 C 2.41 g/m*3 -4 C 0 km/h
1428 04-01-2004 05:57:00 -4 C 2.41 g/m*3 -4 C 0 km/h
1429 04-01-2004 06:09:01 -4 C 2.41 g/m*3 -4 C 0 km/h
1430 04-01-2004 06:21:01 -3.9 C 2.39 g/m*3 -3.9 C 0 km/h
1431 04-01-2004 06:33:01 -3.9 C 2.39 g/m*3 -3.9 C 0 km/h
1432 04-01-2004 06:45:01 -3.9 C 2.39 g/m*3 -3.9 C 0 km/h
1433 04-01-2004 06:57:01 -3.8 C 2.37 g/m*3 -3.8 C 0 km/h
1434 04-01-2004 07:09:00 -3.8 C 2.37 g/m*3 -3.8 C 0 km/h
1435 04-01-2004 07:21:00 -3.8 C 2.37 g/m*3 -3.8 C 0 km/h
1436 04-01-2004 07:33:00 -3.9 C 2.43 g/m*3 -3.9 C 0 km/h
1437 04-01-2004 07:45:00 -3.8 C 2.41 g/m*3 -3.8 C 0 km/h
1438 04-01-2004 07:57:00 -3.7 C 2.39 g/m*3 -3.7 C 0 km/h
1439 04-01-2004 08:09:01 -3.6 C 2.41 g/m*3 -3.6 C 0 km/h
1440 04-01-2004 08:21:01 -3.5 C 2.35 g/m*3 -3.5 C 0 km/h
1441 04-01-2004 08:33:01 -3.5 C 2.39 g/m*3 -3.5 C 0 km/h
1442 04-01-2004 08:45:01 -3.5 C 2.43 g/m*3 -3.5 C 0 km/h
1443 04-01-2004 08:57:01 -3.7 C 2.47 g/m*3 -3.7 C 0 km/h
1444 04-01-2004 09:09:00 -3.8 C 2.52 g/m*3 -3.8 C 0 km/h
1445 04-01-2004 09:21:00 -3.8 C 2.6 g/m*3 -3.8 C 0 km/h
1446 04-01-2004 09:33:21 -3.8 C 2.63 g/m*3 -3.8 C 0 km/h
1447 04-01-2004 09:45:21 -3.7 C 2.62 g/m*3 -3.7 C 0 km/h
1448 04-01-2004 09:53:00 -3.6 C 2.63 g/m*3 -3.6 C 0 km/h
1449 04-01-2004 10:05:01 -3.5 C 2.65 g/m*3 -3.5 C 0 km/h
1450 04-01-2004 10:17:01 -3.5 C 2.65 g/m*3 -3.5 C 0 km/h
Sensor: Nr:Datum:Temp:Abs-Feuchte:Windchill:Wind:
Aussen-T/F 1451 04-01-2004 10:29:01 -3.3 C 2.69 g/m*3 -3.3 C 0 km/h
1452 04-01-2004 10:41:01 -3.2 C 2.71 g/m*3 -3.2 C 0 km/h
1453 04-01-2004 10:53:01 -3.2 C 2.71 g/m*3 -3.2 C 0 km/h
1454 04-01-2004 11:05:00 -3.1 C 2.73 g/m*3 -3.1 C 0 km/h
1455 04-01-2004 11:17:00 -3 C 2.75 g/m*3 -3 C 0 km/h
1456 04-01-2004 11:29:00 -2.9 C 2.77 g/m*3 -2.9 C 0 km/h
1457 04-01-2004 11:41:00 -2.8 C 2.79 g/m*3 -2.8 C 0 km/h
1458 04-01-2004 11:53:00 -2.8 C 2.83 g/m*3 -2.8 C 0 km/h
1459 04-01-2004 12:04:00 0 C 3.44 g/m*3 0 C 0 km/h
1460 04-01-2004 12:09:00 -2.6 C 2.87 g/m*3 -2.6 C 0 km/h
1461 04-01-2004 12:14:00 -2.5 C 2.89 g/m*3 -2.5 C 0 km/h
1462 04-01-2004 12:19:00 -2.5 C 2.89 g/m*3 -2.5 C 0 km/h
1463 04-01-2004 12:24:00 -2.5 C 2.89 g/m*3 -2.5 C 0 km/h
1464 04-01-2004 12:29:00 -2.4 C 2.87 g/m*3 -2.4 C 0 km/h
1465 04-01-2004 12:34:01 -2.4 C 2.87 g/m*3 -2.4 C 0 km/h
1466 04-01-2004 12:39:01 -2.4 C 2.87 g/m*3 -2.4 C 0 km/h
1467 04-01-2004 12:44:01 -2.3 C 2.89 g/m*3 -2.3 C 0 km/h
1468 04-01-2004 12:49:01 -2.2 C 2.91 g/m*3 -2.2 C 0 km/h
1469 04-01-2004 12:54:01 -2.2 C 2.91 g/m*3 -2.2 C 0 km/h
1470 04-01-2004 12:59:01 -2.1 C 2.97 g/m*3 -2.1 C 0 km/h
1471 04-01-2004 13:08:01 -2.1 C 2.97 g/m*3 -2.1 C 0 km/h
1472 04-01-2004 13:20:01 -2.2 C 2.95 g/m*3 -2.2 C 0 km/h
1473 04-01-2004 13:32:00 -2.5 C 3.09 g/m*3 -2.5 C 0 km/h
1474 04-01-2004 13:44:00 -2.4 C 3.11 g/m*3 -2.4 C 0 km/h
1475 04-01-2004 13:56:00 -2.3 C 3.1 g/m*3 -2.3 C 0 km/h
Sensor: Nr:Datum:Temp:Abs-Feuchte:Windchill:Wind:
Aussen-T/F 1476 04-01-2004 14:08:58 -2.2 C 3.12 g/m*3 -2.2 C 0 km/h
1477 04-01-2004 14:20:58 -2.1 C 3.14 g/m*3 -2.1 C 0 km/h
1478 04-01-2004 14:32:01 -1.9 C 3.14 g/m*3 -1.9 C 0 km/h
1479 04-01-2004 14:44:01 -1.8 C 3.16 g/m*3 -1.8 C 0 km/h
1480 04-01-2004 14:56:01 -1.6 C 3.21 g/m*3 -1.6 C 0 km/h
1481 04-01-2004 15:08:01 -1.6 C 3.25 g/m*3 -1.6 C 0 km/h
1482 04-01-2004 15:20:01 -1.4 C 3.25 g/m*3 -1.4 C 0 km/h
1483 04-01-2004 15:32:01 -1.4 C 3.25 g/m*3 -1.4 C 0 km/h
1484 04-01-2004 15:44:01 -1.4 C 3.3 g/m*3 -1.4 C 0 km/h
1485 04-01-2004 15:56:01 -1.6 C 3.38 g/m*3 -1.6 C 0 km/h
1486 04-01-2004 16:08:01 -1.5 C 3.45 g/m*3 -1.5 C 0 km/h
1487 04-01-2004 16:20:01 -1.3 C 3.41 g/m*3 -1.3 C 0 km/h
1488 04-01-2004 16:32:00 -1 C 3.39 g/m*3 -1 C 0 km/h
1489 04-01-2004 16:44:00 -1 C 3.39 g/m*3 -1 C 0 km/h
1490 04-01-2004 16:56:00 -1.1 C 3.5 g/m*3 -1.1 C 0 km/h
1491 04-01-2004 17:08:59 -0.9 C 3.55 g/m*3 -0.9 C 0 km/h
1492 04-01-2004 17:20:59 -0.7 C 3.51 g/m*3 -0.7 C 0 km/h
1493 04-01-2004 17:32:01 -0.8 C 3.48 g/m*3 -0.8 C 0 km/h
1494 04-01-2004 17:44:01 -0.8 C 3.48 g/m*3 -0.8 C 0 km/h
1495 04-01-2004 17:56:01 -0.9 C 3.51 g/m*3 -0.9 C 0 km/h
1496 04-01-2004 18:08:01 -0.8 C 3.53 g/m*3 -0.8 C 0 km/h
1497 04-01-2004 18:20:01 -0.9 C 3.55 g/m*3 -0.9 C 0 km/h
1498 04-01-2004 18:32:00 -0.9 C 3.64 g/m*3 -0.9 C 0 km/h
1499 04-01-2004 18:44:00 -0.8 C 3.71 g/m*3 -0.8 C 0 km/h
1500 04-01-2004 18:56:00 -0.6 C 3.67 g/m*3 -0.6 C 0 km/h
Sensor: Nr:Datum:Temp:Abs-Feuchte:Windchill:Wind:
Aussen-T/F 1501 04-01-2004 19:08:59 -0.4 C 3.68 g/m*3 -0.4 C 0 km/h
1502 04-01-2004 19:20:59 -0.4 C 3.68 g/m*3 -0.4 C 0 km/h
1503 04-01-2004 19:32:01 -0.3 C 3.7 g/m*3 -0.3 C 0 km/h
1504 04-01-2004 19:44:01 -0.2 C 3.73 g/m*3 -0.2 C 0 km/h
1505 04-01-2004 19:56:01 -0.1 C 3.75 g/m*3 -0.1 C 0 km/h
1506 04-01-2004 20:08:01 0 C 3.78 g/m*3 0 C 0 km/h
1507 04-01-2004 20:20:01 0 C 3.78 g/m*3 0 C 0 km/h
1508 04-01-2004 20:32:00 0 C 3.78 g/m*3 0 C 0 km/h
1509 04-01-2004 20:44:00 0.1 C 3.81 g/m*3 0.1 C 0 km/h
1510 04-01-2004 20:56:00 0 C 3.73 g/m*3 0 C 0 km/h
1511 04-01-2004 21:08:58 0.1 C 3.76 g/m*3 0.1 C 0 km/h
1512 04-01-2004 21:20:58 0.1 C 3.76 g/m*3 0.1 C 0 km/h
1513 04-01-2004 21:32:01 0.1 C 3.76 g/m*3 0.1 C 0 km/h
1514 04-01-2004 21:44:01 0.1 C 3.81 g/m*3 0.1 C 0 km/h
1515 04-01-2004 21:56:01 0.1 C 3.81 g/m*3 0.1 C 0 km/h
1516 04-01-2004 22:08:01 0.1 C 3.81 g/m*3 0.1 C 0 km/h
1517 04-01-2004 22:20:01 0.2 C 3.78 g/m*3 0.2 C 0 km/h
1518 04-01-2004 22:32:00 0.2 C 3.78 g/m*3 0.2 C 0 km/h
1519 04-01-2004 22:44:00 0.2 C 3.78 g/m*3 0.2 C 0 km/h
1520 04-01-2004 22:56:00 0 C 3.83 g/m*3 0 C 0 km/h
1521 04-01-2004 23:08:58 -0.2 C 3.92 g/m*3 -0.2 C 0 km/h
1522 04-01-2004 23:20:58 0.1 C 3.95 g/m*3 0.1 C 0 km/h
1523 04-01-2004 23:32:01 0.2 C 3.93 g/m*3 0.2 C 0 km/h
1524 04-01-2004 23:44:01 0.2 C 3.98 g/m*3 0.2 C 0 km/h
1525 04-01-2004 23:56:01 0.4 C 3.98 g/m*3 0.4 C 0 km/h
Sensor: Nr:Datum:Temp:Abs-Feuchte:Windchill:Wind:
Aussen-T/F 1526 05-01-2004 00:08:01 0.3 C 3.96 g/m*3 0.3 C 0 km/h
1527 05-01-2004 00:20:01 0.1 C 4 g/m*3 0.1 C 0 km/h
1528 05-01-2004 00:32:00 0.3 C 4.01 g/m*3 0.3 C 0 km/h
1529 05-01-2004 00:44:00 0.3 C 3.96 g/m*3 0.3 C 0 km/h
1530 05-01-2004 00:56:00 0.4 C 3.93 g/m*3 0.4 C 0 km/h
1531 05-01-2004 01:08:59 0.4 C 3.93 g/m*3 0.4 C 0 km/h
1532 05-01-2004 01:20:59 0.4 C 3.93 g/m*3 0.4 C 0 km/h
1533 05-01-2004 01:32:01 0.5 C 3.96 g/m*3 0.5 C 0 km/h
1534 05-01-2004 01:44:01 0.5 C 3.96 g/m*3 0.5 C 0 km/h
1535 05-01-2004 01:56:01 0.5 C 3.96 g/m*3 0.5 C 0 km/h
1536 05-01-2004 02:08:01 0.5 C 3.96 g/m*3 0.5 C 0 km/h
1537 05-01-2004 02:20:01 0.6 C 3.99 g/m*3 0.6 C 0 km/h
1538 05-01-2004 02:32:00 0.6 C 3.99 g/m*3 0.6 C 0 km/h
1539 05-01-2004 02:44:00 0.8 C 3.99 g/m*3 0.8 C 0 km/h
1540 05-01-2004 02:56:00 0.9 C 4.02 g/m*3 0.9 C 0 km/h
1541 05-01-2004 03:09:01 1 C 4 g/m*3 1 C 0 km/h
1542 05-01-2004 03:21:01 1 C 4.05 g/m*3 1 C 0 km/h
1543 05-01-2004 03:33:00 1.1 C 4.08 g/m*3 1.1 C 0 km/h
1544 05-01-2004 03:45:00 1.3 C 4.13 g/m*3 1.3 C 0 km/h
1545 05-01-2004 03:57:00 1.3 C 4.13 g/m*3 1.3 C 0 km/h
1546 05-01-2004 04:09:01 1 C 4.1 g/m*3 1 C 0 km/h
1547 05-01-2004 04:21:01 0.9 C 4.18 g/m*3 0.9 C 0 km/h
1548 05-01-2004 04:33:00 0.8 C 4.2 g/m*3 0.8 C 0 km/h
1549 05-01-2004 04:45:00 0.8 C 4.25 g/m*3 0.8 C 0 km/h
1550 05-01-2004 04:57:01 0.7 C 4.22 g/m*3 0.7 C 0 km/h
Sensor: Nr:Datum:Temp:Abs-Feuchte:Windchill:Wind:
Aussen-T/F 1551 05-01-2004 05:09:01 0.7 C 4.27 g/m*3 0.7 C 0 km/h
1552 05-01-2004 05:21:01 0.9 C 4.33 g/m*3 0.9 C 0 km/h
1553 05-01-2004 05:33:00 0.8 C 4.3 g/m*3 0.8 C 0 km/h
1554 05-01-2004 05:45:00 0.9 C 4.33 g/m*3 0.9 C 0 km/h
1555 05-01-2004 05:57:00 0.8 C 4.3 g/m*3 0.8 C 0 km/h
1556 05-01-2004 06:09:01 0.8 C 4.35 g/m*3 0.8 C 0 km/h
1557 05-01-2004 06:21:01 0.8 C 4.35 g/m*3 0.8 C 0 km/h
1558 05-01-2004 06:33:00 0.8 C 4.4 g/m*3 0.8 C 0 km/h
1559 05-01-2004 06:45:00 0.8 C 4.4 g/m*3 0.8 C 0 km/h
1560 05-01-2004 06:57:00 0.9 C 4.43 g/m*3 0.9 C 0 km/h
1561 05-01-2004 07:09:00 0.9 C 4.43 g/m*3 0.9 C 0 km/h
1562 05-01-2004 07:21:00 1 C 4.41 g/m*3 1 C 0 km/h
1563 05-01-2004 07:33:00 0.9 C 4.43 g/m*3 0.9 C 0 km/h
1564 05-01-2004 07:45:01 0.9 C 4.43 g/m*3 0.9 C 0 km/h
1565 05-01-2004 07:57:01 0.9 C 4.48 g/m*3 0.9 C 0 km/h
1566 05-01-2004 08:09:00 0.9 C 4.48 g/m*3 0.9 C 0 km/h
1567 05-01-2004 08:21:00 1 C 4.46 g/m*3 1 C 0 km/h
1568 05-01-2004 08:33:01 1.1 C 4.49 g/m*3 1.1 C 0 km/h
1569 05-01-2004 08:45:01 1 C 4.46 g/m*3 1 C 0 km/h
1570 05-01-2004 08:57:01 1 C 4.41 g/m*3 1 C 0 km/h
1571 05-01-2004 09:09:00 0.9 C 4.43 g/m*3 0.9 C 0 km/h
1572 05-01-2004 09:21:00 0.9 C 4.48 g/m*3 0.9 C 0 km/h
1573 05-01-2004 09:33:01 0.9 C 4.48 g/m*3 0.9 C 0 km/h
1574 05-01-2004 09:45:01 0.8 C 4.45 g/m*3 0.8 C 0 km/h
1575 05-01-2004 09:57:01 0.9 C 4.48 g/m*3 0.9 C 0 km/h
Sensor: Nr:Datum:Temp:Abs-Feuchte:Windchill:Wind:
Aussen-T/F 1576 05-01-2004 10:09:00 1 C 4.52 g/m*3 1 C 0 km/h
1577 05-01-2004 10:21:00 1 C 4.52 g/m*3 1 C 0 km/h
1578 05-01-2004 10:33:01 1 C 4.52 g/m*3 1 C 0 km/h
1579 05-01-2004 10:45:01 1 C 4.52 g/m*3 1 C 0 km/h
1580 05-01-2004 10:57:01 1 C 4.52 g/m*3 1 C 0 km/h
1581 05-01-2004 11:09:00 1 C 4.46 g/m*3 1 C 0 km/h
1582 05-01-2004 11:21:00 1.1 C 4.49 g/m*3 1.1 C 0 km/h
1583 05-01-2004 11:33:00 1.3 C 4.56 g/m*3 1.3 C 0 km/h
1584 05-01-2004 11:45:00 1.2 C 4.47 g/m*3 1.2 C 0 km/h
1585 05-01-2004 11:57:00 1.3 C 4.5 g/m*3 1.3 C 0 km/h
1586 05-01-2004 12:09:01 1.4 C 4.48 g/m*3 1.4 C 0 km/h
1587 05-01-2004 12:21:01 1.5 C 4.51 g/m*3 1.5 C 0 km/h
1588 05-01-2004 12:33:00 1.5 C 4.46 g/m*3 1.5 C 0 km/h
1589 05-01-2004 12:45:00 1.6 C 4.43 g/m*3 1.6 C 0 km/h
1590 05-01-2004 12:57:00 1.8 C 4.44 g/m*3 1.8 C 0 km/h
1591 05-01-2004 13:09:01 2 C 4.39 g/m*3 2 C 0 km/h
1592 05-01-2004 13:21:01 2.1 C 4.42 g/m*3 2.1 C 0 km/h
1593 05-01-2004 13:33:00 2.1 C 4.36 g/m*3 2.1 C 0 km/h
1594 05-01-2004 13:45:00 2 C 4.39 g/m*3 2 C 0 km/h
1595 05-01-2004 13:57:00 2 C 4.39 g/m*3 2 C 0 km/h
1596 05-01-2004 14:09:01 2 C 4.33 g/m*3 2 C 0 km/h
1597 05-01-2004 14:21:01 1.9 C 4.36 g/m*3 1.9 C 0 km/h
1598 05-01-2004 14:33:00 1.9 C 4.36 g/m*3 1.9 C 0 km/h
1599 05-01-2004 14:45:00 1.9 C 4.36 g/m*3 1.9 C 0 km/h
1600 05-01-2004 14:57:00 1.9 C 4.42 g/m*3 1.9 C 0 km/h
Sensor: Nr:Datum:Temp:Abs-Feuchte:Windchill:Wind:
Aussen-T/F 1601 05-01-2004 15:09:00 1.8 C 4.39 g/m*3 1.8 C 0 km/h
1602 05-01-2004 15:21:00 1.8 C 4.44 g/m*3 1.8 C 0 km/h
1603 05-01-2004 15:33:00 1.8 C 4.39 g/m*3 1.8 C 0 km/h
1604 05-01-2004 15:45:00 1.7 C 4.41 g/m*3 1.7 C 0 km/h
1605 05-01-2004 15:57:01 1.7 C 4.41 g/m*3 1.7 C 0 km/h
1606 05-01-2004 16:09:00 1.7 C 4.41 g/m*3 1.7 C 0 km/h
1607 05-01-2004 16:21:00 1.7 C 4.41 g/m*3 1.7 C 0 km/h
1608 05-01-2004 16:33:01 1.7 C 4.41 g/m*3 1.7 C 0 km/h
1609 05-01-2004 16:45:01 1.6 C 4.38 g/m*3 1.6 C 0 km/h
1610 05-01-2004 16:57:01 1.5 C 4.4 g/m*3 1.5 C 0 km/h
1611 05-01-2004 17:09:00 1.5 C 4.4 g/m*3 1.5 C 0 km/h
1612 05-01-2004 17:21:00 1.5 C 4.4 g/m*3 1.5 C 0 km/h
1613 05-01-2004 17:33:01 1.4 C 4.43 g/m*3 1.4 C 0 km/h
1614 05-01-2004 17:45:01 1.4 C 4.43 g/m*3 1.4 C 0 km/h
1615 05-01-2004 17:57:01 1.4 C 4.43 g/m*3 1.4 C 0 km/h
1616 05-01-2004 18:09:00 1.4 C 4.48 g/m*3 1.4 C 0 km/h
1617 05-01-2004 18:21:00 1.4 C 4.48 g/m*3 1.4 C 0 km/h
1618 05-01-2004 18:33:01 1.4 C 4.48 g/m*3 1.4 C 0 km/h
1619 05-01-2004 18:45:01 1.3 C 4.45 g/m*3 1.3 C 0 km/h
1620 05-01-2004 18:57:01 1.3 C 4.45 g/m*3 1.3 C 0 km/h
1621 05-01-2004 19:09:00 1.3 C 4.45 g/m*3 1.3 C 0 km/h
1622 05-01-2004 19:21:00 1.1 C 4.44 g/m*3 1.1 C 0 km/h
1623 05-01-2004 19:34:01 1.1 C 4.44 g/m*3 1.1 C 0 km/h
1624 05-01-2004 19:46:01 1.1 C 4.44 g/m*3 1.1 C 0 km/h
1625 05-01-2004 19:58:01 1.1 C 4.44 g/m*3 1.1 C 0 km/h
Sensor: Nr:Datum:Temp:Abs-Feuchte:Windchill:Wind:
Aussen-T/F 1626 05-01-2004 20:10:00 1.1 C 4.44 g/m*3 1.1 C 0 km/h
1627 05-01-2004 20:22:00 1.1 C 4.49 g/m*3 1.1 C 0 km/h
1628 05-01-2004 20:34:00 1.1 C 4.49 g/m*3 1.1 C 0 km/h
1629 05-01-2004 20:46:00 1.1 C 4.49 g/m*3 1.1 C 0 km/h
1630 05-01-2004 20:58:00 1.1 C 4.49 g/m*3 1.1 C 0 km/h
1631 05-01-2004 21:07:01 1.1 C 4.49 g/m*3 1.1 C 0 km/h
1632 05-01-2004 21:19:01 1.2 C 4.58 g/m*3 1.2 C 0 km/h
1633 05-01-2004 21:31:01 1.2 C 4.58 g/m*3 1.2 C 0 km/h
1634 05-01-2004 21:43:00 1.2 C 4.58 g/m*3 1.2 C 0 km/h
1635 05-01-2004 21:55:00 1.2 C 4.58 g/m*3 1.2 C 0 km/h
1636 05-01-2004 22:07:01 1.2 C 4.58 g/m*3 1.2 C 0 km/h
1637 05-01-2004 22:19:01 1.3 C 4.61 g/m*3 1.3 C 0 km/h
1638 05-01-2004 22:31:01 1.3 C 4.61 g/m*3 1.3 C 0 km/h
1639 05-01-2004 22:43:00 1.3 C 4.61 g/m*3 1.3 C 0 km/h
1640 05-01-2004 22:55:00 1.3 C 4.61 g/m*3 1.3 C 0 km/h
1641 05-01-2004 23:07:01 1.3 C 4.61 g/m*3 1.3 C 0 km/h
1642 05-01-2004 23:19:01 1.4 C 4.64 g/m*3 1.4 C 0 km/h
1643 05-01-2004 23:31:01 1.4 C 4.64 g/m*3 1.4 C 0 km/h
1644 05-01-2004 23:43:00 1.4 C 4.64 g/m*3 1.4 C 0 km/h
1645 05-01-2004 23:55:00 1.4 C 4.64 g/m*3 1.4 C 0 km/h
1646 06-01-2004 00:07:01 1.4 C 4.64 g/m*3 1.4 C 0 km/h
1647 06-01-2004 00:19:01 1.5 C 4.73 g/m*3 1.5 C 0 km/h
1648 06-01-2004 00:31:01 1.5 C 4.73 g/m*3 1.5 C 0 km/h
1649 06-01-2004 00:43:00 1.6 C 4.76 g/m*3 1.6 C 0 km/h
1650 06-01-2004 00:55:00 1.6 C 4.7 g/m*3 1.6 C 0 km/h
Sensor: Nr:Datum:Temp:Abs-Feuchte:Windchill:Wind:
Aussen-T/F 1651 06-01-2004 01:07:00 1.5 C 4.67 g/m*3 1.5 C 0 km/h
1652 06-01-2004 01:19:00 1.5 C 4.67 g/m*3 1.5 C 0 km/h
1653 06-01-2004 01:31:00 1.5 C 4.73 g/m*3 1.5 C 0 km/h
1654 06-01-2004 01:43:00 1.5 C 4.73 g/m*3 1.5 C 0 km/h
1655 06-01-2004 01:55:01 1.4 C 4.69 g/m*3 1.4 C 0 km/h
1656 06-01-2004 02:07:00 1.4 C 4.69 g/m*3 1.4 C 0 km/h
1657 06-01-2004 02:19:00 1.4 C 4.69 g/m*3 1.4 C 0 km/h
1658 06-01-2004 02:31:00 1.5 C 4.73 g/m*3 1.5 C 0 km/h
1659 06-01-2004 02:43:01 1.5 C 4.73 g/m*3 1.5 C 0 km/h
1660 06-01-2004 02:55:01 1.5 C 4.73 g/m*3 1.5 C 0 km/h
1661 06-01-2004 03:07:00 1.5 C 4.73 g/m*3 1.5 C 0 km/h
1662 06-01-2004 03:19:00 1.5 C 4.73 g/m*3 1.5 C 0 km/h
1663 06-01-2004 03:31:00 1.6 C 4.76 g/m*3 1.6 C 0 km/h
1664 06-01-2004 03:43:01 1.6 C 4.76 g/m*3 1.6 C 0 km/h
1665 06-01-2004 03:55:01 1.6 C 4.76 g/m*3 1.6 C 0 km/h
1666 06-01-2004 04:07:00 1.6 C 4.76 g/m*3 1.6 C 0 km/h
1667 06-01-2004 04:19:00 1.5 C 4.73 g/m*3 1.5 C 0 km/h
1668 06-01-2004 04:31:00 1.6 C 4.76 g/m*3 1.6 C 0 km/h
1669 06-01-2004 04:43:01 1.5 C 4.73 g/m*3 1.5 C 0 km/h
1670 06-01-2004 04:55:01 1.6 C 4.76 g/m*3 1.6 C 0 km/h
1671 06-01-2004 05:07:00 1.6 C 4.76 g/m*3 1.6 C 0 km/h
1672 06-01-2004 05:19:00 1.6 C 4.76 g/m*3 1.6 C 0 km/h
1673 06-01-2004 05:31:00 1.6 C 4.76 g/m*3 1.6 C 0 km/h
1674 06-01-2004 05:43:00 1.6 C 4.76 g/m*3 1.6 C 0 km/h
1675 06-01-2004 05:55:00 1.6 C 4.76 g/m*3 1.6 C 0 km/h
Sensor: Nr:Datum:Temp:Abs-Feuchte:Windchill:Wind:
Aussen-T/F 1676 06-01-2004 06:07:00 1.6 C 4.76 g/m*3 1.6 C 0 km/h
1677 06-01-2004 06:19:00 1.6 C 4.76 g/m*3 1.6 C 0 km/h
1678 06-01-2004 06:31:01 1.6 C 4.76 g/m*3 1.6 C 0 km/h
1679 06-01-2004 06:43:00 1.6 C 4.76 g/m*3 1.6 C 0 km/h
1680 06-01-2004 06:55:00 1.6 C 4.76 g/m*3 1.6 C 0 km/h
1681 06-01-2004 07:07:01 1.7 C 4.79 g/m*3 1.7 C 0 km/h
1682 06-01-2004 07:19:01 1.6 C 4.76 g/m*3 1.6 C 0 km/h
1683 06-01-2004 07:31:01 1.6 C 4.76 g/m*3 1.6 C 0 km/h
1684 06-01-2004 07:43:00 1.6 C 4.76 g/m*3 1.6 C 0 km/h
1685 06-01-2004 07:55:00 1.6 C 4.76 g/m*3 1.6 C 0 km/h
1686 06-01-2004 08:07:01 1.7 C 4.85 g/m*3 1.7 C 0 km/h
1687 06-01-2004 08:19:01 1.7 C 4.85 g/m*3 1.7 C 0 km/h
1688 06-01-2004 08:31:01 1.8 C 4.88 g/m*3 1.8 C 0 km/h
1689 06-01-2004 08:43:00 1.8 C 4.88 g/m*3 1.8 C 0 km/h
1690 06-01-2004 08:55:00 1.8 C 4.88 g/m*3 1.8 C 0 km/h
1691 06-01-2004 09:07:01 1.9 C 4.91 g/m*3 1.9 C 0 km/h
1692 06-01-2004 09:19:01 2 C 4.95 g/m*3 2 C 0 km/h
1693 06-01-2004 09:31:01 2.1 C 4.98 g/m*3 2.1 C 0 km/h
1694 06-01-2004 09:43:00 2.1 C 4.98 g/m*3 2.1 C 0 km/h
1695 06-01-2004 09:55:00 2.2 C 5.01 g/m*3 2.2 C 0 km/h
1696 06-01-2004 10:07:01 2.3 C 5.05 g/m*3 2.3 C 0 km/h
1697 06-01-2004 10:19:01 2.3 C 5.05 g/m*3 2.3 C 0 km/h
1698 06-01-2004 10:31:01 2.5 C 5.12 g/m*3 2.5 C 0 km/h
1699 06-01-2004 10:43:00 2.6 C 5.15 g/m*3 2.6 C 0 km/h
1700 06-01-2004 10:55:00 2.7 C 5.19 g/m*3 2.7 C 0 km/h
Sensor: Nr:Datum:Temp:Abs-Feuchte:Windchill:Wind:
Aussen-T/F 1701 06-01-2004 11:07:00 2.9 C 5.26 g/m*3 2.9 C 0 km/h
1702 06-01-2004 11:19:00 3.2 C 5.36 g/m*3 3.2 C 0 km/h
1703 06-01-2004 11:31:00 3.3 C 5.4 g/m*3 3.3 C 0 km/h
1704 06-01-2004 11:43:00 3.4 C 5.37 g/m*3 3.4 C 0 km/h
1705 06-01-2004 11:55:01 3.4 C 5.37 g/m*3 3.4 C 0 km/h
1706 06-01-2004 12:08:00 3.6 C 5.39 g/m*3 3.6 C 0 km/h
1707 06-01-2004 12:20:00 3.8 C 5.46 g/m*3 3.8 C 0 km/h
1708 06-01-2004 12:32:01 3.9 C 5.43 g/m*3 3.9 C 0 km/h
1709 06-01-2004 12:44:01 3.9 C 5.43 g/m*3 3.9 C 0 km/h
1710 06-01-2004 12:56:01 4 C 5.4 g/m*3 4 C 0 km/h
1711 06-01-2004 13:08:00 4 C 5.4 g/m*3 4 C 0 km/h
1712 06-01-2004 13:20:00 4.1 C 5.44 g/m*3 4.1 C 0 km/h
1713 06-01-2004 13:32:01 4.2 C 5.48 g/m*3 4.2 C 0 km/h
1714 06-01-2004 13:44:01 4.2 C 5.41 g/m*3 4.2 C 0 km/h
1715 06-01-2004 13:56:01 4.2 C 5.41 g/m*3 4.2 C 0 km/h
1716 06-01-2004 14:08:00 4.1 C 5.44 g/m*3 4.1 C 0 km/h
1717 06-01-2004 14:20:00 4 C 5.4 g/m*3 4 C 0 km/h
1718 06-01-2004 14:32:00 3.7 C 5.42 g/m*3 3.7 C 0 km/h
1719 06-01-2004 14:44:00 3.6 C 5.39 g/m*3 3.6 C 0 km/h
1720 06-01-2004 14:56:00 3.4 C 5.31 g/m*3 3.4 C 0 km/h
1721 06-01-2004 15:08:00 3.4 C 5.37 g/m*3 3.4 C 0 km/h
1722 06-01-2004 15:20:00 3.5 C 5.41 g/m*3 3.5 C 0 km/h
1723 06-01-2004 15:32:00 3.6 C 5.51 g/m*3 3.6 C 0 km/h
1724 06-01-2004 15:44:00 3.7 C 5.55 g/m*3 3.7 C 0 km/h
1725 06-01-2004 15:56:00 3.6 C 5.51 g/m*3 3.6 C 0 km/h
Sensor: Nr:Datum:Temp:Abs-Feuchte:Windchill:Wind:
Aussen-T/F 1726 06-01-2004 16:08:01 3.5 C 5.47 g/m*3 3.5 C 0 km/h
1727 06-01-2004 16:20:01 3.4 C 5.44 g/m*3 3.4 C 0 km/h
1728 06-01-2004 16:32:00 3.4 C 5.44 g/m*3 3.4 C 0 km/h
1729 06-01-2004 16:44:00 3.6 C 5.51 g/m*3 3.6 C 0 km/h
1730 06-01-2004 16:56:00 3.6 C 5.51 g/m*3 3.6 C 0 km/h
1731 06-01-2004 17:08:01 3.6 C 5.51 g/m*3 3.6 C 0 km/h
1732 06-01-2004 17:20:01 3.5 C 5.47 g/m*3 3.5 C 0 km/h
1733 06-01-2004 17:32:01 3.7 C 5.61 g/m*3 3.7 C 0 km/h
1734 06-01-2004 17:44:01 4 C 5.66 g/m*3 4 C 0 km/h
1735 06-01-2004 17:56:01 4 C 5.59 g/m*3 4 C 0 km/h
1736 06-01-2004 18:08:01 4 C 5.59 g/m*3 4 C 0 km/h
1737 06-01-2004 18:20:00 4.1 C 5.57 g/m*3 4.1 C 0 km/h
1738 06-01-2004 18:32:00 4.2 C 5.61 g/m*3 4.2 C 0 km/h
1739 06-01-2004 18:44:00 4.4 C 5.62 g/m*3 4.4 C 0 km/h
1740 06-01-2004 18:56:00 4.3 C 5.58 g/m*3 4.3 C 0 km/h
1741 06-01-2004 19:08:01 4.3 C 5.58 g/m*3 4.3 C 0 km/h
1742 06-01-2004 19:20:01 4.4 C 5.62 g/m*3 4.4 C 0 km/h
1743 06-01-2004 19:32:00 4.4 C 5.55 g/m*3 4.4 C 0 km/h
1744 06-01-2004 19:44:00 4.4 C 5.55 g/m*3 4.4 C 0 km/h
1745 06-01-2004 19:56:00 4.4 C 5.55 g/m*3 4.4 C 0 km/h
1746 06-01-2004 20:08:01 4.4 C 5.48 g/m*3 4.4 C 0 km/h
1747 06-01-2004 20:20:01 4.4 C 5.48 g/m*3 4.4 C 0 km/h
1748 06-01-2004 20:32:01 4.5 C 5.52 g/m*3 4.5 C 0 km/h
1749 06-01-2004 20:44:01 4.5 C 5.52 g/m*3 4.5 C 0 km/h
1750 06-01-2004 20:56:01 4.5 C 5.52 g/m*3 4.5 C 0 km/h
Sensor: Nr:Datum:Temp:Abs-Feuchte:Windchill:Wind:
Aussen-T/F 1751 06-01-2004 21:08:00 4.5 C 5.46 g/m*3 4.5 C 0 km/h
1752 06-01-2004 21:20:00 4.7 C 5.53 g/m*3 4.7 C 0 km/h
1753 06-01-2004 21:32:01 4.7 C 5.53 g/m*3 4.7 C 0 km/h
1754 06-01-2004 21:44:01 4.8 C 5.57 g/m*3 4.8 C 0 km/h
1755 06-01-2004 21:56:01 5 C 5.57 g/m*3 5 C 0 km/h
1756 06-01-2004 22:08:00 4.9 C 5.6 g/m*3 4.9 C 0 km/h
1757 06-01-2004 22:20:00 4.8 C 5.57 g/m*3 4.8 C 0 km/h
1758 06-01-2004 22:32:01 4.8 C 5.57 g/m*3 4.8 C 0 km/h
1759 06-01-2004 22:44:01 4.8 C 5.57 g/m*3 4.8 C 0 km/h
1760 06-01-2004 22:56:01 4.8 C 5.57 g/m*3 4.8 C 0 km/h
1761 06-01-2004 23:08:00 4.8 C 5.57 g/m*3 4.8 C 0 km/h
1762 06-01-2004 23:20:00 4.8 C 5.57 g/m*3 4.8 C 0 km/h
1763 06-01-2004 23:32:01 4.8 C 5.57 g/m*3 4.8 C 0 km/h
1764 06-01-2004 23:44:01 4.6 C 5.49 g/m*3 4.6 C 0 km/h
1765 06-01-2004 23:56:01 4.6 C 5.56 g/m*3 4.6 C 0 km/h
1766 07-01-2004 00:08:00 4.5 C 5.52 g/m*3 4.5 C 0 km/h
1767 07-01-2004 00:20:00 4.5 C 5.52 g/m*3 4.5 C 0 km/h
1768 07-01-2004 00:32:01 4.5 C 5.59 g/m*3 4.5 C 0 km/h
1769 07-01-2004 00:44:01 4.6 C 5.56 g/m*3 4.6 C 0 km/h
1770 07-01-2004 00:56:01 4.7 C 5.6 g/m*3 4.7 C 0 km/h
1771 07-01-2004 01:06:17 4.8 C 5.63 g/m*3 4.8 C 0 km/h
1772 07-01-2004 01:18:17 4.9 C 5.67 g/m*3 4.9 C 0 km/h
1773 07-01-2004 01:30:47 4.9 C 5.67 g/m*3 4.9 C 0 km/h
1774 07-01-2004 01:42:47 4.8 C 5.63 g/m*3 4.8 C 0 km/h
1775 07-01-2004 01:54:47 4.6 C 5.56 g/m*3 4.6 C 0 km/h
Sensor: Nr:Datum:Temp:Abs-Feuchte:Windchill:Wind:
Aussen-T/F 1776 07-01-2004 02:06:00 4.6 C 5.56 g/m*3 4.6 C 0 km/h
1777 07-01-2004 02:18:00 4.6 C 5.56 g/m*3 4.6 C 0 km/h
1778 07-01-2004 02:30:00 4.7 C 5.6 g/m*3 4.7 C 0 km/h
1779 07-01-2004 02:42:01 4.6 C 5.56 g/m*3 4.6 C 0 km/h
1780 07-01-2004 02:54:01 4.5 C 5.52 g/m*3 4.5 C 0 km/h
1781 07-01-2004 03:06:00 4.4 C 5.48 g/m*3 4.4 C 0 km/h
1782 07-01-2004 03:18:00 4.2 C 5.41 g/m*3 4.2 C 0 km/h
1783 07-01-2004 03:30:00 4.1 C 5.44 g/m*3 4.1 C 0 km/h
1784 07-01-2004 03:42:00 4.3 C 5.51 g/m*3 4.3 C 0 km/h
1785 07-01-2004 03:54:00 4.3 C 5.51 g/m*3 4.3 C 0 km/h
1786 07-01-2004 04:06:00 4.2 C 5.48 g/m*3 4.2 C 0 km/h
1787 07-01-2004 04:18:00 4.1 C 5.44 g/m*3 4.1 C 0 km/h
1788 07-01-2004 04:30:00 4.1 C 5.5 g/m*3 4.1 C 0 km/h
1789 07-01-2004 04:42:01 4.2 C 5.54 g/m*3 4.2 C 0 km/h
1790 07-01-2004 04:54:01 4.4 C 5.62 g/m*3 4.4 C 0 km/h
1791 07-01-2004 05:06:00 4.5 C 5.59 g/m*3 4.5 C 0 km/h
1792 07-01-2004 05:18:00 4.6 C 5.62 g/m*3 4.6 C 0 km/h
1793 07-01-2004 05:30:01 4.7 C 5.66 g/m*3 4.7 C 0 km/h
1794 07-01-2004 05:42:00 4.9 C 5.67 g/m*3 4.9 C 0 km/h
1795 07-01-2004 05:54:00 5 C 5.64 g/m*3 5 C 0 km/h
1796 07-01-2004 06:06:00 5.1 C 5.61 g/m*3 5.1 C 0 km/h
1797 07-01-2004 06:18:00 5.2 C 5.58 g/m*3 5.2 C 0 km/h
1798 07-01-2004 06:30:00 5.1 C 5.54 g/m*3 5.1 C 0 km/h
1799 07-01-2004 06:42:01 5.1 C 5.54 g/m*3 5.1 C 0 km/h
1800 07-01-2004 06:54:01 5 C 5.5 g/m*3 5 C 0 km/h
Sensor: Nr:Datum:Temp:Abs-Feuchte:Windchill:Wind:
Aussen-T/F 1801 07-01-2004 07:06:01 5 C 5.5 g/m*3 5 C 0 km/h
1802 07-01-2004 07:18:01 4.9 C 5.6 g/m*3 4.9 C 0 km/h
1803 07-01-2004 07:30:01 4.8 C 5.57 g/m*3 4.8 C 0 km/h
1804 07-01-2004 07:42:00 4.9 C 5.6 g/m*3 4.9 C 0 km/h
1805 07-01-2004 07:54:00 5 C 5.57 g/m*3 5 C 0 km/h
1806 07-01-2004 08:06:00 5.1 C 5.54 g/m*3 5.1 C 0 km/h
1807 07-01-2004 08:18:00 5 C 5.5 g/m*3 5 C 0 km/h
1808 07-01-2004 08:30:00 5.2 C 5.58 g/m*3 5.2 C 0 km/h
1809 07-01-2004 08:42:00 5.2 C 5.58 g/m*3 5.2 C 0 km/h
1810 07-01-2004 08:54:00 5.2 C 5.58 g/m*3 5.2 C 0 km/h
1811 07-01-2004 09:06:01 5.1 C 5.54 g/m*3 5.1 C 0 km/h
1812 07-01-2004 09:18:01 5.1 C 5.54 g/m*3 5.1 C 0 km/h
1813 07-01-2004 09:30:01 5.1 C 5.54 g/m*3 5.1 C 0 km/h
1814 07-01-2004 09:42:01 5.1 C 5.61 g/m*3 5.1 C 0 km/h
1815 07-01-2004 09:54:01 5.3 C 5.68 g/m*3 5.3 C 0 km/h
1816 07-01-2004 10:06:00 5.6 C 5.8 g/m*3 5.6 C 0 km/h
1817 07-01-2004 10:18:00 5.9 C 5.84 g/m*3 5.9 C 0 km/h
1818 07-01-2004 10:30:00 5.7 C 5.69 g/m*3 5.7 C 0 km/h
1819 07-01-2004 10:42:00 5.6 C 5.73 g/m*3 5.6 C 0 km/h
1820 07-01-2004 10:54:00 5.6 C 5.73 g/m*3 5.6 C 0 km/h
1821 07-01-2004 11:06:00 5.4 C 5.65 g/m*3 5.4 C 0 km/h
1822 07-01-2004 11:18:00 5.5 C 5.76 g/m*3 5.5 C 0 km/h
1823 07-01-2004 11:30:00 6.1 C 5.92 g/m*3 6.1 C 0 km/h
1824 07-01-2004 11:42:01 6.6 C 5.89 g/m*3 6.6 C 0 km/h
1825 07-01-2004 11:54:01 6.6 C 5.89 g/m*3 6.6 C 0 km/h
Sensor: Nr:Datum:Temp:Abs-Feuchte:Windchill:Wind:
Aussen-T/F 1826 07-01-2004 12:06:01 6.7 C 5.85 g/m*3 6.7 C 0 km/h
1827 07-01-2004 12:18:01 6.7 C 5.85 g/m*3 6.7 C 0 km/h
1828 07-01-2004 12:30:01 6.7 C 5.85 g/m*3 6.7 C 0 km/h
1829 07-01-2004 12:42:00 6.7 C 5.85 g/m*3 6.7 C 0 km/h
1830 07-01-2004 12:54:00 6.6 C 5.89 g/m*3 6.6 C 0 km/h
1831 07-01-2004 13:06:00 6.8 C 5.97 g/m*3 6.8 C 0 km/h
1832 07-01-2004 13:18:00 7 C 5.89 g/m*3 7 C 0 km/h
1833 07-01-2004 13:30:00 6.9 C 6 g/m*3 6.9 C 0 km/h
1834 07-01-2004 13:42:00 6.9 C 6 g/m*3 6.9 C 0 km/h
1835 07-01-2004 13:54:00 7.2 C 6.04 g/m*3 7.2 C 0 km/h
1836 07-01-2004 14:06:01 7.4 C 6.04 g/m*3 7.4 C 0 km/h
1837 07-01-2004 14:18:01 7.4 C 5.96 g/m*3 7.4 C 0 km/h
1838 07-01-2004 14:30:01 7.5 C 6 g/m*3 7.5 C 0 km/h
1839 07-01-2004 14:42:00 7.6 C 6.04 g/m*3 7.6 C 0 km/h
1840 07-01-2004 14:54:00 7.6 C 6.04 g/m*3 7.6 C 0 km/h
1841 07-01-2004 15:06:00 7.6 C 5.96 g/m*3 7.6 C 0 km/h
1842 07-01-2004 15:18:00 7.5 C 6 g/m*3 7.5 C 0 km/h
1843 07-01-2004 15:30:00 7.3 C 6 g/m*3 7.3 C 0 km/h
1844 07-01-2004 15:42:00 7.2 C 5.97 g/m*3 7.2 C 0 km/h
1845 07-01-2004 15:54:00 7 C 5.89 g/m*3 7 C 0 km/h
1846 07-01-2004 16:06:01 7 C 5.89 g/m*3 7 C 0 km/h
1847 07-01-2004 16:18:01 7 C 5.97 g/m*3 7 C 0 km/h
1848 07-01-2004 16:30:01 6.9 C 6 g/m*3 6.9 C 0 km/h
1849 07-01-2004 16:42:01 6.8 C 6.04 g/m*3 6.8 C 0 km/h
1850 07-01-2004 16:54:01 6.8 C 6.04 g/m*3 6.8 C 0 km/h
Sensor: Nr:Datum:Temp:Abs-Feuchte:Windchill:Wind:
Aussen-T/F 1851 07-01-2004 17:06:00 6.7 C 6 g/m*3 6.7 C 0 km/h
1852 07-01-2004 17:18:00 6.5 C 5.92 g/m*3 6.5 C 0 km/h
1853 07-01-2004 17:30:00 6.5 C 6 g/m*3 6.5 C 0 km/h
1854 07-01-2004 17:42:46 6.3 C 5.92 g/m*3 6.3 C 0 km/h
1855 07-01-2004 17:57:00 6.3 C 5.92 g/m*3 6.3 C 0 km/h
1856 07-01-2004 18:09:00 6.3 C 5.92 g/m*3 6.3 C 0 km/h
1857 07-01-2004 18:21:57 6.2 C 5.88 g/m*3 6.2 C 0 km/h
1858 07-01-2004 18:33:57 6.2 C 5.96 g/m*3 6.2 C 0 km/h
1859 07-01-2004 18:45:01 6.2 C 5.96 g/m*3 6.2 C 0 km/h
1860 07-01-2004 18:57:01 6.1 C 5.92 g/m*3 6.1 C 0 km/h
1861 07-01-2004 19:09:01 6.1 C 5.92 g/m*3 6.1 C 0 km/h
1862 07-01-2004 19:21:01 6 C 5.88 g/m*3 6 C 0 km/h
1863 07-01-2004 19:33:00 6.1 C 5.92 g/m*3 6.1 C 0 km/h
1864 07-01-2004 19:45:00 6.1 C 5.92 g/m*3 6.1 C 0 km/h
1865 07-01-2004 19:57:00 6.2 C 5.88 g/m*3 6.2 C 0 km/h
1866 07-01-2004 20:09:59 6.2 C 5.81 g/m*3 6.2 C 0 km/h
1867 07-01-2004 20:21:59 6.2 C 5.81 g/m*3 6.2 C 0 km/h
1868 07-01-2004 20:33:01 6.2 C 5.81 g/m*3 6.2 C 0 km/h
1869 07-01-2004 20:45:01 6.2 C 5.81 g/m*3 6.2 C 0 km/h
1870 07-01-2004 20:57:01 6 C 5.73 g/m*3 6 C 0 km/h
1871 07-01-2004 21:09:00 5.8 C 5.73 g/m*3 5.8 C 0 km/h
1872 07-01-2004 21:21:00 5.6 C 5.66 g/m*3 5.6 C 0 km/h
1873 07-01-2004 21:33:01 5.6 C 5.66 g/m*3 5.6 C 0 km/h
1874 07-01-2004 21:45:01 5.6 C 5.73 g/m*3 5.6 C 0 km/h
1875 07-01-2004 21:57:01 5.6 C 5.73 g/m*3 5.6 C 0 km/h
Sensor: Nr:Datum:Temp:Abs-Feuchte:Windchill:Wind:
Aussen-T/F 1876 07-01-2004 22:09:01 5.6 C 5.73 g/m*3 5.6 C 0 km/h
1877 07-01-2004 22:21:01 5.5 C 5.69 g/m*3 5.5 C 0 km/h
1878 07-01-2004 22:33:00 5.4 C 5.58 g/m*3 5.4 C 0 km/h
1879 07-01-2004 22:45:00 5.4 C 5.65 g/m*3 5.4 C 0 km/h
1880 07-01-2004 22:57:00 5.4 C 5.58 g/m*3 5.4 C 0 km/h
1881 07-01-2004 23:09:59 5.4 C 5.58 g/m*3 5.4 C 0 km/h
1882 07-01-2004 23:21:59 5.4 C 5.58 g/m*3 5.4 C 0 km/h
1883 07-01-2004 23:33:01 5.4 C 5.58 g/m*3 5.4 C 0 km/h
1884 07-01-2004 23:45:01 5.4 C 5.51 g/m*3 5.4 C 0 km/h
1885 07-01-2004 23:57:01 5.4 C 5.51 g/m*3 5.4 C 0 km/h
1886 08-01-2004 00:09:01 5.3 C 5.48 g/m*3 5.3 C 0 km/h
1887 08-01-2004 00:21:01 5.2 C 5.44 g/m*3 5.2 C 0 km/h
1888 08-01-2004 00:33:00 5.1 C 5.4 g/m*3 5.1 C 0 km/h
1889 08-01-2004 00:45:00 4.9 C 5.33 g/m*3 4.9 C 0 km/h
1890 08-01-2004 00:57:00 4.8 C 5.3 g/m*3 4.8 C 0 km/h
1891 08-01-2004 01:09:58 4.9 C 5.33 g/m*3 4.9 C 0 km/h
1892 08-01-2004 01:21:58 4.9 C 5.33 g/m*3 4.9 C 0 km/h
1893 08-01-2004 01:33:01 4.8 C 5.3 g/m*3 4.8 C 0 km/h
1894 08-01-2004 01:45:01 4.8 C 5.3 g/m*3 4.8 C 0 km/h
1895 08-01-2004 01:57:01 4.7 C 5.26 g/m*3 4.7 C 0 km/h
1896 08-01-2004 02:09:01 4.6 C 5.23 g/m*3 4.6 C 0 km/h
1897 08-01-2004 02:21:01 4.6 C 5.23 g/m*3 4.6 C 0 km/h
1898 08-01-2004 02:34:00 4.7 C 5.26 g/m*3 4.7 C 0 km/h
1899 08-01-2004 02:45:00 4.7 C 5.26 g/m*3 4.7 C 0 km/h
1900 08-01-2004 02:57:00 4.6 C 5.23 g/m*3 4.6 C 0 km/h
Sensor: Nr:Datum:Temp:Abs-Feuchte:Windchill:Wind:
Aussen-T/F 1901 08-01-2004 03:10:00 4.6 C 5.23 g/m*3 4.6 C 0 km/h
1902 08-01-2004 03:22:01 4.6 C 5.23 g/m*3 4.6 C 0 km/h
1903 08-01-2004 03:34:00 4.6 C 5.23 g/m*3 4.6 C 0 km/h
1904 08-01-2004 03:46:00 4.5 C 5.19 g/m*3 4.5 C 0 km/h
1905 08-01-2004 03:58:00 4.6 C 5.23 g/m*3 4.6 C 0 km/h
1906 08-01-2004 04:10:01 4.6 C 5.23 g/m*3 4.6 C 0 km/h
1907 08-01-2004 04:22:01 4.7 C 5.26 g/m*3 4.7 C 0 km/h
1908 08-01-2004 04:34:00 4.6 C 5.29 g/m*3 4.6 C 0 km/h
1909 08-01-2004 04:46:00 4.6 C 5.29 g/m*3 4.6 C 0 km/h
1910 08-01-2004 04:58:00 4.6 C 5.29 g/m*3 4.6 C 0 km/h
1911 08-01-2004 05:10:00 4.6 C 5.29 g/m*3 4.6 C 0 km/h
1912 08-01-2004 05:22:00 4.6 C 5.29 g/m*3 4.6 C 0 km/h
1913 08-01-2004 05:34:00 4.6 C 5.29 g/m*3 4.6 C 0 km/h
1914 08-01-2004 05:46:01 4.6 C 5.29 g/m*3 4.6 C 0 km/h
1915 08-01-2004 05:58:01 4.6 C 5.29 g/m*3 4.6 C 0 km/h
1916 08-01-2004 06:10:00 4.7 C 5.33 g/m*3 4.7 C 0 km/h
1917 08-01-2004 06:22:00 4.7 C 5.26 g/m*3 4.7 C 0 km/h
1918 08-01-2004 06:33:23 4.7 C 5.26 g/m*3 4.7 C 0 km/h
1919 08-01-2004 06:45:23 4.8 C 5.23 g/m*3 4.8 C 0 km/h
1920 08-01-2004 07:07:45 4.7 C 5.13 g/m*3 4.7 C 0 km/h
1921 08-01-2004 07:19:44 4.6 C 5.16 g/m*3 4.6 C 0 km/h
1922 08-01-2004 07:31:44 4.7 C 5.2 g/m*3 4.7 C 0 km/h
1923 08-01-2004 07:43:01 4.7 C 5.26 g/m*3 4.7 C 0 km/h
1924 08-01-2004 07:55:01 4.7 C 5.26 g/m*3 4.7 C 0 km/h
1925 08-01-2004 08:07:01 4.7 C 5.26 g/m*3 4.7 C 0 km/h
Sensor: Nr:Datum:Temp:Abs-Feuchte:Windchill:Wind:
Aussen-T/F 1926 08-01-2004 08:19:01 4.7 C 5.26 g/m*3 4.7 C 0 km/h
1927 08-01-2004 08:31:01 4.7 C 5.26 g/m*3 4.7 C 0 km/h
1928 08-01-2004 08:43:00 4.6 C 5.23 g/m*3 4.6 C 0 km/h
1929 08-01-2004 08:55:00 4.7 C 5.26 g/m*3 4.7 C 0 km/h
1930 08-01-2004 09:07:59 4.6 C 5.16 g/m*3 4.6 C 0 km/h
1931 08-01-2004 09:19:59 4.6 C 5.16 g/m*3 4.6 C 0 km/h
1932 08-01-2004 09:31:01 4.6 C 5.16 g/m*3 4.6 C 0 km/h
1933 08-01-2004 09:43:01 4.6 C 5.1 g/m*3 4.6 C 0 km/h
1934 08-01-2004 09:55:01 4.8 C 5.16 g/m*3 4.8 C 0 km/h
1935 08-01-2004 10:07:01 5 C 5.1 g/m*3 5 C 0 km/h
1936 08-01-2004 10:19:01 5 C 4.96 g/m*3 5 C 0 km/h
1937 08-01-2004 10:31:01 5 C 4.89 g/m*3 5 C 0 km/h
1938 08-01-2004 10:43:00 5.2 C 4.89 g/m*3 5.2 C 0 km/h
1939 08-01-2004 10:55:00 5.4 C 4.95 g/m*3 5.4 C 0 km/h
1940 08-01-2004 11:07:58 5.3 C 4.85 g/m*3 5.3 C 0 km/h
1941 08-01-2004 11:19:58 5.3 C 4.85 g/m*3 5.3 C 0 km/h
1942 08-01-2004 11:31:00 5.3 C 4.85 g/m*3 5.3 C 0 km/h
1943 08-01-2004 11:43:00 5.6 C 4.95 g/m*3 5.6 C 0 km/h
1944 08-01-2004 11:55:00 5.6 C 5.02 g/m*3 5.6 C 0 km/h
1945 08-01-2004 12:07:00 5.5 C 5.06 g/m*3 5.5 C 0 km/h
1946 08-01-2004 12:19:00 5.2 C 5.03 g/m*3 5.2 C 0 km/h
1947 08-01-2004 12:31:00 5.1 C 4.99 g/m*3 5.1 C 0 km/h
1948 08-01-2004 12:43:01 5 C 5.03 g/m*3 5 C 0 km/h
1949 08-01-2004 12:55:01 5.1 C 5.06 g/m*3 5.1 C 0 km/h
1950 08-01-2004 13:07:01 5.2 C 5.1 g/m*3 5.2 C 0 km/h
Sensor: Nr:Datum:Temp:Abs-Feuchte:Windchill:Wind:
Aussen-T/F 1951 08-01-2004 13:19:01 5.2 C 5.1 g/m*3 5.2 C 0 km/h
1952 08-01-2004 13:31:01 5.3 C 5.13 g/m*3 5.3 C 0 km/h
1953 08-01-2004 13:43:01 5.6 C 5.16 g/m*3 5.6 C 0 km/h
1954 08-01-2004 13:55:01 5.4 C 5.02 g/m*3 5.4 C 0 km/h
1955 08-01-2004 14:07:02 5.3 C 5.06 g/m*3 5.3 C 0 km/h
1956 08-01-2004 14:19:02 5.4 C 5.09 g/m*3 5.4 C 0 km/h
1957 08-01-2004 14:31:02 5.3 C 5.06 g/m*3 5.3 C 0 km/h
1958 08-01-2004 14:43:01 5 C 4.96 g/m*3 5 C 0 km/h
1959 08-01-2004 14:55:01 4.9 C 5.06 g/m*3 4.9 C 0 km/h
1960 08-01-2004 15:07:59 4.9 C 5 g/m*3 4.9 C 0 km/h
1961 08-01-2004 15:19:59 4.7 C 4.93 g/m*3 4.7 C 0 km/h
1962 08-01-2004 15:31:01 4.7 C 5 g/m*3 4.7 C 0 km/h
1963 08-01-2004 15:43:01 4.5 C 4.93 g/m*3 4.5 C 0 km/h
1964 08-01-2004 15:55:01 4.5 C 4.93 g/m*3 4.5 C 0 km/h
1965 08-01-2004 16:07:00 4.4 C 4.9 g/m*3 4.4 C 0 km/h
1966 08-01-2004 16:19:00 4.4 C 4.9 g/m*3 4.4 C 0 km/h
1967 08-01-2004 16:31:00 3.9 C 5.05 g/m*3 3.9 C 0 km/h
1968 08-01-2004 16:43:01 3.7 C 5.11 g/m*3 3.7 C 0 km/h
1969 08-01-2004 16:55:01 3.5 C 5.1 g/m*3 3.5 C 0 km/h
1970 08-01-2004 17:07:01 3.4 C 5.13 g/m*3 3.4 C 0 km/h
1971 08-01-2004 17:19:01 3.4 C 5.13 g/m*3 3.4 C 0 km/h
1972 08-01-2004 17:31:01 3.4 C 5.13 g/m*3 3.4 C 0 km/h
1973 08-01-2004 17:43:00 3.4 C 5.19 g/m*3 3.4 C 0 km/h
1974 08-01-2004 17:55:00 3.5 C 5.16 g/m*3 3.5 C 0 km/h
1975 08-01-2004 18:07:59 3.5 C 5.16 g/m*3 3.5 C 0 km/h
Sensor: Nr:Datum:Temp:Abs-Feuchte:Windchill:Wind:
Aussen-T/F 1976 08-01-2004 18:19:59 3.5 C 5.1 g/m*3 3.5 C 0 km/h
1977 08-01-2004 18:31:01 3.6 C 5.14 g/m*3 3.6 C 0 km/h
1978 08-01-2004 18:43:01 3.6 C 5.08 g/m*3 3.6 C 0 km/h
1979 08-01-2004 18:55:01 3.6 C 5.08 g/m*3 3.6 C 0 km/h
1980 08-01-2004 19:07:01 3.5 C 5.04 g/m*3 3.5 C 0 km/h
1981 08-01-2004 19:19:01 3.5 C 5.04 g/m*3 3.5 C 0 km/h
1982 08-01-2004 19:31:01 3.6 C 5.08 g/m*3 3.6 C 0 km/h
1983 08-01-2004 19:43:01 3.5 C 5.04 g/m*3 3.5 C 0 km/h
1984 08-01-2004 19:55:01 3.5 C 5.1 g/m*3 3.5 C 0 km/h
1985 08-01-2004 20:07:59 3.4 C 5.13 g/m*3 3.4 C 0 km/h
1986 08-01-2004 20:19:59 3.4 C 5.13 g/m*3 3.4 C 0 km/h
1987 08-01-2004 20:31:01 3.4 C 5.13 g/m*3 3.4 C 0 km/h
1988 08-01-2004 20:43:01 3.4 C 5.07 g/m*3 3.4 C 0 km/h
1989 08-01-2004 20:55:01 3.4 C 5.07 g/m*3 3.4 C 0 km/h
1990 08-01-2004 21:07:02 3.5 C 5.1 g/m*3 3.5 C 0 km/h
1991 08-01-2004 21:19:02 3.5 C 5.16 g/m*3 3.5 C 0 km/h
1992 08-01-2004 21:31:02 3.5 C 5.23 g/m*3 3.5 C 0 km/h
1993 08-01-2004 21:43:02 3.5 C 5.23 g/m*3 3.5 C 0 km/h
1994 08-01-2004 21:55:02 3.5 C 5.23 g/m*3 3.5 C 0 km/h
1995 08-01-2004 22:07:02 3.6 C 5.32 g/m*3 3.6 C 0 km/h
1996 08-01-2004 22:19:02 3.7 C 5.36 g/m*3 3.7 C 0 km/h
1997 08-01-2004 22:31:02 3.7 C 5.36 g/m*3 3.7 C 0 km/h
1998 08-01-2004 22:43:02 3.7 C 5.36 g/m*3 3.7 C 0 km/h
1999 08-01-2004 22:55:02 3.7 C 5.36 g/m*3 3.7 C 0 km/h
2000 08-01-2004 23:07:03 3.7 C 5.36 g/m*3 3.7 C 0 km/h
Sensor: Nr:Datum:Temp:Abs-Feuchte:Windchill:Wind:
Aussen-T/F 2001 08-01-2004 23:19:03 3.7 C 5.36 g/m*3 3.7 C 0 km/h
2002 08-01-2004 23:31:03 3.7 C 5.36 g/m*3 3.7 C 0 km/h
2003 08-01-2004 23:43:00 3.7 C 5.36 g/m*3 3.7 C 0 km/h
2004 08-01-2004 23:55:00 3.7 C 5.36 g/m*3 3.7 C 0 km/h
2005 09-01-2004 00:07:58 3.7 C 5.36 g/m*3 3.7 C 0 km/h
2006 09-01-2004 00:19:58 3.7 C 5.36 g/m*3 3.7 C 0 km/h
2007 09-01-2004 00:31:01 3.7 C 5.36 g/m*3 3.7 C 0 km/h
2008 09-01-2004 00:43:01 3.7 C 5.36 g/m*3 3.7 C 0 km/h
2009 09-01-2004 00:55:01 3.7 C 5.36 g/m*3 3.7 C 0 km/h
2010 09-01-2004 01:07:01 3.7 C 5.36 g/m*3 3.7 C 0 km/h
2011 09-01-2004 01:19:01 3.7 C 5.36 g/m*3 3.7 C 0 km/h
2012 09-01-2004 01:31:01 3.7 C 5.36 g/m*3 3.7 C 0 km/h
2013 09-01-2004 01:43:01 3.7 C 5.36 g/m*3 3.7 C 0 km/h
2014 09-01-2004 01:55:01 3.7 C 5.36 g/m*3 3.7 C 0 km/h
2015 09-01-2004 02:07:01 3.7 C 5.36 g/m*3 3.7 C 0 km/h
2016 09-01-2004 02:19:01 3.7 C 5.36 g/m*3 3.7 C 0 km/h
2017 09-01-2004 02:31:01 3.7 C 5.36 g/m*3 3.7 C 0 km/h
2018 09-01-2004 02:43:00 3.7 C 5.36 g/m*3 3.7 C 0 km/h
2019 09-01-2004 02:55:00 3.7 C 5.36 g/m*3 3.7 C 0 km/h
2020 09-01-2004 03:08:01 3.7 C 5.36 g/m*3 3.7 C 0 km/h
2021 09-01-2004 03:20:01 3.7 C 5.36 g/m*3 3.7 C 0 km/h
2022 09-01-2004 03:32:00 3.7 C 5.36 g/m*3 3.7 C 0 km/h
2023 09-01-2004 03:44:00 3.7 C 5.36 g/m*3 3.7 C 0 km/h
2024 09-01-2004 03:56:00 3.7 C 5.36 g/m*3 3.7 C 0 km/h
2025 09-01-2004 04:08:01 3.7 C 5.36 g/m*3 3.7 C 0 km/h
Sensor: Nr:Datum:Temp:Abs-Feuchte:Windchill:Wind:
Aussen-T/F 2026 09-01-2004 04:20:01 3.7 C 5.36 g/m*3 3.7 C 0 km/h
2027 09-01-2004 04:32:00 3.7 C 5.36 g/m*3 3.7 C 0 km/h
2028 09-01-2004 04:44:00 3.7 C 5.36 g/m*3 3.7 C 0 km/h
2029 09-01-2004 04:56:00 4.9 C 5.87 g/m*3 4.9 C 0 km/h
2030 09-01-2004 05:08:01 5 C 5.91 g/m*3 5 C 0 km/h
2031 09-01-2004 05:20:01 5 C 5.91 g/m*3 5 C 0 km/h
2032 09-01-2004 05:32:00 4.9 C 5.94 g/m*3 4.9 C 0 km/h
2033 09-01-2004 05:44:00 4.9 C 5.94 g/m*3 4.9 C 0 km/h
2034 09-01-2004 05:56:01 5 C 5.91 g/m*3 5 C 0 km/h
2035 09-01-2004 06:08:00 5 C 5.98 g/m*3 5 C 0 km/h
2036 09-01-2004 06:20:00 5 C 5.98 g/m*3 5 C 0 km/h
2037 09-01-2004 06:32:00 5.2 C 6.13 g/m*3 5.2 C 0 km/h
2038 09-01-2004 06:44:00 5.2 C 6.13 g/m*3 5.2 C 0 km/h
2039 09-01-2004 06:56:00 5.1 C 6.09 g/m*3 5.1 C 0 km/h
2040 09-01-2004 07:26:45 5.3 C 6.24 g/m*3 5.3 C 0 km/h
2041 09-01-2004 07:38:01 5.1 C 6.09 g/m*3 5.1 C 0 km/h
2042 09-01-2004 07:50:01 5 C 6.05 g/m*3 5 C 0 km/h
2043 09-01-2004 08:02:01 5.2 C 6.13 g/m*3 5.2 C 0 km/h
2044 09-01-2004 08:14:01 5.3 C 6.17 g/m*3 5.3 C 0 km/h
2045 09-01-2004 08:26:01 5.2 C 6.13 g/m*3 5.2 C 0 km/h
2046 09-01-2004 08:38:00 5.2 C 6.13 g/m*3 5.2 C 0 km/h
2047 09-01-2004 08:50:00 5.3 C 6.17 g/m*3 5.3 C 0 km/h
2048 09-01-2004 09:02:59 5.4 C 6.21 g/m*3 5.4 C 0 km/h
2049 09-01-2004 09:14:59 5.4 C 6.21 g/m*3 5.4 C 0 km/h
2050 09-01-2004 09:26:59 5.6 C 6.29 g/m*3 5.6 C 0 km/h
Sensor: Nr:Datum:Temp:Abs-Feuchte:Windchill:Wind:
Aussen-T/F 2051 09-01-2004 09:38:01 5.8 C 6.38 g/m*3 5.8 C 0 km/h
2052 09-01-2004 09:50:01 5.8 C 6.3 g/m*3 5.8 C 0 km/h
2053 09-01-2004 10:02:01 6 C 6.31 g/m*3 6 C 0 km/h
2054 09-01-2004 10:14:01 5.9 C 6.27 g/m*3 5.9 C 0 km/h
2055 09-01-2004 10:26:01 5.9 C 6.13 g/m*3 5.9 C 0 km/h
2056 09-01-2004 10:38:00 6.1 C 5.92 g/m*3 6.1 C 0 km/h
2057 09-01-2004 10:50:00 6.6 C 5.89 g/m*3 6.6 C 0 km/h
2058 09-01-2004 11:02:59 6.9 C 6 g/m*3 6.9 C 0 km/h
2059 09-01-2004 11:14:59 7.2 C 5.97 g/m*3 7.2 C 0 km/h
2060 09-01-2004 11:26:59 7.1 C 5.85 g/m*3 7.1 C 0 km/h
2061 09-01-2004 11:38:01 7.2 C 5.89 g/m*3 7.2 C 0 km/h
2062 09-01-2004 11:50:01 7.4 C 6.04 g/m*3 7.4 C 0 km/h
2063 09-01-2004 12:02:01 7.5 C 6 g/m*3 7.5 C 0 km/h
2064 09-01-2004 12:14:01 7.7 C 6 g/m*3 7.7 C 0 km/h
2065 09-01-2004 12:26:01 7.7 C 5.92 g/m*3 7.7 C 0 km/h
2066 09-01-2004 12:38:00 7.6 C 6.04 g/m*3 7.6 C 0 km/h
2067 09-01-2004 12:50:00 7.6 C 5.96 g/m*3 7.6 C 0 km/h
2068 09-01-2004 13:02:59 7.6 C 5.96 g/m*3 7.6 C 0 km/h
2069 09-01-2004 13:14:59 7.5 C 5.92 g/m*3 7.5 C 0 km/h
2070 09-01-2004 13:26:59 7.4 C 5.88 g/m*3 7.4 C 0 km/h
2071 09-01-2004 13:38:01 7.6 C 5.88 g/m*3 7.6 C 0 km/h
2072 09-01-2004 13:50:01 7.7 C 5.76 g/m*3 7.7 C 0 km/h
2073 09-01-2004 14:02:00 7.5 C 5.84 g/m*3 7.5 C 0 km/h
2074 09-01-2004 14:14:00 7.1 C 5.93 g/m*3 7.1 C 0 km/h
2075 09-01-2004 14:26:00 6.8 C 6.04 g/m*3 6.8 C 0 km/h
Sensor: Nr:Datum:Temp:Abs-Feuchte:Windchill:Wind:
Aussen-T/F 2076 09-01-2004 14:38:01 6.7 C 6 g/m*3 6.7 C 0 km/h
2077 09-01-2004 14:50:01 7.1 C 6.01 g/m*3 7.1 C 0 km/h
2078 09-01-2004 15:02:01 7.4 C 5.88 g/m*3 7.4 C 0 km/h
2079 09-01-2004 15:14:01 7.3 C 5.61 g/m*3 7.3 C 0 km/h
2080 09-01-2004 15:26:01 7.2 C 5.57 g/m*3 7.2 C 0 km/h
2081 09-01-2004 15:38:00 7.4 C 5.49 g/m*3 7.4 C 0 km/h
2082 09-01-2004 15:50:00 7.4 C 5.41 g/m*3 7.4 C 0 km/h
2083 09-01-2004 16:02:58 7.3 C 5.37 g/m*3 7.3 C 0 km/h
2084 09-01-2004 16:14:58 7 C 5.35 g/m*3 7 C 0 km/h
2085 09-01-2004 16:26:58 6.8 C 5.51 g/m*3 6.8 C 0 km/h
2086 09-01-2004 16:38:01 6.7 C 5.55 g/m*3 6.7 C 0 km/h
2087 09-01-2004 16:50:01 7 C 5.42 g/m*3 7 C 0 km/h
2088 09-01-2004 17:02:01 7 C 5.42 g/m*3 7 C 0 km/h
2089 09-01-2004 17:14:01 6.5 C 5.62 g/m*3 6.5 C 0 km/h
2090 09-01-2004 17:26:01 5.9 C 5.77 g/m*3 5.9 C 0 km/h
2091 09-01-2004 17:38:00 5.6 C 5.59 g/m*3 5.6 C 0 km/h
2092 09-01-2004 17:50:00 5.4 C 5.65 g/m*3 5.4 C 0 km/h
2093 09-01-2004 18:02:59 5.1 C 5.61 g/m*3 5.1 C 0 km/h
2094 09-01-2004 18:14:59 4.8 C 5.57 g/m*3 4.8 C 0 km/h
2095 09-01-2004 18:26:59 4.6 C 5.56 g/m*3 4.6 C 0 km/h
2096 09-01-2004 18:38:01 5 C 5.71 g/m*3 5 C 0 km/h
2097 09-01-2004 18:50:01 5.4 C 5.72 g/m*3 5.4 C 0 km/h
2098 09-01-2004 19:02:01 5.6 C 5.73 g/m*3 5.6 C 0 km/h
2099 09-01-2004 19:14:01 5.6 C 5.59 g/m*3 5.6 C 0 km/h
2100 09-01-2004 19:26:01 5.3 C 5.41 g/m*3 5.3 C 0 km/h
Sensor: Nr:Datum:Temp:Abs-Feuchte:Windchill:Wind:
Aussen-T/F 2101 09-01-2004 19:38:01 5.1 C 5.13 g/m*3 5.1 C 0 km/h
2102 09-01-2004 19:50:01 4.7 C 5 g/m*3 4.7 C 0 km/h
2103 09-01-2004 20:02:59 4.4 C 4.96 g/m*3 4.4 C 0 km/h
2104 09-01-2004 20:14:59 4.4 C 4.83 g/m*3 4.4 C 0 km/h
2105 09-01-2004 20:26:59 4.3 C 4.8 g/m*3 4.3 C 0 km/h
2106 09-01-2004 20:38:01 4.5 C 4.8 g/m*3 4.5 C 0 km/h
2107 09-01-2004 20:50:01 4.5 C 4.8 g/m*3 4.5 C 0 km/h
2108 09-01-2004 21:02:00 4.7 C 4.8 g/m*3 4.7 C 0 km/h
2109 09-01-2004 21:14:00 4.6 C 4.9 g/m*3 4.6 C 0 km/h
2110 09-01-2004 21:26:00 4.8 C 4.9 g/m*3 4.8 C 0 km/h
2111 09-01-2004 21:38:01 4.7 C 4.86 g/m*3 4.7 C 0 km/h
2112 09-01-2004 21:50:01 4.7 C 4.93 g/m*3 4.7 C 0 km/h
2113 09-01-2004 22:02:01 4.5 C 4.93 g/m*3 4.5 C 0 km/h
2114 09-01-2004 22:14:01 4.5 C 5 g/m*3 4.5 C 0 km/h
2115 09-01-2004 22:26:01 4.6 C 5.03 g/m*3 4.6 C 0 km/h
2116 09-01-2004 22:38:00 4.6 C 5.03 g/m*3 4.6 C 0 km/h
2117 09-01-2004 22:50:00 4.2 C 5.03 g/m*3 4.2 C 0 km/h
2118 09-01-2004 23:02:59 3.8 C 4.96 g/m*3 3.8 C 0 km/h
2119 09-01-2004 23:14:59 3.5 C 4.86 g/m*3 3.5 C 0 km/h
2120 09-01-2004 23:26:59 3.4 C 4.83 g/m*3 3.4 C 0 km/h
2121 09-01-2004 23:38:01 3.6 C 4.89 g/m*3 3.6 C 0 km/h
2122 09-01-2004 23:50:01 3.6 C 4.89 g/m*3 3.6 C 0 km/h
2123 10-01-2004 00:02:01 3.8 C 4.96 g/m*3 3.8 C 0 km/h
2124 10-01-2004 00:14:01 3.8 C 4.89 g/m*3 3.8 C 0 km/h
2125 10-01-2004 00:26:01 3.9 C 4.99 g/m*3 3.9 C 0 km/h
Sensor: Nr:Datum:Temp:Abs-Feuchte:Windchill:Wind:
Aussen-T/F 2126 10-01-2004 00:38:01 4 C 4.96 g/m*3 4 C 0 km/h
2127 10-01-2004 00:50:01 3.9 C 4.99 g/m*3 3.9 C 0 km/h
2128 10-01-2004 01:02:01 3.7 C 4.99 g/m*3 3.7 C 0 km/h
2129 10-01-2004 01:14:01 3.6 C 4.95 g/m*3 3.6 C 0 km/h
2130 10-01-2004 01:26:01 3.8 C 5.02 g/m*3 3.8 C 0 km/h
2131 10-01-2004 01:38:00 3.7 C 4.99 g/m*3 3.7 C 0 km/h
2132 10-01-2004 01:50:00 3.7 C 5.05 g/m*3 3.7 C 0 km/h
2133 10-01-2004 02:02:58 3.7 C 5.11 g/m*3 3.7 C 0 km/h
2134 10-01-2004 02:14:58 3.8 C 5.08 g/m*3 3.8 C 0 km/h
2135 10-01-2004 02:26:58 3.9 C 5.05 g/m*3 3.9 C 0 km/h
2136 10-01-2004 02:39:02 4 C 5.02 g/m*3 4 C 0 km/h
2137 10-01-2004 02:51:02 4.2 C 4.96 g/m*3 4.2 C 0 km/h
2138 10-01-2004 03:03:02 4 C 4.96 g/m*3 4 C 0 km/h
2139 10-01-2004 03:15:02 4 C 4.96 g/m*3 4 C 0 km/h
2140 10-01-2004 03:27:02 4.2 C 5.03 g/m*3 4.2 C 0 km/h
2141 10-01-2004 03:39:00 4.2 C 4.96 g/m*3 4.2 C 0 km/h
2142 10-01-2004 03:51:00 4.3 C 4.99 g/m*3 4.3 C 0 km/h
2143 10-01-2004 04:03:59 4.4 C 4.96 g/m*3 4.4 C 0 km/h
2144 10-01-2004 04:15:59 4.4 C 4.96 g/m*3 4.4 C 0 km/h
2145 10-01-2004 04:27:59 4.4 C 4.96 g/m*3 4.4 C 0 km/h
2146 10-01-2004 04:39:01 4.3 C 4.99 g/m*3 4.3 C 0 km/h
2147 10-01-2004 04:51:01 4.2 C 4.96 g/m*3 4.2 C 0 km/h
2148 10-01-2004 05:03:00 4.2 C 4.96 g/m*3 4.2 C 0 km/h
2149 10-01-2004 05:15:00 4.2 C 4.96 g/m*3 4.2 C 0 km/h
2150 10-01-2004 05:27:00 4.3 C 4.99 g/m*3 4.3 C 0 km/h
Sensor: Nr:Datum:Temp:Abs-Feuchte:Windchill:Wind:
Aussen-T/F 2151 10-01-2004 05:39:01 4.3 C 4.99 g/m*3 4.3 C 0 km/h
2152 10-01-2004 05:51:01 4.3 C 4.99 g/m*3 4.3 C 0 km/h
2153 10-01-2004 06:03:01 4.4 C 5.03 g/m*3 4.4 C 0 km/h
2154 10-01-2004 06:15:01 4.3 C 4.99 g/m*3 4.3 C 0 km/h
2155 10-01-2004 06:27:01 4.4 C 4.96 g/m*3 4.4 C 0 km/h
2156 10-01-2004 06:39:01 4.4 C 5.03 g/m*3 4.4 C 0 km/h
2157 10-01-2004 06:51:01 4.4 C 4.96 g/m*3 4.4 C 0 km/h
2158 10-01-2004 07:03:01 4.5 C 5 g/m*3 4.5 C 0 km/h
2159 10-01-2004 07:15:01 4.5 C 4.93 g/m*3 4.5 C 0 km/h
2160 10-01-2004 07:27:01 4.6 C 4.96 g/m*3 4.6 C 0 km/h
2161 10-01-2004 07:39:00 4.6 C 4.9 g/m*3 4.6 C 0 km/h
2162 10-01-2004 07:51:00 4.5 C 4.93 g/m*3 4.5 C 0 km/h
2163 10-01-2004 08:03:59 4.6 C 4.9 g/m*3 4.6 C 0 km/h
2164 10-01-2004 08:15:59 4.6 C 4.9 g/m*3 4.6 C 0 km/h
2165 10-01-2004 08:27:59 4.6 C 4.9 g/m*3 4.6 C 0 km/h
2166 10-01-2004 08:39:02 4.6 C 4.9 g/m*3 4.6 C 0 km/h
2167 10-01-2004 08:51:02 4.7 C 4.86 g/m*3 4.7 C 0 km/h
2168 10-01-2004 09:03:02 4.6 C 4.9 g/m*3 4.6 C 0 km/h
2169 10-01-2004 09:15:02 4.4 C 4.83 g/m*3 4.4 C 0 km/h
2170 10-01-2004 09:27:02 4.2 C 4.83 g/m*3 4.2 C 0 km/h
2171 10-01-2004 09:39:00 4 C 4.83 g/m*3 4 C 0 km/h
2172 10-01-2004 09:51:00 3.9 C 4.86 g/m*3 3.9 C 0 km/h
2173 10-01-2004 10:03:58 3.8 C 4.83 g/m*3 3.8 C 0 km/h
2174 10-01-2004 10:15:58 3.8 C 4.83 g/m*3 3.8 C 0 km/h
2175 10-01-2004 10:27:58 3.7 C 4.86 g/m*3 3.7 C 0 km/h
Sensor: Nr:Datum:Temp:Abs-Feuchte:Windchill:Wind:
Aussen-T/F 2176 10-01-2004 10:39:01 4.3 C 5.06 g/m*3 4.3 C 0 km/h
2177 10-01-2004 10:51:01 4.9 C 5.06 g/m*3 4.9 C 0 km/h
2178 10-01-2004 11:03:01 5.1 C 4.86 g/m*3 5.1 C 0 km/h
2179 10-01-2004 11:15:01 4.9 C 5 g/m*3 4.9 C 0 km/h
2180 10-01-2004 11:27:01 5.1 C 4.86 g/m*3 5.1 C 0 km/h
2181 10-01-2004 11:39:02 5.1 C 4.86 g/m*3 5.1 C 0 km/h
2182 10-01-2004 11:51:02 5.1 C 4.86 g/m*3 5.1 C 0 km/h
2183 10-01-2004 12:03:01 5.1 C 4.79 g/m*3 5.1 C 0 km/h
2184 10-01-2004 12:15:01 5.1 C 4.72 g/m*3 5.1 C 0 km/h
2185 10-01-2004 12:27:01 5 C 4.62 g/m*3 5 C 0 km/h
2186 10-01-2004 12:39:01 5.2 C 4.68 g/m*3 5.2 C 0 km/h
2187 10-01-2004 12:51:01 5.1 C 4.65 g/m*3 5.1 C 0 km/h
2188 10-01-2004 13:03:59 5.2 C 4.68 g/m*3 5.2 C 0 km/h
2189 10-01-2004 13:15:59 5.3 C 4.64 g/m*3 5.3 C 0 km/h
2190 10-01-2004 13:27:59 5.4 C 4.67 g/m*3 5.4 C 0 km/h
2191 10-01-2004 13:39:01 5.3 C 4.64 g/m*3 5.3 C 0 km/h
2192 10-01-2004 13:51:01 5.4 C 4.67 g/m*3 5.4 C 0 km/h
2193 10-01-2004 14:03:00 5.3 C 4.64 g/m*3 5.3 C 0 km/h
2194 10-01-2004 14:15:00 5.2 C 4.61 g/m*3 5.2 C 0 km/h
2195 10-01-2004 14:27:00 5.2 C 4.61 g/m*3 5.2 C 0 km/h
2196 10-01-2004 14:39:59 5.2 C 4.61 g/m*3 5.2 C 0 km/h
2197 10-01-2004 14:51:59 5.1 C 4.51 g/m*3 5.1 C 0 km/h
2198 10-01-2004 15:03:58 4.9 C 4.52 g/m*3 4.9 C 0 km/h
2199 10-01-2004 15:15:58 4.9 C 4.52 g/m*3 4.9 C 0 km/h
2200 10-01-2004 15:27:58 4.8 C 4.49 g/m*3 4.8 C 0 km/h
Sensor: Nr:Datum:Temp:Abs-Feuchte:Windchill:Wind:
Aussen-T/F 2201 10-01-2004 15:39:01 4.8 C 4.49 g/m*3 4.8 C 0 km/h
2202 10-01-2004 15:51:01 4.8 C 4.56 g/m*3 4.8 C 0 km/h
2203 10-01-2004 16:03:01 4.9 C 4.59 g/m*3 4.9 C 0 km/h
2204 10-01-2004 16:15:01 5 C 4.55 g/m*3 5 C 0 km/h
2205 10-01-2004 16:27:01 4.9 C 4.59 g/m*3 4.9 C 0 km/h
2206 10-01-2004 16:39:01 4.7 C 4.66 g/m*3 4.7 C 0 km/h
2207 10-01-2004 16:51:01 4.6 C 4.63 g/m*3 4.6 C 0 km/h
2208 10-01-2004 17:03:01 4.6 C 4.76 g/m*3 4.6 C 0 km/h
2209 10-01-2004 17:15:01 4.6 C 4.83 g/m*3 4.6 C 0 km/h
2210 10-01-2004 17:27:01 4.6 C 4.83 g/m*3 4.6 C 0 km/h
2211 10-01-2004 17:39:00 4.6 C 4.83 g/m*3 4.6 C 0 km/h
2212 10-01-2004 17:51:00 4.5 C 4.8 g/m*3 4.5 C 0 km/h
2213 10-01-2004 18:03:59 4.5 C 4.8 g/m*3 4.5 C 0 km/h
2214 10-01-2004 18:15:59 4.4 C 4.77 g/m*3 4.4 C 0 km/h
2215 10-01-2004 18:27:59 4.5 C 4.86 g/m*3 4.5 C 0 km/h
2216 10-01-2004 18:39:01 4.5 C 4.93 g/m*3 4.5 C 0 km/h
2217 10-01-2004 18:51:01 4.4 C 4.96 g/m*3 4.4 C 0 km/h
2218 10-01-2004 19:03:01 4.4 C 5.03 g/m*3 4.4 C 0 km/h
2219 10-01-2004 19:15:01 4.3 C 4.99 g/m*3 4.3 C 0 km/h
2220 10-01-2004 19:27:01 4.4 C 4.96 g/m*3 4.4 C 0 km/h
2221 10-01-2004 19:39:00 4.5 C 5 g/m*3 4.5 C 0 km/h
2222 10-01-2004 19:51:00 4.6 C 5.1 g/m*3 4.6 C 0 km/h
2223 10-01-2004 20:03:58 4.8 C 5.23 g/m*3 4.8 C 0 km/h
2224 10-01-2004 20:15:58 4.8 C 5.23 g/m*3 4.8 C 0 km/h
2225 10-01-2004 20:27:58 4.8 C 5.16 g/m*3 4.8 C 0 km/h
Sensor: Nr:Datum:Temp:Abs-Feuchte:Windchill:Wind:
Aussen-T/F 2226 10-01-2004 20:39:01 4.9 C 5.13 g/m*3 4.9 C 0 km/h
2227 10-01-2004 20:51:01 5 C 5.1 g/m*3 5 C 0 km/h
2228 10-01-2004 21:03:01 5 C 5.16 g/m*3 5 C 0 km/h
2229 10-01-2004 21:15:01 5.1 C 5.2 g/m*3 5.1 C 0 km/h
2230 10-01-2004 21:27:01 5.1 C 5.2 g/m*3 5.1 C 0 km/h
2231 10-01-2004 21:39:02 5.3 C 5.34 g/m*3 5.3 C 0 km/h
2232 10-01-2004 21:51:02 5.4 C 5.44 g/m*3 5.4 C 0 km/h
2233 10-01-2004 22:03:01 5.5 C 5.55 g/m*3 5.5 C 0 km/h
2234 10-01-2004 22:15:01 5.6 C 5.66 g/m*3 5.6 C 0 km/h
2235 10-01-2004 22:27:01 5.6 C 5.66 g/m*3 5.6 C 0 km/h
2236 10-01-2004 22:39:01 5.5 C 5.62 g/m*3 5.5 C 0 km/h
2237 10-01-2004 22:51:01 5.5 C 5.62 g/m*3 5.5 C 0 km/h
2238 10-01-2004 23:03:01 5.4 C 5.58 g/m*3 5.4 C 0 km/h
2239 10-01-2004 23:15:01 5.5 C 5.55 g/m*3 5.5 C 0 km/h
2240 10-01-2004 23:27:01 5.6 C 5.66 g/m*3 5.6 C 0 km/h
2241 10-01-2004 23:39:00 5.6 C 5.66 g/m*3 5.6 C 0 km/h
2242 10-01-2004 23:51:00 5.6 C 5.66 g/m*3 5.6 C 0 km/h
2243 11-01-2004 00:03:59 5.7 C 5.76 g/m*3 5.7 C 0 km/h
2244 11-01-2004 00:15:59 5.8 C 5.8 g/m*3 5.8 C 0 km/h
2245 11-01-2004 00:27:59 6.3 C 6 g/m*3 6.3 C 0 km/h
2246 11-01-2004 00:39:01 6.6 C 6.04 g/m*3 6.6 C 0 km/h
2247 11-01-2004 00:51:01 6.6 C 5.96 g/m*3 6.6 C 0 km/h
2248 11-01-2004 01:03:01 6.9 C 6.08 g/m*3 6.9 C 0 km/h
2249 11-01-2004 01:15:01 7.2 C 6.12 g/m*3 7.2 C 0 km/h
2250 11-01-2004 01:27:01 7.3 C 6.16 g/m*3 7.3 C 0 km/h
Sensor: Nr:Datum:Temp:Abs-Feuchte:Windchill:Wind:
Aussen-T/F 2251 11-01-2004 01:39:00 7.3 C 6.24 g/m*3 7.3 C 0 km/h
2252 11-01-2004 01:51:00 7.6 C 6.36 g/m*3 7.6 C 0 km/h
2253 11-01-2004 02:03:58 7.8 C 6.45 g/m*3 7.8 C 0 km/h
2254 11-01-2004 02:15:58 8 C 6.37 g/m*3 8 C 0 km/h
2255 11-01-2004 02:27:58 8 C 6.37 g/m*3 8 C 0 km/h
2256 11-01-2004 02:40:02 8 C 6.37 g/m*3 8 C 0 km/h
2257 11-01-2004 02:52:02 8 C 6.37 g/m*3 8 C 0 km/h
2258 11-01-2004 03:04:02 8.1 C 6.41 g/m*3 8.1 C 0 km/h
2259 11-01-2004 03:16:02 7.9 C 6.41 g/m*3 7.9 C 0 km/h
2260 11-01-2004 03:28:02 7.9 C 6.49 g/m*3 7.9 C 0 km/h
2261 11-01-2004 03:40:00 7.8 C 6.45 g/m*3 7.8 C 0 km/h
2262 11-01-2004 03:52:00 7.6 C 6.36 g/m*3 7.6 C 0 km/h
2263 11-01-2004 04:04:59 7.7 C 6.49 g/m*3 7.7 C 0 km/h
2264 11-01-2004 04:16:59 7.9 C 6.57 g/m*3 7.9 C 0 km/h
2265 11-01-2004 04:28:59 8.1 C 6.49 g/m*3 8.1 C 0 km/h
2266 11-01-2004 04:40:01 8.2 C 6.53 g/m*3 8.2 C 0 km/h
2267 11-01-2004 04:52:01 8.3 C 6.57 g/m*3 8.3 C 0 km/h
2268 11-01-2004 05:04:01 8.8 C 6.7 g/m*3 8.8 C 0 km/h
2269 11-01-2004 05:16:01 8.8 C 6.7 g/m*3 8.8 C 0 km/h
2270 11-01-2004 05:28:01 8.7 C 6.66 g/m*3 8.7 C 0 km/h
2271 11-01-2004 05:40:00 8.6 C 6.62 g/m*3 8.6 C 0 km/h
2272 11-01-2004 05:52:00 8.6 C 6.7 g/m*3 8.6 C 0 km/h
2273 11-01-2004 06:04:58 8.5 C 6.74 g/m*3 8.5 C 0 km/h
2274 11-01-2004 06:16:58 8.5 C 6.74 g/m*3 8.5 C 0 km/h
2275 11-01-2004 06:28:58 8.2 C 6.78 g/m*3 8.2 C 0 km/h
Sensor: Nr:Datum:Temp:Abs-Feuchte:Windchill:Wind:
Aussen-T/F 2276 11-01-2004 06:40:01 8.4 C 6.87 g/m*3 8.4 C 0 km/h
2277 11-01-2004 06:52:01 8.7 C 6.92 g/m*3 8.7 C 0 km/h
2278 11-01-2004 07:04:01 8.6 C 6.87 g/m*3 8.6 C 0 km/h
2279 11-01-2004 07:16:01 8.6 C 6.87 g/m*3 8.6 C 0 km/h
2280 11-01-2004 07:28:01 8.6 C 6.87 g/m*3 8.6 C 0 km/h
2281 11-01-2004 07:40:01 8.7 C 6.92 g/m*3 8.7 C 0 km/h
2282 11-01-2004 07:52:01 8.6 C 6.87 g/m*3 8.6 C 0 km/h
2283 11-01-2004 08:04:01 8.6 C 6.87 g/m*3 8.6 C 0 km/h
2284 11-01-2004 08:16:01 9.1 C 6.92 g/m*3 9.1 C 0 km/h
2285 11-01-2004 08:28:01 9.3 C 7.01 g/m*3 9.3 C 0 km/h
2286 11-01-2004 08:40:00 9.4 C 6.96 g/m*3 9.4 C 0 km/h
2287 11-01-2004 08:52:00 9.3 C 7.01 g/m*3 9.3 C 0 km/h
2288 11-01-2004 09:04:59 9.3 C 7.01 g/m*3 9.3 C 0 km/h
2289 11-01-2004 09:16:59 9.2 C 6.97 g/m*3 9.2 C 0 km/h
2290 11-01-2004 09:28:59 9.3 C 7.01 g/m*3 9.3 C 0 km/h
2291 11-01-2004 09:40:01 9.4 C 7.05 g/m*3 9.4 C 0 km/h
2292 11-01-2004 09:52:01 9.3 C 7.01 g/m*3 9.3 C 0 km/h
2293 11-01-2004 10:04:01 9.5 C 7.1 g/m*3 9.5 C 0 km/h
2294 11-01-2004 10:16:01 9.5 C 7.1 g/m*3 9.5 C 0 km/h
2295 11-01-2004 10:28:01 9.6 C 7.15 g/m*3 9.6 C 0 km/h
2296 11-01-2004 10:40:00 10 C 7.14 g/m*3 10 C 0 km/h
2297 11-01-2004 10:52:00 10.2 C 7.23 g/m*3 10.2 C 0 km/h
2298 11-01-2004 11:04:59 10.7 C 7.27 g/m*3 10.7 C 0 km/h
2299 11-01-2004 11:16:59 11.3 C 7.34 g/m*3 11.3 C 0 km/h
2300 11-01-2004 11:28:59 11.5 C 7.33 g/m*3 11.5 C 0 km/h
Sensor: Nr:Datum:Temp:Abs-Feuchte:Windchill:Wind:
Aussen-T/F 2301 11-01-2004 11:40:01 11.4 C 7.29 g/m*3 11.4 C 0 km/h
2302 11-01-2004 11:52:01 11.4 C 7.39 g/m*3 11.4 C 0 km/h
2303 11-01-2004 12:04:01 11.1 C 7.35 g/m*3 11.1 C 0 km/h
2304 11-01-2004 12:16:01 11 C 7.41 g/m*3 11 C 0 km/h
2305 11-01-2004 12:28:01 11 C 7.41 g/m*3 11 C 0 km/h
2306 11-01-2004 12:40:59 10.9 C 7.56 g/m*3 10.9 C 0 km/h
2307 11-01-2004 12:51:59 10.8 C 7.61 g/m*3 10.8 C 0 km/h
2308 11-01-2004 13:04:58 10.9 C 7.66 g/m*3 10.9 C 0 km/h
2309 11-01-2004 13:16:58 11.1 C 7.76 g/m*3 11.1 C 0 km/h
2310 11-01-2004 13:28:58 10.7 C 7.76 g/m*3 10.7 C 0 km/h
2311 11-01-2004 13:40:01 10.8 C 8.01 g/m*3 10.8 C 0 km/h
2312 11-01-2004 13:52:01 11 C 8.01 g/m*3 11 C 0 km/h
2313 11-01-2004 14:04:01 11.2 C 8.11 g/m*3 11.2 C 0 km/h
2314 11-01-2004 14:16:01 11.2 C 8.11 g/m*3 11.2 C 0 km/h
2315 11-01-2004 14:28:01 11.3 C 8.16 g/m*3 11.3 C 0 km/h
2316 11-01-2004 14:40:01 11.6 C 8.32 g/m*3 11.6 C 0 km/h
2317 11-01-2004 14:52:01 11.5 C 8.26 g/m*3 11.5 C 0 km/h
2318 11-01-2004 15:04:59 11.3 C 8.36 g/m*3 11.3 C 0 km/h
2319 11-01-2004 15:16:59 11.2 C 8.41 g/m*3 11.2 C 0 km/h
2320 11-01-2004 15:28:59 11.1 C 8.06 g/m*3 11.1 C 0 km/h
2321 11-01-2004 15:40:01 11.1 C 8.06 g/m*3 11.1 C 0 km/h
2322 11-01-2004 15:52:01 11.4 C 8.01 g/m*3 11.4 C 0 km/h
2323 11-01-2004 16:04:01 11.8 C 7.89 g/m*3 11.8 C 0 km/h
2324 11-01-2004 16:16:01 11.8 C 7.89 g/m*3 11.8 C 0 km/h
2325 11-01-2004 16:28:01 11.6 C 7.8 g/m*3 11.6 C 0 km/h
Sensor: Nr:Datum:Temp:Abs-Feuchte:Windchill:Wind:
Aussen-T/F 2326 11-01-2004 16:40:01 11.4 C 7.7 g/m*3 11.4 C 0 km/h
2327 11-01-2004 16:52:01 11.4 C 7.39 g/m*3 11.4 C 0 km/h
2328 11-01-2004 17:04:01 11.1 C 7.25 g/m*3 11.1 C 0 km/h
2329 11-01-2004 17:16:01 11.1 C 6.95 g/m*3 11.1 C 0 km/h
2330 11-01-2004 17:28:01 11.1 C 6.85 g/m*3 11.1 C 0 km/h
2331 11-01-2004 17:40:00 11 C 6.71 g/m*3 11 C 0 km/h
2332 11-01-2004 17:52:00 11 C 6.51 g/m*3 11 C 0 km/h
2333 11-01-2004 18:04:59 10.8 C 6.42 g/m*3 10.8 C 0 km/h
2334 11-01-2004 18:16:59 10.3 C 6.42 g/m*3 10.3 C 0 km/h
2335 11-01-2004 18:28:59 10.2 C 6.38 g/m*3 10.2 C 0 km/h
2336 11-01-2004 18:40:01 10.1 C 6.34 g/m*3 10.1 C 0 km/h
2337 11-01-2004 18:52:01 10.1 C 6.43 g/m*3 10.1 C 0 km/h
2338 11-01-2004 19:04:01 10.1 C 5.67 g/m*3 10.1 C 0 km/h
2339 11-01-2004 19:16:01 10.1 C 5.2 g/m*3 10.1 C 0 km/h
2340 11-01-2004 19:28:01 9.9 C 5.04 g/m*3 9.9 C 0 km/h
2341 11-01-2004 19:40:01 9.6 C 5.13 g/m*3 9.6 C 0 km/h
2342 11-01-2004 19:52:01 9.4 C 5.16 g/m*3 9.4 C 0 km/h
2343 11-01-2004 20:04:59 9.2 C 5.09 g/m*3 9.2 C 0 km/h
2344 11-01-2004 20:16:59 8.8 C 5.05 g/m*3 8.8 C 0 km/h
2345 11-01-2004 20:28:59 8.5 C 5.04 g/m*3 8.5 C 0 km/h
2346 11-01-2004 20:40:01 8.2 C 5.11 g/m*3 8.2 C 0 km/h
2347 11-01-2004 20:52:01 7.8 C 5.22 g/m*3 7.8 C 0 km/h
2348 11-01-2004 21:04:01 7.5 C 5.28 g/m*3 7.5 C 0 km/h
2349 11-01-2004 21:16:01 7.3 C 5.37 g/m*3 7.3 C 0 km/h
2350 11-01-2004 21:28:01 7.3 C 5.29 g/m*3 7.3 C 0 km/h
Sensor: Nr:Datum:Temp:Abs-Feuchte:Windchill:Wind:
Aussen-T/F 2351 11-01-2004 21:40:02 7.3 C 5.29 g/m*3 7.3 C 0 km/h
2352 11-01-2004 21:52:02 7.4 C 5.33 g/m*3 7.4 C 0 km/h
2353 11-01-2004 22:04:02 7.4 C 5.33 g/m*3 7.4 C 0 km/h
2354 11-01-2004 22:16:02 7.4 C 5.33 g/m*3 7.4 C 0 km/h
2355 11-01-2004 22:28:02 7.4 C 5.33 g/m*3 7.4 C 0 km/h
2356 11-01-2004 22:40:00 7.3 C 5.37 g/m*3 7.3 C 0 km/h
2357 11-01-2004 22:52:00 7.4 C 5.41 g/m*3 7.4 C 0 km/h
2358 11-01-2004 23:04:58 7.6 C 5.4 g/m*3 7.6 C 0 km/h
2359 11-01-2004 23:16:58 7.7 C 5.43 g/m*3 7.7 C 0 km/h
2360 11-01-2004 23:28:58 7.7 C 5.51 g/m*3 7.7 C 0 km/h
2361 11-01-2004 23:40:01 7.8 C 5.63 g/m*3 7.8 C 0 km/h
2362 11-01-2004 23:52:01 7.8 C 5.55 g/m*3 7.8 C 0 km/h
2363 12-01-2004 00:04:01 7.6 C 5.56 g/m*3 7.6 C 0 km/h
2364 12-01-2004 00:16:01 7.5 C 5.6 g/m*3 7.5 C 0 km/h
2365 12-01-2004 00:28:01 7.5 C 5.68 g/m*3 7.5 C 0 km/h
2366 12-01-2004 00:40:01 7.3 C 5.77 g/m*3 7.3 C 0 km/h
2367 12-01-2004 00:52:01 7.1 C 5.77 g/m*3 7.1 C 0 km/h
2368 12-01-2004 01:04:00 7 C 5.73 g/m*3 7 C 0 km/h
2369 12-01-2004 01:16:00 7 C 5.58 g/m*3 7 C 0 km/h
2370 12-01-2004 01:28:00 7.3 C 5.21 g/m*3 7.3 C 0 km/h
2371 12-01-2004 01:40:01 7.4 C 5.01 g/m*3 7.4 C 0 km/h
2372 12-01-2004 01:52:01 7.2 C 5.02 g/m*3 7.2 C 0 km/h
2373 12-01-2004 02:04:01 7.1 C 4.84 g/m*3 7.1 C 0 km/h
2374 12-01-2004 02:16:01 7 C 4.8 g/m*3 7 C 0 km/h
2375 12-01-2004 02:28:01 6.9 C 4.77 g/m*3 6.9 C 0 km/h
Sensor: Nr:Datum:Temp:Abs-Feuchte:Windchill:Wind:
Aussen-T/F 2376 12-01-2004 02:41:02 6.8 C 4.74 g/m*3 6.8 C 0 km/h
2377 12-01-2004 02:53:02 6.7 C 4.79 g/m*3 6.7 C 0 km/h
2378 12-01-2004 03:05:02 6.4 C 4.55 g/m*3 6.4 C 0 km/h
2379 12-01-2004 03:17:02 6.1 C 4.46 g/m*3 6.1 C 0 km/h
2380 12-01-2004 03:29:02 5.9 C 4.54 g/m*3 5.9 C 0 km/h
2381 12-01-2004 03:41:00 6 C 4.5 g/m*3 6 C 0 km/h
2382 12-01-2004 03:53:00 6 C 4.43 g/m*3 6 C 0 km/h
2383 12-01-2004 04:05:58 5.8 C 4.3 g/m*3 5.8 C 0 km/h
2384 12-01-2004 04:17:58 5.8 C 4.3 g/m*3 5.8 C 0 km/h
2385 12-01-2004 04:29:58 5.6 C 4.31 g/m*3 5.6 C 0 km/h
2386 12-01-2004 04:41:01 5.2 C 4.27 g/m*3 5.2 C 0 km/h
2387 12-01-2004 04:53:01 4.7 C 4.4 g/m*3 4.7 C 0 km/h
2388 12-01-2004 05:05:01 5.6 C 4.52 g/m*3 5.6 C 0 km/h
2389 12-01-2004 05:17:01 5.5 C 4.49 g/m*3 5.5 C 0 km/h
2390 12-01-2004 05:29:01 5.8 C 4.58 g/m*3 5.8 C 0 km/h
2391 12-01-2004 05:41:00 5.6 C 4.6 g/m*3 5.6 C 0 km/h
2392 12-01-2004 05:53:00 5.8 C 4.66 g/m*3 5.8 C 0 km/h
2393 12-01-2004 06:05:58 5.7 C 4.7 g/m*3 5.7 C 0 km/h
2394 12-01-2004 06:17:58 5.5 C 4.71 g/m*3 5.5 C 0 km/h
2395 12-01-2004 06:29:58 5.6 C 4.74 g/m*3 5.6 C 0 km/h
2396 12-01-2004 06:41:01 5.9 C 4.76 g/m*3 5.9 C 0 km/h
2397 12-01-2004 06:53:01 5.6 C 4.74 g/m*3 5.6 C 0 km/h
2398 12-01-2004 07:05:01 5.7 C 4.77 g/m*3 5.7 C 0 km/h
2399 12-01-2004 07:17:01 5.8 C 4.8 g/m*3 5.8 C 0 km/h
2400 12-01-2004 07:29:01 5.6 C 4.74 g/m*3 5.6 C 0 km/h
Sensor: Nr:Datum:Temp:Abs-Feuchte:Windchill:Wind:
Aussen-T/F 2401 12-01-2004 07:41:01 5.4 C 4.74 g/m*3 5.4 C 0 km/h
2402 12-01-2004 07:53:01 5.3 C 4.78 g/m*3 5.3 C 0 km/h
2403 12-01-2004 08:05:01 5.1 C 4.79 g/m*3 5.1 C 0 km/h
2404 12-01-2004 08:17:01 5.1 C 4.86 g/m*3 5.1 C 0 km/h
2405 12-01-2004 08:29:01 5.2 C 4.82 g/m*3 5.2 C 0 km/h
2406 12-01-2004 08:41:00 5.1 C 4.79 g/m*3 5.1 C 0 km/h
2407 12-01-2004 08:53:00 5.5 C 4.92 g/m*3 5.5 C 0 km/h
2408 12-01-2004 09:05:59 5.5 C 4.85 g/m*3 5.5 C 0 km/h
2409 12-01-2004 09:17:59 5.6 C 4.88 g/m*3 5.6 C 0 km/h
2410 12-01-2004 09:29:59 5.9 C 4.9 g/m*3 5.9 C 0 km/h
2411 12-01-2004 09:41:00 5.9 C 4.9 g/m*3 5.9 C 0 km/h
2412 12-01-2004 09:53:00 6.2 C 4.85 g/m*3 6.2 C 0 km/h
2413 12-01-2004 10:05:00 6.4 C 4.84 g/m*3 6.4 C 0 km/h
2414 12-01-2004 10:17:00 6.5 C 4.8 g/m*3 6.5 C 0 km/h
2415 12-01-2004 10:29:00 6.5 C 4.8 g/m*3 6.5 C 0 km/h
2416 12-01-2004 10:41:01 6.7 C 4.86 g/m*3 6.7 C 0 km/h
2417 12-01-2004 10:53:01 6.7 C 4.86 g/m*3 6.7 C 0 km/h
2418 12-01-2004 11:05:01 6.8 C 4.97 g/m*3 6.8 C 0 km/h
2419 12-01-2004 11:17:01 6.8 C 4.89 g/m*3 6.8 C 0 km/h
2420 12-01-2004 11:29:01 6.9 C 5 g/m*3 6.9 C 0 km/h
2421 12-01-2004 11:41:00 7 C 4.96 g/m*3 7 C 0 km/h
2422 12-01-2004 11:53:00 7.2 C 4.95 g/m*3 7.2 C 0 km/h
2423 12-01-2004 12:05:59 7.2 C 4.95 g/m*3 7.2 C 0 km/h
2424 12-01-2004 12:17:59 7.1 C 4.99 g/m*3 7.1 C 0 km/h
2425 12-01-2004 12:29:59 7.1 C 5.15 g/m*3 7.1 C 0 km/h
Sensor: Nr:Datum:Temp:Abs-Feuchte:Windchill:Wind:
Aussen-T/F 2426 12-01-2004 12:41:00 7.1 C 5.07 g/m*3 7.1 C 0 km/h
2427 12-01-2004 12:53:00 6.9 C 5.23 g/m*3 6.9 C 0 km/h
2428 12-01-2004 13:05:00 6.8 C 5.28 g/m*3 6.8 C 0 km/h
2429 12-01-2004 13:17:00 6.8 C 5.28 g/m*3 6.8 C 0 km/h
2430 12-01-2004 13:29:00 6.8 C 5.28 g/m*3 6.8 C 0 km/h
2431 12-01-2004 13:41:01 6.6 C 5.36 g/m*3 6.6 C 0 km/h
2432 12-01-2004 13:53:01 6.3 C 5.33 g/m*3 6.3 C 0 km/h
2433 12-01-2004 14:05:01 6 C 5.3 g/m*3 6 C 0 km/h
2434 12-01-2004 14:17:01 5.7 C 5.48 g/m*3 5.7 C 0 km/h
2435 12-01-2004 14:29:01 5.5 C 5.55 g/m*3 5.5 C 0 km/h
2436 12-01-2004 14:41:01 5.4 C 5.58 g/m*3 5.4 C 0 km/h
2437 12-01-2004 14:53:01 5.4 C 5.65 g/m*3 5.4 C 0 km/h
2438 12-01-2004 15:05:00 5.3 C 5.68 g/m*3 5.3 C 0 km/h
2439 12-01-2004 15:17:00 5.3 C 5.75 g/m*3 5.3 C 0 km/h
2440 12-01-2004 15:29:00 5.2 C 5.78 g/m*3 5.2 C 0 km/h
2441 12-01-2004 15:41:01 5.1 C 5.75 g/m*3 5.1 C 0 km/h
2442 12-01-2004 15:53:01 5 C 5.78 g/m*3 5 C 0 km/h
2443 12-01-2004 16:05:01 4.9 C 5.81 g/m*3 4.9 C 0 km/h
2444 12-01-2004 16:17:01 4.9 C 5.81 g/m*3 4.9 C 0 km/h
2445 12-01-2004 16:29:01 4.7 C 5.73 g/m*3 4.7 C 0 km/h
2446 12-01-2004 16:41:01 4.6 C 5.69 g/m*3 4.6 C 0 km/h
2447 12-01-2004 16:53:01 4.5 C 5.65 g/m*3 4.5 C 0 km/h
2448 12-01-2004 17:05:01 4.4 C 5.62 g/m*3 4.4 C 0 km/h
2449 12-01-2004 17:17:01 4.5 C 5.65 g/m*3 4.5 C 0 km/h
2450 12-01-2004 17:29:01 4.4 C 5.68 g/m*3 4.4 C 0 km/h
Sensor: Nr:Datum:Temp:Abs-Feuchte:Windchill:Wind:
Aussen-T/F 2451 12-01-2004 17:41:01 4.5 C 5.72 g/m*3 4.5 C 0 km/h
2452 12-01-2004 17:53:01 4.4 C 5.75 g/m*3 4.4 C 0 km/h
2453 12-01-2004 18:05:01 4.6 C 5.82 g/m*3 4.6 C 0 km/h
2454 12-01-2004 18:17:01 4.6 C 5.82 g/m*3 4.6 C 0 km/h
2455 12-01-2004 18:29:01 4.6 C 5.82 g/m*3 4.6 C 0 km/h
2456 12-01-2004 18:41:00 4.7 C 5.93 g/m*3 4.7 C 0 km/h
2457 12-01-2004 18:53:00 4.7 C 5.93 g/m*3 4.7 C 0 km/h
2458 12-01-2004 19:05:01 4.7 C 5.93 g/m*3 4.7 C 0 km/h
2459 12-01-2004 19:17:01 5 C 6.05 g/m*3 5 C 0 km/h
2460 12-01-2004 19:29:01 5.6 C 6.29 g/m*3 5.6 C 0 km/h
2461 12-01-2004 19:41:59 5.5 C 6.25 g/m*3 5.5 C 0 km/h
2462 12-01-2004 19:52:59 5.3 C 5.89 g/m*3 5.3 C 0 km/h
2463 12-01-2004 20:05:58 4.8 C 5.63 g/m*3 4.8 C 0 km/h
2464 12-01-2004 20:17:58 4.4 C 5.35 g/m*3 4.4 C 0 km/h
2465 12-01-2004 20:29:58 4.4 C 5.29 g/m*3 4.4 C 0 km/h
2466 12-01-2004 20:41:01 4.4 C 5.29 g/m*3 4.4 C 0 km/h
2467 12-01-2004 20:53:01 4.4 C 5.29 g/m*3 4.4 C 0 km/h
2468 12-01-2004 21:05:01 4.4 C 5.29 g/m*3 4.4 C 0 km/h
2469 12-01-2004 21:17:01 4.5 C 5.32 g/m*3 4.5 C 0 km/h
2470 12-01-2004 21:29:01 4.8 C 5.43 g/m*3 4.8 C 0 km/h
2471 12-01-2004 21:41:01 5.1 C 5.34 g/m*3 5.1 C 0 km/h
2472 12-01-2004 21:53:01 5.1 C 5.34 g/m*3 5.1 C 0 km/h
2473 12-01-2004 22:05:01 5.1 C 5.34 g/m*3 5.1 C 0 km/h
2474 12-01-2004 22:17:01 5.1 C 5.4 g/m*3 5.1 C 0 km/h
2475 12-01-2004 22:29:01 5.1 C 5.4 g/m*3 5.1 C 0 km/h
Sensor: Nr:Datum:Temp:Abs-Feuchte:Windchill:Wind:
Aussen-T/F 2476 12-01-2004 22:41:01 5.4 C 5.51 g/m*3 5.4 C 0 km/h
2477 12-01-2004 22:53:01 5.7 C 5.48 g/m*3 5.7 C 0 km/h
2478 12-01-2004 23:05:00 5.7 C 5.48 g/m*3 5.7 C 0 km/h
2479 12-01-2004 23:17:00 6 C 5.44 g/m*3 6 C 0 km/h
2480 12-01-2004 23:29:00 6.2 C 5.44 g/m*3 6.2 C 0 km/h
2481 12-01-2004 23:41:01 6.3 C 5.4 g/m*3 6.3 C 0 km/h
2482 12-01-2004 23:53:01 6.5 C 5.47 g/m*3 6.5 C 0 km/h
2483 13-01-2004 00:05:01 6.4 C 5.44 g/m*3 6.4 C 0 km/h
2484 13-01-2004 00:17:01 6.4 C 5.51 g/m*3 6.4 C 0 km/h
2485 13-01-2004 00:29:01 6.4 C 5.51 g/m*3 6.4 C 0 km/h
2486 13-01-2004 00:41:01 6.5 C 5.55 g/m*3 6.5 C 0 km/h
2487 13-01-2004 00:53:01 6.6 C 5.59 g/m*3 6.6 C 0 km/h
2488 13-01-2004 01:05:01 6.7 C 5.55 g/m*3 6.7 C 0 km/h
2489 13-01-2004 01:17:01 6.7 C 5.55 g/m*3 6.7 C 0 km/h
2490 13-01-2004 01:29:01 6.7 C 5.55 g/m*3 6.7 C 0 km/h
2491 13-01-2004 01:41:00 6.7 C 5.47 g/m*3 6.7 C 0 km/h
2492 13-01-2004 01:53:00 6.7 C 5.47 g/m*3 6.7 C 0 km/h
2493 13-01-2004 02:05:59 6.6 C 5.51 g/m*3 6.6 C 0 km/h
2494 13-01-2004 02:17:59 6.4 C 5.44 g/m*3 6.4 C 0 km/h
2495 13-01-2004 02:29:59 6.1 C 5.41 g/m*3 6.1 C 0 km/h
2496 13-01-2004 02:42:02 6.1 C 5.41 g/m*3 6.1 C 0 km/h
2497 13-01-2004 02:54:02 6.4 C 5.44 g/m*3 6.4 C 0 km/h
2498 13-01-2004 03:06:02 6.5 C 5.4 g/m*3 6.5 C 0 km/h
2499 13-01-2004 03:18:02 6.4 C 5.36 g/m*3 6.4 C 0 km/h
2500 13-01-2004 03:30:02 6.5 C 5.47 g/m*3 6.5 C 0 km/h
Sensor: Nr:Datum:Temp:Abs-Feuchte:Windchill:Wind:
Aussen-T/F 2501 13-01-2004 03:42:00 6.4 C 5.44 g/m*3 6.4 C 0 km/h
2502 13-01-2004 03:54:00 6.3 C 5.48 g/m*3 6.3 C 0 km/h
2503 13-01-2004 04:06:59 6.2 C 5.44 g/m*3 6.2 C 0 km/h
2504 13-01-2004 04:18:59 6.3 C 5.48 g/m*3 6.3 C 0 km/h
2505 13-01-2004 04:30:59 6.4 C 5.51 g/m*3 6.4 C 0 km/h
2506 13-01-2004 04:42:01 6.5 C 5.47 g/m*3 6.5 C 0 km/h
2507 13-01-2004 04:54:01 6.7 C 5.55 g/m*3 6.7 C 0 km/h
2508 13-01-2004 05:06:00 6.6 C 5.51 g/m*3 6.6 C 0 km/h
2509 13-01-2004 05:18:00 6.7 C 5.62 g/m*3 6.7 C 0 km/h
2510 13-01-2004 05:30:00 6.6 C 5.59 g/m*3 6.6 C 0 km/h
2511 13-01-2004 05:42:01 6.5 C 5.55 g/m*3 6.5 C 0 km/h
2512 13-01-2004 05:54:01 6.2 C 5.74 g/m*3 6.2 C 0 km/h
2513 13-01-2004 06:06:01 6 C 5.88 g/m*3 6 C 0 km/h
2514 13-01-2004 06:18:01 6 C 5.95 g/m*3 6 C 0 km/h
2515 13-01-2004 06:30:01 6 C 5.95 g/m*3 6 C 0 km/h
2516 13-01-2004 06:42:01 5.9 C 6.06 g/m*3 5.9 C 0 km/h
2517 13-01-2004 06:54:01 5.9 C 6.13 g/m*3 5.9 C 0 km/h
2518 13-01-2004 07:06:01 5.8 C 6.09 g/m*3 5.8 C 0 km/h
2519 13-01-2004 07:18:01 5.8 C 6.16 g/m*3 5.8 C 0 km/h
2520 13-01-2004 07:30:01 5.8 C 6.16 g/m*3 5.8 C 0 km/h
2521 13-01-2004 07:42:00 5.9 C 6.27 g/m*3 5.9 C 0 km/h
2522 13-01-2004 07:54:00 6.1 C 6.28 g/m*3 6.1 C 0 km/h
2523 13-01-2004 08:06:58 6.3 C 6.37 g/m*3 6.3 C 0 km/h
2524 13-01-2004 08:18:58 6.4 C 6.41 g/m*3 6.4 C 0 km/h
2525 13-01-2004 08:30:58 6.4 C 6.41 g/m*3 6.4 C 0 km/h
Sensor: Nr:Datum:Temp:Abs-Feuchte:Windchill:Wind:
Aussen-T/F 2526 13-01-2004 08:42:01 6.5 C 6.45 g/m*3 6.5 C 0 km/h
2527 13-01-2004 08:54:01 6.7 C 6.53 g/m*3 6.7 C 0 km/h
2528 13-01-2004 09:06:01 6.7 C 6.53 g/m*3 6.7 C 0 km/h
2529 13-01-2004 09:18:01 6.7 C 6.53 g/m*3 6.7 C 0 km/h
2530 13-01-2004 09:30:01 6.7 C 6.61 g/m*3 6.7 C 0 km/h
2531 13-01-2004 09:42:00 6.9 C 6.7 g/m*3 6.9 C 0 km/h
2532 13-01-2004 09:54:00 6.9 C 6.77 g/m*3 6.9 C 0 km/h
2533 13-01-2004 10:06:59 7 C 6.74 g/m*3 7 C 0 km/h
2534 13-01-2004 10:18:59 7.3 C 6.95 g/m*3 7.3 C 0 km/h
2535 13-01-2004 10:30:59 7.4 C 7 g/m*3 7.4 C 0 km/h
2536 13-01-2004 10:42:01 7.5 C 7.04 g/m*3 7.5 C 0 km/h
2537 13-01-2004 10:54:01 7.7 C 7.05 g/m*3 7.7 C 0 km/h
2538 13-01-2004 11:06:01 8.2 C 7.2 g/m*3 8.2 C 0 km/h
2539 13-01-2004 11:18:01 9.1 C 7.45 g/m*3 9.1 C 0 km/h
2540 13-01-2004 11:30:01 10 C 7.33 g/m*3 10 C 0 km/h
2541 13-01-2004 11:42:00 10.2 C 7.14 g/m*3 10.2 C 0 km/h
2542 13-01-2004 11:54:00 10.3 C 7.18 g/m*3 10.3 C 0 km/h
2543 13-01-2004 12:06:59 10.2 C 7.04 g/m*3 10.2 C 0 km/h
2544 13-01-2004 12:18:59 10.5 C 6.98 g/m*3 10.5 C 0 km/h
2545 13-01-2004 12:30:59 10.4 C 6.84 g/m*3 10.4 C 0 km/h
2546 13-01-2004 12:42:01 10.8 C 6.62 g/m*3 10.8 C 0 km/h
2547 13-01-2004 12:54:01 11 C 6.41 g/m*3 11 C 0 km/h
2548 13-01-2004 13:06:01 11 C 6.21 g/m*3 11 C 0 km/h
2549 13-01-2004 13:18:01 11 C 6.21 g/m*3 11 C 0 km/h
2550 13-01-2004 13:30:01 11.2 C 5.78 g/m*3 11.2 C 0 km/h
Sensor: Nr:Datum:Temp:Abs-Feuchte:Windchill:Wind:
Aussen-T/F 2551 13-01-2004 13:42:00 11.1 C 5.74 g/m*3 11.1 C 0 km/h
2552 13-01-2004 13:54:00 11 C 5.81 g/m*3 11 C 0 km/h
2553 13-01-2004 14:06:59 11 C 5.71 g/m*3 11 C 0 km/h
2554 13-01-2004 14:18:59 10.4 C 5.98 g/m*3 10.4 C 0 km/h
2555 13-01-2004 14:30:59 10.6 C 5.86 g/m*3 10.6 C 0 km/h
2556 13-01-2004 14:42:01 10.6 C 5.56 g/m*3 10.6 C 0 km/h
2557 13-01-2004 14:54:01 10.6 C 5.47 g/m*3 10.6 C 0 km/h
2558 13-01-2004 15:06:01 10.4 C 5.3 g/m*3 10.4 C 0 km/h
2559 13-01-2004 15:18:01 10.4 C 5.3 g/m*3 10.4 C 0 km/h
2560 13-01-2004 15:30:01 10.1 C 5.3 g/m*3 10.1 C 0 km/h
2561 13-01-2004 15:42:00 10.2 C 5.23 g/m*3 10.2 C 0 km/h
2562 13-01-2004 15:54:00 10 C 5.26 g/m*3 10 C 0 km/h
2563 13-01-2004 16:06:59 9.6 C 5.4 g/m*3 9.6 C 0 km/h
2564 13-01-2004 16:18:59 9.4 C 5.25 g/m*3 9.4 C 0 km/h
2565 13-01-2004 16:30:59 9.2 C 5.27 g/m*3 9.2 C 0 km/h
2566 13-01-2004 16:42:01 9 C 5.03 g/m*3 9 C 0 km/h
2567 13-01-2004 16:54:01 8.9 C 4.99 g/m*3 8.9 C 0 km/h
2568 13-01-2004 17:06:01 8.8 C 5.05 g/m*3 8.8 C 0 km/h
2569 13-01-2004 17:18:01 8.6 C 5.07 g/m*3 8.6 C 0 km/h
2570 13-01-2004 17:30:01 8.6 C 5.07 g/m*3 8.6 C 0 km/h
2571 13-01-2004 17:42:00 8.5 C 5.21 g/m*3 8.5 C 0 km/h
2572 13-01-2004 17:54:00 8.4 C 5.17 g/m*3 8.4 C 0 km/h
2573 13-01-2004 18:06:59 8.3 C 5.23 g/m*3 8.3 C 0 km/h
2574 13-01-2004 18:18:59 8.2 C 5.19 g/m*3 8.2 C 0 km/h
2575 13-01-2004 18:30:59 8 C 5.29 g/m*3 8 C 0 km/h
Sensor: Nr:Datum:Temp:Abs-Feuchte:Windchill:Wind:
Aussen-T/F 2576 13-01-2004 18:42:01 8 C 5.29 g/m*3 8 C 0 km/h
2577 13-01-2004 18:54:01 8.1 C 5.24 g/m*3 8.1 C 0 km/h
2578 13-01-2004 19:06:01 8 C 5.29 g/m*3 8 C 0 km/h
2579 13-01-2004 19:18:01 8 C 5.21 g/m*3 8 C 0 km/h
2580 13-01-2004 19:30:01 8 C 5.21 g/m*3 8 C 0 km/h
2581 13-01-2004 19:42:01 7.9 C 5.34 g/m*3 7.9 C 0 km/h
2582 13-01-2004 19:54:01 7.6 C 5.24 g/m*3 7.6 C 0 km/h
2583 13-01-2004 20:06:02 7.6 C 5.16 g/m*3 7.6 C 0 km/h
2584 13-01-2004 20:18:02 7.7 C 5.11 g/m*3 7.7 C 0 km/h
2585 13-01-2004 20:30:02 7.8 C 5.14 g/m*3 7.8 C 0 km/h
2586 13-01-2004 20:42:00 7.7 C 5.11 g/m*3 7.7 C 0 km/h
2587 13-01-2004 20:54:00 7.8 C 5.06 g/m*3 7.8 C 0 km/h
2588 13-01-2004 21:06:59 7.8 C 4.9 g/m*3 7.8 C 0 km/h
2589 13-01-2004 21:18:59 7.9 C 4.93 g/m*3 7.9 C 0 km/h
2590 13-01-2004 21:30:59 7.8 C 4.98 g/m*3 7.8 C 0 km/h
2591 13-01-2004 21:42:01 7.7 C 4.95 g/m*3 7.7 C 0 km/h
2592 13-01-2004 21:54:01 7.6 C 4.91 g/m*3 7.6 C 0 km/h
2593 13-01-2004 22:06:01 7.6 C 4.83 g/m*3 7.6 C 0 km/h
2594 13-01-2004 22:18:01 7.7 C 4.62 g/m*3 7.7 C 0 km/h
2595 13-01-2004 22:30:01 7.7 C 4.54 g/m*3 7.7 C 0 km/h
2596 13-01-2004 22:42:01 7.6 C 4.51 g/m*3 7.6 C 0 km/h
2597 13-01-2004 22:54:01 7.5 C 4.48 g/m*3 7.5 C 0 km/h
2598 13-01-2004 23:06:01 7.2 C 4.4 g/m*3 7.2 C 0 km/h
2599 13-01-2004 23:18:01 7.1 C 4.29 g/m*3 7.1 C 0 km/h
2600 13-01-2004 23:30:01 6.9 C 4.23 g/m*3 6.9 C 0 km/h
Sensor: Nr:Datum:Temp:Abs-Feuchte:Windchill:Wind:
Aussen-T/F 2601 13-01-2004 23:42:00 6.8 C 4.21 g/m*3 6.8 C 0 km/h
2602 13-01-2004 23:54:00 6.7 C 4.33 g/m*3 6.7 C 0 km/h
2603 14-01-2004 00:06:59 6.8 C 4.44 g/m*3 6.8 C 0 km/h
2604 14-01-2004 00:18:59 6.5 C 4.27 g/m*3 6.5 C 0 km/h
2605 14-01-2004 00:30:59 6.8 C 4.28 g/m*3 6.8 C 0 km/h
2606 14-01-2004 00:42:01 6.5 C 4.12 g/m*3 6.5 C 0 km/h
2607 14-01-2004 00:54:01 6.5 C 4.2 g/m*3 6.5 C 0 km/h
2608 14-01-2004 01:06:01 6.3 C 4.15 g/m*3 6.3 C 0 km/h
2609 14-01-2004 01:18:01 6.2 C 4.27 g/m*3 6.2 C 0 km/h
2610 14-01-2004 01:30:01 6.2 C 4.34 g/m*3 6.2 C 0 km/h
2611 14-01-2004 01:42:00 6 C 4.28 g/m*3 6 C 0 km/h
2612 14-01-2004 01:54:00 5.9 C 4.4 g/m*3 5.9 C 0 km/h
2613 14-01-2004 02:06:58 6 C 4.35 g/m*3 6 C 0 km/h
2614 14-01-2004 02:18:58 5.9 C 4.47 g/m*3 5.9 C 0 km/h
2615 14-01-2004 02:30:58 5.9 C 4.47 g/m*3 5.9 C 0 km/h
2616 14-01-2004 02:43:02 6.1 C 4.46 g/m*3 6.1 C 0 km/h
2617 14-01-2004 02:55:02 6.7 C 4.41 g/m*3 6.7 C 0 km/h
2618 14-01-2004 03:07:02 6.4 C 4.4 g/m*3 6.4 C 0 km/h
2619 14-01-2004 03:19:02 6.2 C 4.41 g/m*3 6.2 C 0 km/h
2620 14-01-2004 03:31:02 6.5 C 4.35 g/m*3 6.5 C 0 km/h
2621 14-01-2004 03:43:00 6.4 C 4.47 g/m*3 6.4 C 0 km/h
2622 14-01-2004 03:55:00 6 C 4.57 g/m*3 6 C 0 km/h
2623 14-01-2004 04:07:59 5.8 C 4.66 g/m*3 5.8 C 0 km/h
2624 14-01-2004 04:19:59 5.5 C 4.71 g/m*3 5.5 C 0 km/h
2625 14-01-2004 04:31:01 5.1 C 4.72 g/m*3 5.1 C 0 km/h
Sensor: Nr:Datum:Temp:Abs-Feuchte:Windchill:Wind:
Aussen-T/F 2626 14-01-2004 04:43:01 5 C 4.62 g/m*3 5 C 0 km/h
2627 14-01-2004 04:55:01 5 C 4.55 g/m*3 5 C 0 km/h
2628 14-01-2004 05:07:01 5.1 C 4.51 g/m*3 5.1 C 0 km/h
2629 14-01-2004 05:19:01 5.3 C 4.51 g/m*3 5.3 C 0 km/h
2630 14-01-2004 05:31:01 5.7 C 4.41 g/m*3 5.7 C 0 km/h
2631 14-01-2004 05:43:00 5.7 C 4.2 g/m*3 5.7 C 0 km/h
2632 14-01-2004 05:55:00 5.4 C 4.26 g/m*3 5.4 C 0 km/h
2633 14-01-2004 06:07:58 5.3 C 4.23 g/m*3 5.3 C 0 km/h
2634 14-01-2004 06:19:58 5.4 C 4.26 g/m*3 5.4 C 0 km/h
2635 14-01-2004 06:31:01 5.1 C 4.24 g/m*3 5.1 C 0 km/h
2636 14-01-2004 06:43:01 5 C 4.21 g/m*3 5 C 0 km/h
2637 14-01-2004 06:55:01 4.8 C 4.22 g/m*3 4.8 C 0 km/h
2638 14-01-2004 07:07:01 4.8 C 4.16 g/m*3 4.8 C 0 km/h
2639 14-01-2004 07:19:01 4.7 C 4.13 g/m*3 4.7 C 0 km/h
2640 14-01-2004 07:31:01 4.7 C 4.06 g/m*3 4.7 C 0 km/h
2641 14-01-2004 07:43:01 4.8 C 4.09 g/m*3 4.8 C 0 km/h
2642 14-01-2004 07:55:01 4.7 C 4.06 g/m*3 4.7 C 0 km/h
2643 14-01-2004 08:07:01 4.7 C 4 g/m*3 4.7 C 0 km/h
2644 14-01-2004 08:19:01 4.6 C 3.97 g/m*3 4.6 C 0 km/h
2645 14-01-2004 08:31:01 4.5 C 3.94 g/m*3 4.5 C 0 km/h
2646 14-01-2004 08:43:00 4.4 C 3.98 g/m*3 4.4 C 0 km/h
2647 14-01-2004 08:55:00 4.3 C 3.96 g/m*3 4.3 C 0 km/h
2648 14-01-2004 09:07:59 4.3 C 3.96 g/m*3 4.3 C 0 km/h
2649 14-01-2004 09:19:59 4.3 C 4.02 g/m*3 4.3 C 0 km/h
2650 14-01-2004 09:31:01 4.8 C 4.16 g/m*3 4.8 C 0 km/h
Sensor: Nr:Datum:Temp:Abs-Feuchte:Windchill:Wind:
Aussen-T/F 2651 14-01-2004 09:43:01 5.2 C 4.13 g/m*3 5.2 C 0 km/h
2652 14-01-2004 09:55:01 5.5 C 4.21 g/m*3 5.5 C 0 km/h
2653 14-01-2004 10:07:01 5.4 C 4.33 g/m*3 5.4 C 0 km/h
2654 14-01-2004 10:19:01 5.7 C 4.41 g/m*3 5.7 C 0 km/h
2655 14-01-2004 10:31:01 5.9 C 4.47 g/m*3 5.9 C 0 km/h
2656 14-01-2004 10:43:00 6.1 C 4.38 g/m*3 6.1 C 0 km/h
2657 14-01-2004 10:55:00 6.4 C 4.47 g/m*3 6.4 C 0 km/h
2658 14-01-2004 11:07:59 6.8 C 4.51 g/m*3 6.8 C 0 km/h
2659 14-01-2004 11:19:59 6.9 C 4.46 g/m*3 6.9 C 0 km/h
2660 14-01-2004 11:31:01 6.9 C 4.39 g/m*3 6.9 C 0 km/h
2661 14-01-2004 11:43:01 6.8 C 4.28 g/m*3 6.8 C 0 km/h
2662 14-01-2004 11:55:01 6.6 C 4.23 g/m*3 6.6 C 0 km/h
2663 14-01-2004 12:07:01 6.8 C 4.21 g/m*3 6.8 C 0 km/h
2664 14-01-2004 12:19:01 7.2 C 4.24 g/m*3 7.2 C 0 km/h
2665 14-01-2004 12:31:01 7.4 C 4.29 g/m*3 7.4 C 0 km/h
2666 14-01-2004 12:43:00 7.5 C 4.24 g/m*3 7.5 C 0 km/h
2667 14-01-2004 12:55:00 7.7 C 4.22 g/m*3 7.7 C 0 km/h
2668 14-01-2004 13:07:59 7.9 C 4.19 g/m*3 7.9 C 0 km/h
2669 14-01-2004 13:19:59 8 C 4.13 g/m*3 8 C 0 km/h
2670 14-01-2004 13:31:01 7.8 C 4.16 g/m*3 7.8 C 0 km/h
2671 14-01-2004 13:43:01 7.8 C 4.16 g/m*3 7.8 C 0 km/h
2672 14-01-2004 13:55:01 7.6 C 4.19 g/m*3 7.6 C 0 km/h
2673 14-01-2004 14:07:01 7.6 C 4.27 g/m*3 7.6 C 0 km/h
2674 14-01-2004 14:19:01 7.5 C 4.32 g/m*3 7.5 C 0 km/h
2675 14-01-2004 14:31:01 7.4 C 4.37 g/m*3 7.4 C 0 km/h
Sensor: Nr:Datum:Temp:Abs-Feuchte:Windchill:Wind:
Aussen-T/F 2676 14-01-2004 14:43:00 7.6 C 4.51 g/m*3 7.6 C 0 km/h
2677 14-01-2004 14:55:00 8 C 4.46 g/m*3 8 C 0 km/h
2678 14-01-2004 15:07:58 8.3 C 4.47 g/m*3 8.3 C 0 km/h
2679 14-01-2004 15:19:58 8.2 C 4.35 g/m*3 8.2 C 0 km/h
2680 14-01-2004 15:31:01 8.1 C 4.33 g/m*3 8.1 C 0 km/h
2681 14-01-2004 15:43:01 8 C 4.3 g/m*3 8 C 0 km/h
2682 14-01-2004 15:55:01 8 C 4.3 g/m*3 8 C 0 km/h
2683 14-01-2004 16:07:01 8 C 4.3 g/m*3 8 C 0 km/h
2684 14-01-2004 16:19:01 7.7 C 4.38 g/m*3 7.7 C 0 km/h
2685 14-01-2004 16:31:01 7.7 C 4.38 g/m*3 7.7 C 0 km/h
2686 14-01-2004 16:43:00 7.4 C 4.45 g/m*3 7.4 C 0 km/h
2687 14-01-2004 16:55:00 7.2 C 4.55 g/m*3 7.2 C 0 km/h
2688 14-01-2004 17:07:59 6.5 C 4.87 g/m*3 6.5 C 0 km/h
2689 14-01-2004 17:19:59 6.7 C 5.01 g/m*3 6.7 C 0 km/h
2690 14-01-2004 17:31:01 6.3 C 4.96 g/m*3 6.3 C 0 km/h
2691 14-01-2004 17:43:01 6.4 C 5.07 g/m*3 6.4 C 0 km/h
2692 14-01-2004 17:55:01 6 C 5.08 g/m*3 6 C 0 km/h
2693 14-01-2004 18:07:01 6.1 C 5.11 g/m*3 6.1 C 0 km/h
2694 14-01-2004 18:19:01 6.3 C 5.03 g/m*3 6.3 C 0 km/h
2695 14-01-2004 18:31:01 6.3 C 5.03 g/m*3 6.3 C 0 km/h
2696 14-01-2004 18:43:00 6.3 C 4.96 g/m*3 6.3 C 0 km/h
2697 14-01-2004 18:55:00 5.7 C 5.12 g/m*3 5.7 C 0 km/h
2698 14-01-2004 19:07:58 5 C 5.23 g/m*3 5 C 0 km/h
2699 14-01-2004 19:19:58 4.7 C 5.4 g/m*3 4.7 C 0 km/h
2700 14-01-2004 19:31:01 4.7 C 5.46 g/m*3 4.7 C 0 km/h
Sensor: Nr:Datum:Temp:Abs-Feuchte:Windchill:Wind:
Aussen-T/F 2701 14-01-2004 19:43:01 4.7 C 5.46 g/m*3 4.7 C 0 km/h
2702 14-01-2004 19:55:01 4.7 C 5.46 g/m*3 4.7 C 0 km/h
2703 14-01-2004 20:07:01 4.6 C 5.49 g/m*3 4.6 C 0 km/h
2704 14-01-2004 20:19:01 4.5 C 5.46 g/m*3 4.5 C 0 km/h
2705 14-01-2004 20:31:01 4.5 C 5.46 g/m*3 4.5 C 0 km/h
2706 14-01-2004 20:43:01 4.4 C 5.42 g/m*3 4.4 C 0 km/h
2707 14-01-2004 20:55:01 4.3 C 5.32 g/m*3 4.3 C 0 km/h
2708 14-01-2004 21:07:02 4.3 C 5.25 g/m*3 4.3 C 0 km/h
2709 14-01-2004 21:19:02 4.3 C 5.25 g/m*3 4.3 C 0 km/h
2710 14-01-2004 21:31:02 4.2 C 5.09 g/m*3 4.2 C 0 km/h
2711 14-01-2004 21:43:00 4 C 5.02 g/m*3 4 C 0 km/h
2712 14-01-2004 21:55:00 3.8 C 5.02 g/m*3 3.8 C 0 km/h
2713 14-01-2004 22:07:59 3.8 C 5.08 g/m*3 3.8 C 0 km/h
2714 14-01-2004 22:19:59 4 C 5.02 g/m*3 4 C 0 km/h
2715 14-01-2004 22:31:01 4.1 C 4.99 g/m*3 4.1 C 0 km/h
2716 14-01-2004 22:43:01 4.2 C 5.09 g/m*3 4.2 C 0 km/h
2717 14-01-2004 22:55:01 4.4 C 5.09 g/m*3 4.4 C 0 km/h
2718 14-01-2004 23:07:02 4.5 C 5.06 g/m*3 4.5 C 0 km/h
2719 14-01-2004 23:19:02 4.6 C 5.1 g/m*3 4.6 C 0 km/h
2720 14-01-2004 23:31:02 4.6 C 5.03 g/m*3 4.6 C 0 km/h
2721 14-01-2004 23:43:00 4.7 C 4.93 g/m*3 4.7 C 0 km/h
2722 14-01-2004 23:55:00 4.6 C 4.96 g/m*3 4.6 C 0 km/h
2723 15-01-2004 00:07:59 4.8 C 4.96 g/m*3 4.8 C 0 km/h
2724 15-01-2004 00:19:59 4.7 C 5 g/m*3 4.7 C 0 km/h
2725 15-01-2004 00:31:01 4.5 C 5 g/m*3 4.5 C 0 km/h
Sensor: Nr:Datum:Temp:Abs-Feuchte:Windchill:Wind:
Aussen-T/F 2726 15-01-2004 00:43:01 4.4 C 5.09 g/m*3 4.4 C 0 km/h
2727 15-01-2004 00:55:01 4.3 C 5.12 g/m*3 4.3 C 0 km/h
2728 15-01-2004 01:07:00 4.2 C 5.15 g/m*3 4.2 C 0 km/h
2729 15-01-2004 01:19:00 4 C 5.02 g/m*3 4 C 0 km/h
2730 15-01-2004 01:31:00 4 C 4.9 g/m*3 4 C 0 km/h
2731 15-01-2004 01:43:01 4.2 C 4.83 g/m*3 4.2 C 0 km/h
2732 15-01-2004 01:55:01 4.4 C 4.83 g/m*3 4.4 C 0 km/h
2733 15-01-2004 02:07:01 4.2 C 4.83 g/m*3 4.2 C 0 km/h
2734 15-01-2004 02:19:01 4 C 4.9 g/m*3 4 C 0 km/h
2735 15-01-2004 02:31:01 3.8 C 5.02 g/m*3 3.8 C 0 km/h
2736 15-01-2004 02:44:59 3.6 C 5.01 g/m*3 3.6 C 0 km/h
2737 15-01-2004 02:56:59 3.6 C 5.08 g/m*3 3.6 C 0 km/h
2738 15-01-2004 03:08:59 3.7 C 5.05 g/m*3 3.7 C 0 km/h
2739 15-01-2004 03:20:59 3.5 C 4.8 g/m*3 3.5 C 0 km/h
2740 15-01-2004 03:32:01 3.5 C 4.8 g/m*3 3.5 C 0 km/h
2741 15-01-2004 03:44:01 3.2 C 4.7 g/m*3 3.2 C 0 km/h
2742 15-01-2004 03:56:01 3 C 4.7 g/m*3 3 C 0 km/h
2743 15-01-2004 04:08:01 3 C 4.76 g/m*3 3 C 0 km/h
2744 15-01-2004 04:20:01 2.8 C 4.81 g/m*3 2.8 C 0 km/h
2745 15-01-2004 04:32:01 2.6 C 4.86 g/m*3 2.6 C 0 km/h
2746 15-01-2004 04:44:01 2.6 C 4.86 g/m*3 2.6 C 0 km/h
2747 15-01-2004 04:56:01 2.5 C 4.89 g/m*3 2.5 C 0 km/h
2748 15-01-2004 05:08:01 2.7 C 4.89 g/m*3 2.7 C 0 km/h
2749 15-01-2004 05:20:01 2.9 C 4.84 g/m*3 2.9 C 0 km/h
2750 15-01-2004 05:32:00 2.8 C 4.87 g/m*3 2.8 C 0 km/h
Sensor: Nr:Datum:Temp:Abs-Feuchte:Windchill:Wind:
Aussen-T/F 2751 15-01-2004 05:44:00 2.9 C 4.96 g/m*3 2.9 C 0 km/h
2752 15-01-2004 05:56:00 3.4 C 5.07 g/m*3 3.4 C 0 km/h
2753 15-01-2004 06:08:59 3.7 C 5.05 g/m*3 3.7 C 0 km/h
2754 15-01-2004 06:20:59 4.1 C 5.06 g/m*3 4.1 C 0 km/h
2755 15-01-2004 06:32:01 4.3 C 5.06 g/m*3 4.3 C 0 km/h
2756 15-01-2004 06:44:01 4 C 4.83 g/m*3 4 C 0 km/h
2757 15-01-2004 06:56:01 2.7 C 4.72 g/m*3 2.7 C 0 km/h
2758 15-01-2004 07:08:01 2.9 C 4.9 g/m*3 2.9 C 0 km/h
2759 15-01-2004 07:20:01 4 C 4.96 g/m*3 4 C 0 km/h
2760 15-01-2004 07:32:00 4.1 C 4.8 g/m*3 4.1 C 0 km/h
2761 15-01-2004 07:44:00 4.3 C 4.67 g/m*3 4.3 C 0 km/h
2762 15-01-2004 07:56:00 4.1 C 4.61 g/m*3 4.1 C 0 km/h
2763 15-01-2004 08:08:59 4.2 C 4.57 g/m*3 4.2 C 0 km/h
2764 15-01-2004 08:20:59 4.2 C 4.51 g/m*3 4.2 C 0 km/h
2765 15-01-2004 08:32:01 4.2 C 4.45 g/m*3 4.2 C 0 km/h
2766 15-01-2004 08:44:01 4.1 C 4.35 g/m*3 4.1 C 0 km/h
2767 15-01-2004 08:56:01 4 C 4.39 g/m*3 4 C 0 km/h
2768 15-01-2004 09:08:01 3.9 C 4.42 g/m*3 3.9 C 0 km/h
2769 15-01-2004 09:20:01 3.9 C 4.42 g/m*3 3.9 C 0 km/h
2770 15-01-2004 09:32:00 4.1 C 4.35 g/m*3 4.1 C 0 km/h
2771 15-01-2004 09:44:00 4.2 C 4.32 g/m*3 4.2 C 0 km/h
2772 15-01-2004 09:56:00 4.3 C 4.28 g/m*3 4.3 C 0 km/h
2773 15-01-2004 10:08:58 4.7 C 4.2 g/m*3 4.7 C 0 km/h
2774 15-01-2004 10:20:58 4.8 C 4.29 g/m*3 4.8 C 0 km/h
2775 15-01-2004 10:32:01 4.8 C 4.29 g/m*3 4.8 C 0 km/h
Sensor: Nr:Datum:Temp:Abs-Feuchte:Windchill:Wind:
Aussen-T/F 2776 15-01-2004 10:44:01 5.1 C 4.17 g/m*3 5.1 C 0 km/h
2777 15-01-2004 10:56:01 5.2 C 4.27 g/m*3 5.2 C 0 km/h
2778 15-01-2004 11:08:01 5.3 C 4.3 g/m*3 5.3 C 0 km/h
2779 15-01-2004 11:20:01 5.3 C 4.3 g/m*3 5.3 C 0 km/h
2780 15-01-2004 11:32:00 5.4 C 4.12 g/m*3 5.4 C 0 km/h
2781 15-01-2004 11:44:00 5.5 C 4.21 g/m*3 5.5 C 0 km/h
2782 15-01-2004 11:56:00 5.4 C 4.19 g/m*3 5.4 C 0 km/h
2783 15-01-2004 12:08:58 5.3 C 4.09 g/m*3 5.3 C 0 km/h
2784 15-01-2004 12:20:58 5 C 4.01 g/m*3 5 C 0 km/h
2785 15-01-2004 12:32:01 5.2 C 3.92 g/m*3 5.2 C 0 km/h
2786 15-01-2004 12:44:01 5.1 C 3.83 g/m*3 5.1 C 0 km/h
2787 15-01-2004 12:56:01 5 C 3.81 g/m*3 5 C 0 km/h
2788 15-01-2004 13:08:00 4.9 C 3.78 g/m*3 4.9 C 0 km/h
2789 15-01-2004 13:20:00 4.7 C 3.8 g/m*3 4.7 C 0 km/h
2790 15-01-2004 13:32:01 4.8 C 3.89 g/m*3 4.8 C 0 km/h
2791 15-01-2004 13:44:01 5 C 3.81 g/m*3 5 C 0 km/h
2792 15-01-2004 13:56:01 5.1 C 3.83 g/m*3 5.1 C 0 km/h
2793 15-01-2004 14:08:01 5.1 C 3.9 g/m*3 5.1 C 0 km/h
2794 15-01-2004 14:20:01 5.3 C 3.95 g/m*3 5.3 C 0 km/h
2795 15-01-2004 14:32:01 5.3 C 3.95 g/m*3 5.3 C 0 km/h
2796 15-01-2004 14:44:01 5.3 C 4.02 g/m*3 5.3 C 0 km/h
2797 15-01-2004 14:56:01 5.2 C 4.13 g/m*3 5.2 C 0 km/h
2798 15-01-2004 15:08:00 5.3 C 4.16 g/m*3 5.3 C 0 km/h
2799 15-01-2004 15:20:00 5.3 C 4.16 g/m*3 5.3 C 0 km/h
2800 15-01-2004 15:32:01 5.3 C 4.23 g/m*3 5.3 C 0 km/h
Sensor: Nr:Datum:Temp:Abs-Feuchte:Windchill:Wind:
Aussen-T/F 2801 15-01-2004 15:44:01 5.2 C 4.2 g/m*3 5.2 C 0 km/h
2802 15-01-2004 15:56:01 4.8 C 4.29 g/m*3 4.8 C 0 km/h
2803 15-01-2004 16:08:01 4.6 C 4.3 g/m*3 4.6 C 0 km/h
2804 15-01-2004 16:20:01 4.5 C 4.34 g/m*3 4.5 C 0 km/h
2805 15-01-2004 16:32:00 4.4 C 4.37 g/m*3 4.4 C 0 km/h
2806 15-01-2004 16:44:00 4.4 C 4.37 g/m*3 4.4 C 0 km/h
2807 15-01-2004 16:56:00 4.3 C 4.35 g/m*3 4.3 C 0 km/h
2808 15-01-2004 17:08:58 4 C 4.32 g/m*3 4 C 0 km/h
2809 15-01-2004 17:20:58 4.1 C 4.42 g/m*3 4.1 C 0 km/h
2810 15-01-2004 17:32:01 4.1 C 4.35 g/m*3 4.1 C 0 km/h
2811 15-01-2004 17:44:01 3.9 C 4.42 g/m*3 3.9 C 0 km/h
2812 15-01-2004 17:56:01 3.6 C 4.33 g/m*3 3.6 C 0 km/h
2813 15-01-2004 18:08:01 3.4 C 4.34 g/m*3 3.4 C 0 km/h
2814 15-01-2004 18:20:01 3.1 C 4.31 g/m*3 3.1 C 0 km/h
2815 15-01-2004 18:32:01 3.4 C 4.34 g/m*3 3.4 C 0 km/h
2816 15-01-2004 18:44:01 3.4 C 4.34 g/m*3 3.4 C 0 km/h
2817 15-01-2004 18:56:01 3 C 4.28 g/m*3 3 C 0 km/h
2818 15-01-2004 19:08:01 3 C 4.34 g/m*3 3 C 0 km/h
2819 15-01-2004 19:20:01 2.4 C 4.28 g/m*3 2.4 C 0 km/h
2820 15-01-2004 19:32:01 2.4 C 4.4 g/m*3 2.4 C 0 km/h
2821 15-01-2004 19:44:01 2.5 C 4.43 g/m*3 2.5 C 0 km/h
2822 15-01-2004 19:56:01 3.1 C 4.55 g/m*3 3.1 C 0 km/h
2823 15-01-2004 20:08:01 3.3 C 4.43 g/m*3 3.3 C 0 km/h
2824 15-01-2004 20:20:01 2.9 C 4.43 g/m*3 2.9 C 0 km/h
2825 15-01-2004 20:32:00 3.4 C 4.58 g/m*3 3.4 C 0 km/h
Sensor: Nr:Datum:Temp:Abs-Feuchte:Windchill:Wind:
Aussen-T/F 2826 15-01-2004 20:44:00 3.7 C 4.55 g/m*3 3.7 C 0 km/h
2827 15-01-2004 20:56:00 4 C 4.45 g/m*3 4 C 0 km/h
2828 15-01-2004 21:08:58 4.1 C 4.48 g/m*3 4.1 C 0 km/h
2829 15-01-2004 21:20:58 3.9 C 4.48 g/m*3 3.9 C 0 km/h
2830 15-01-2004 21:32:01 3.6 C 4.46 g/m*3 3.6 C 0 km/h
2831 15-01-2004 21:44:01 3.4 C 4.4 g/m*3 3.4 C 0 km/h
2832 15-01-2004 21:56:01 4 C 4.45 g/m*3 4 C 0 km/h
2833 15-01-2004 22:08:01 4.3 C 4.41 g/m*3 4.3 C 0 km/h
2834 15-01-2004 22:20:01 4.6 C 4.37 g/m*3 4.6 C 0 km/h
2835 15-01-2004 22:32:00 4.6 C 4.3 g/m*3 4.6 C 0 km/h
2836 15-01-2004 22:44:00 4.7 C 4.33 g/m*3 4.7 C 0 km/h
2837 15-01-2004 22:56:00 4.7 C 4.4 g/m*3 4.7 C 0 km/h
2838 15-01-2004 23:08:58 4.5 C 4.47 g/m*3 4.5 C 0 km/h
2839 15-01-2004 23:20:58 4.5 C 4.67 g/m*3 4.5 C 0 km/h
2840 15-01-2004 23:32:01 4.5 C 4.67 g/m*3 4.5 C 0 km/h
2841 15-01-2004 23:44:01 4.8 C 4.69 g/m*3 4.8 C 0 km/h
2842 15-01-2004 23:56:01 4.6 C 4.63 g/m*3 4.6 C 0 km/h
2843 16-01-2004 00:08:01 4.7 C 4.6 g/m*3 4.7 C 0 km/h
2844 16-01-2004 00:20:01 4.8 C 4.63 g/m*3 4.8 C 0 km/h
2845 16-01-2004 00:32:01 5.1 C 4.51 g/m*3 5.1 C 0 km/h
2846 16-01-2004 00:44:01 5.1 C 4.45 g/m*3 5.1 C 0 km/h
2847 16-01-2004 00:56:01 5.1 C 4.38 g/m*3 5.1 C 0 km/h
2848 16-01-2004 01:08:01 5.1 C 4.38 g/m*3 5.1 C 0 km/h
2849 16-01-2004 01:20:01 5 C 4.35 g/m*3 5 C 0 km/h
2850 16-01-2004 01:32:00 4.9 C 4.46 g/m*3 4.9 C 0 km/h
Sensor: Nr:Datum:Temp:Abs-Feuchte:Windchill:Wind:
Aussen-T/F 2851 16-01-2004 01:44:00 4.9 C 4.46 g/m*3 4.9 C 0 km/h
2852 16-01-2004 01:56:00 5 C 4.35 g/m*3 5 C 0 km/h
2853 16-01-2004 02:08:58 5 C 4.35 g/m*3 5 C 0 km/h
2854 16-01-2004 02:20:58 5.1 C 4.31 g/m*3 5.1 C 0 km/h
2855 16-01-2004 02:33:02 5.1 C 4.31 g/m*3 5.1 C 0 km/h
2856 16-01-2004 02:45:02 5 C 4.28 g/m*3 5 C 0 km/h
2857 16-01-2004 02:57:02 5 C 4.28 g/m*3 5 C 0 km/h
2858 16-01-2004 03:09:02 5 C 4.28 g/m*3 5 C 0 km/h
2859 16-01-2004 03:21:02 5.1 C 4.24 g/m*3 5.1 C 0 km/h
2860 16-01-2004 03:33:00 5.2 C 4.2 g/m*3 5.2 C 0 km/h
2861 16-01-2004 03:45:00 5.2 C 4.27 g/m*3 5.2 C 0 km/h
2862 16-01-2004 03:57:00 5.2 C 4.34 g/m*3 5.2 C 0 km/h
2863 16-01-2004 04:09:59 5.2 C 4.34 g/m*3 5.2 C 0 km/h
2864 16-01-2004 04:21:59 5 C 4.42 g/m*3 5 C 0 km/h
2865 16-01-2004 04:33:01 4.8 C 4.63 g/m*3 4.8 C 0 km/h
2866 16-01-2004 04:45:01 4.6 C 4.7 g/m*3 4.6 C 0 km/h
2867 16-01-2004 04:57:01 4.3 C 4.8 g/m*3 4.3 C 0 km/h
2868 16-01-2004 05:09:01 4.3 C 4.86 g/m*3 4.3 C 0 km/h
2869 16-01-2004 05:21:01 4.3 C 4.93 g/m*3 4.3 C 0 km/h
2870 16-01-2004 05:33:00 4.3 C 4.93 g/m*3 4.3 C 0 km/h
2871 16-01-2004 05:45:00 4.4 C 4.83 g/m*3 4.4 C 0 km/h
2872 16-01-2004 05:57:00 4.6 C 4.9 g/m*3 4.6 C 0 km/h
2873 16-01-2004 06:09:58 4.8 C 4.83 g/m*3 4.8 C 0 km/h
2874 16-01-2004 06:21:58 5.1 C 4.72 g/m*3 5.1 C 0 km/h
2875 16-01-2004 06:33:01 5.1 C 4.65 g/m*3 5.1 C 0 km/h
Sensor: Nr:Datum:Temp:Abs-Feuchte:Windchill:Wind:
Aussen-T/F 2876 16-01-2004 06:45:01 5.1 C 4.65 g/m*3 5.1 C 0 km/h
2877 16-01-2004 06:57:01 5.1 C 4.65 g/m*3 5.1 C 0 km/h
2878 16-01-2004 07:09:01 5.3 C 4.57 g/m*3 5.3 C 0 km/h
2879 16-01-2004 07:21:01 5.3 C 4.57 g/m*3 5.3 C 0 km/h
2880 16-01-2004 07:33:00 5.4 C 4.67 g/m*3 5.4 C 0 km/h
2881 16-01-2004 07:45:00 5.1 C 4.79 g/m*3 5.1 C 0 km/h
2882 16-01-2004 07:57:00 5.2 C 4.82 g/m*3 5.2 C 0 km/h
2883 16-01-2004 08:09:59 4.7 C 5.06 g/m*3 4.7 C 0 km/h
2884 16-01-2004 08:21:59 4.6 C 5.1 g/m*3 4.6 C 0 km/h
2885 16-01-2004 08:33:01 4.6 C 5.16 g/m*3 4.6 C 0 km/h
2886 16-01-2004 08:45:01 4.8 C 5.23 g/m*3 4.8 C 0 km/h
2887 16-01-2004 08:57:01 4.8 C 5.3 g/m*3 4.8 C 0 km/h
2888 16-01-2004 09:09:00 4.8 C 5.3 g/m*3 4.8 C 0 km/h
2889 16-01-2004 09:21:00 4.9 C 5.27 g/m*3 4.9 C 0 km/h
2890 16-01-2004 09:33:01 5 C 5.3 g/m*3 5 C 0 km/h
2891 16-01-2004 09:45:01 5 C 5.23 g/m*3 5 C 0 km/h
2892 16-01-2004 09:57:01 5.4 C 5.09 g/m*3 5.4 C 0 km/h
2893 16-01-2004 10:09:01 5.4 C 5.02 g/m*3 5.4 C 0 km/h
2894 16-01-2004 10:21:01 5.6 C 4.95 g/m*3 5.6 C 0 km/h
2895 16-01-2004 10:33:00 5.6 C 4.95 g/m*3 5.6 C 0 km/h
2896 16-01-2004 10:45:00 5.4 C 4.95 g/m*3 5.4 C 0 km/h
2897 16-01-2004 10:57:00 5.2 C 4.89 g/m*3 5.2 C 0 km/h
2898 16-01-2004 11:09:58 5.3 C 4.92 g/m*3 5.3 C 0 km/h
2899 16-01-2004 11:21:58 5.4 C 4.95 g/m*3 5.4 C 0 km/h
2900 16-01-2004 11:33:01 6 C 4.94 g/m*3 6 C 0 km/h
Sensor: Nr:Datum:Temp:Abs-Feuchte:Windchill:Wind:
Aussen-T/F 2901 16-01-2004 11:45:01 6.4 C 4.99 g/m*3 6.4 C 0 km/h
2902 16-01-2004 11:57:01 6.7 C 5.09 g/m*3 6.7 C 0 km/h
2903 16-01-2004 12:09:01 6.9 C 5.08 g/m*3 6.9 C 0 km/h
2904 16-01-2004 12:21:01 7 C 4.96 g/m*3 7 C 0 km/h
2905 16-01-2004 12:33:02 7.5 C 5.04 g/m*3 7.5 C 0 km/h
2906 16-01-2004 12:45:02 7.5 C 4.96 g/m*3 7.5 C 0 km/h
2907 16-01-2004 12:57:02 7.9 C 5.01 g/m*3 7.9 C 0 km/h
2908 16-01-2004 13:09:01 7.8 C 4.98 g/m*3 7.8 C 0 km/h
2909 16-01-2004 13:21:01 8.1 C 4.83 g/m*3 8.1 C 0 km/h
2910 16-01-2004 13:33:00 8.9 C 4.99 g/m*3 8.9 C 0 km/h
2911 16-01-2004 13:45:00 9 C 4.85 g/m*3 9 C 0 km/h
2912 16-01-2004 13:57:00 8.8 C 4.7 g/m*3 8.8 C 0 km/h
2913 16-01-2004 14:09:59 8.7 C 4.67 g/m*3 8.7 C 0 km/h
2914 16-01-2004 14:21:59 8.6 C 4.73 g/m*3 8.6 C 0 km/h
2915 16-01-2004 14:33:01 8.2 C 4.69 g/m*3 8.2 C 0 km/h
2916 16-01-2004 14:45:01 8.3 C 4.64 g/m*3 8.3 C 0 km/h
2917 16-01-2004 14:57:01 8.1 C 4.58 g/m*3 8.1 C 0 km/h
2918 16-01-2004 15:09:01 8.2 C 4.52 g/m*3 8.2 C 0 km/h
2919 16-01-2004 15:21:01 8.2 C 4.44 g/m*3 8.2 C 0 km/h
2920 16-01-2004 15:33:01 8.2 C 4.52 g/m*3 8.2 C 0 km/h
2921 16-01-2004 15:45:01 7.6 C 4.83 g/m*3 7.6 C 0 km/h
2922 16-01-2004 15:57:01 7.9 C 4.68 g/m*3 7.9 C 0 km/h
2923 16-01-2004 16:09:01 8.1 C 4.58 g/m*3 8.1 C 0 km/h
2924 16-01-2004 16:21:01 8 C 4.46 g/m*3 8 C 0 km/h
2925 16-01-2004 16:33:02 8.2 C 4.44 g/m*3 8.2 C 0 km/h
Sensor: Nr:Datum:Temp:Abs-Feuchte:Windchill:Wind:
Aussen-T/F 2926 16-01-2004 16:45:02 7.9 C 4.44 g/m*3 7.9 C 0 km/h
2927 16-01-2004 16:57:02 8.1 C 4.41 g/m*3 8.1 C 0 km/h
2928 16-01-2004 17:09:02 8 C 4.38 g/m*3 8 C 0 km/h
2929 16-01-2004 17:21:02 7.7 C 4.54 g/m*3 7.7 C 0 km/h
2930 16-01-2004 17:33:00 7.5 C 4.4 g/m*3 7.5 C 0 km/h
2931 16-01-2004 17:45:00 7.3 C 4.5 g/m*3 7.3 C 0 km/h
2932 16-01-2004 17:57:00 6.9 C 4.77 g/m*3 6.9 C 0 km/h
2933 16-01-2004 18:09:59 6.4 C 4.69 g/m*3 6.4 C 0 km/h
2934 16-01-2004 18:21:59 6 C 4.79 g/m*3 6 C 0 km/h
2935 16-01-2004 18:33:01 6 C 4.79 g/m*3 6 C 0 km/h
2936 16-01-2004 18:45:01 5.7 C 4.77 g/m*3 5.7 C 0 km/h
2937 16-01-2004 18:57:01 5.8 C 4.66 g/m*3 5.8 C 0 km/h
2938 16-01-2004 19:09:00 5.9 C 4.69 g/m*3 5.9 C 0 km/h
2939 16-01-2004 19:21:00 5.9 C 4.54 g/m*3 5.9 C 0 km/h
2940 16-01-2004 19:33:01 5.8 C 4.58 g/m*3 5.8 C 0 km/h
2941 16-01-2004 19:45:01 5.7 C 4.63 g/m*3 5.7 C 0 km/h
2942 16-01-2004 19:57:01 6 C 4.43 g/m*3 6 C 0 km/h
2943 16-01-2004 20:09:01 6.2 C 4.41 g/m*3 6.2 C 0 km/h
2944 16-01-2004 20:21:01 6.3 C 4.37 g/m*3 6.3 C 0 km/h
2945 16-01-2004 20:33:01 6.1 C 4.31 g/m*3 6.1 C 0 km/h
2946 16-01-2004 20:45:01 6 C 4.35 g/m*3 6 C 0 km/h
2947 16-01-2004 20:57:01 6 C 4.5 g/m*3 6 C 0 km/h
2948 16-01-2004 21:09:59 5.8 C 4.58 g/m*3 5.8 C 0 km/h
2949 16-01-2004 21:21:59 5.8 C 4.51 g/m*3 5.8 C 0 km/h
2950 16-01-2004 21:33:01 5.8 C 4.51 g/m*3 5.8 C 0 km/h
Sensor: Nr:Datum:Temp:Abs-Feuchte:Windchill:Wind:
Aussen-T/F 2951 16-01-2004 21:45:01 5.8 C 4.58 g/m*3 5.8 C 0 km/h
2952 16-01-2004 21:57:01 5.7 C 4.55 g/m*3 5.7 C 0 km/h
2953 16-01-2004 22:09:01 5.7 C 4.55 g/m*3 5.7 C 0 km/h
2954 16-01-2004 22:21:01 5.6 C 4.6 g/m*3 5.6 C 0 km/h
2955 16-01-2004 22:33:00 5.4 C 4.6 g/m*3 5.4 C 0 km/h
2956 16-01-2004 22:45:00 5.4 C 4.6 g/m*3 5.4 C 0 km/h
2957 16-01-2004 22:57:00 5.4 C 4.74 g/m*3 5.4 C 0 km/h
2958 16-01-2004 23:09:58 5.2 C 4.89 g/m*3 5.2 C 0 km/h
2959 16-01-2004 23:21:58 5.3 C 4.85 g/m*3 5.3 C 0 km/h
2960 16-01-2004 23:33:01 5.1 C 4.86 g/m*3 5.1 C 0 km/h
2961 16-01-2004 23:45:01 5.2 C 4.82 g/m*3 5.2 C 0 km/h
2962 16-01-2004 23:57:01 5.3 C 4.78 g/m*3 5.3 C 0 km/h
2963 17-01-2004 00:09:01 5.1 C 4.72 g/m*3 5.1 C 0 km/h
2964 17-01-2004 00:21:01 5 C 4.69 g/m*3 5 C 0 km/h
2965 17-01-2004 00:32:59 5.4 C 4.67 g/m*3 5.4 C 0 km/h
2966 17-01-2004 00:44:59 5.3 C 4.71 g/m*3 5.3 C 0 km/h
2967 17-01-2004 00:56:59 5.2 C 4.82 g/m*3 5.2 C 0 km/h
2968 17-01-2004 01:09:58 4.9 C 4.86 g/m*3 4.9 C 0 km/h
2969 17-01-2004 01:21:58 4.9 C 4.86 g/m*3 4.9 C 0 km/h
2970 17-01-2004 01:33:01 4.9 C 4.79 g/m*3 4.9 C 0 km/h
2971 17-01-2004 01:45:01 5 C 4.69 g/m*3 5 C 0 km/h
2972 17-01-2004 01:57:01 4.9 C 4.66 g/m*3 4.9 C 0 km/h
2973 17-01-2004 02:09:01 4.7 C 4.66 g/m*3 4.7 C 0 km/h
2974 17-01-2004 02:21:01 4.5 C 4.67 g/m*3 4.5 C 0 km/h
2975 17-01-2004 02:34:02 4.1 C 4.61 g/m*3 4.1 C 0 km/h
Sensor: Nr:Datum:Temp:Abs-Feuchte:Windchill:Wind:
Aussen-T/F 2976 17-01-2004 02:46:02 4.2 C 4.77 g/m*3 4.2 C 0 km/h
2977 17-01-2004 02:58:02 4.4 C 4.77 g/m*3 4.4 C 0 km/h
2978 17-01-2004 03:10:02 4.5 C 4.8 g/m*3 4.5 C 0 km/h
2979 17-01-2004 03:22:02 4.4 C 4.77 g/m*3 4.4 C 0 km/h
2980 17-01-2004 03:34:00 4.3 C 4.67 g/m*3 4.3 C 0 km/h
2981 17-01-2004 03:46:00 4.3 C 4.67 g/m*3 4.3 C 0 km/h
2982 17-01-2004 03:58:00 4.1 C 4.67 g/m*3 4.1 C 0 km/h
2983 17-01-2004 04:10:58 3.8 C 4.71 g/m*3 3.8 C 0 km/h
2984 17-01-2004 04:22:58 4 C 4.64 g/m*3 4 C 0 km/h
2985 17-01-2004 04:34:01 3.9 C 4.74 g/m*3 3.9 C 0 km/h
2986 17-01-2004 04:46:01 4 C 4.64 g/m*3 4 C 0 km/h
2987 17-01-2004 04:58:01 4 C 4.7 g/m*3 4 C 0 km/h
2988 17-01-2004 05:10:01 4.1 C 4.67 g/m*3 4.1 C 0 km/h
2989 17-01-2004 05:22:01 4.2 C 4.7 g/m*3 4.2 C 0 km/h
2990 17-01-2004 05:34:01 4.4 C 4.64 g/m*3 4.4 C 0 km/h
2991 17-01-2004 05:46:01 4.4 C 4.64 g/m*3 4.4 C 0 km/h
2992 17-01-2004 05:58:01 4.7 C 4.66 g/m*3 4.7 C 0 km/h
2993 17-01-2004 06:10:01 4.7 C 4.66 g/m*3 4.7 C 0 km/h
2994 17-01-2004 06:22:01 4.7 C 4.6 g/m*3 4.7 C 0 km/h
2995 17-01-2004 06:34:00 4.7 C 4.6 g/m*3 4.7 C 0 km/h
2996 17-01-2004 06:46:00 4.6 C 4.5 g/m*3 4.6 C 0 km/h
2997 17-01-2004 06:58:00 4.7 C 4.53 g/m*3 4.7 C 0 km/h
2998 17-01-2004 07:10:58 4.5 C 4.54 g/m*3 4.5 C 0 km/h
2999 17-01-2004 07:22:58 4.5 C 4.54 g/m*3 4.5 C 0 km/h
3000 17-01-2004 07:34:01 4.5 C 4.54 g/m*3 4.5 C 0 km/h
Sensor: Nr:Datum:Temp:Abs-Feuchte:Windchill:Wind:
Aussen-T/F 3001 17-01-2004 07:46:01 4.5 C 4.54 g/m*3 4.5 C 0 km/h
3002 17-01-2004 07:58:01 4.6 C 4.5 g/m*3 4.6 C 0 km/h
3003 17-01-2004 08:10:01 4.6 C 4.5 g/m*3 4.6 C 0 km/h
3004 17-01-2004 08:22:01 4.7 C 4.46 g/m*3 4.7 C 0 km/h
3005 17-01-2004 08:34:00 4.9 C 4.39 g/m*3 4.9 C 0 km/h
3006 17-01-2004 08:46:00 4.9 C 4.46 g/m*3 4.9 C 0 km/h
3007 17-01-2004 08:58:00 4.9 C 4.52 g/m*3 4.9 C 0 km/h
3008 17-01-2004 09:10:58 4.5 C 4.73 g/m*3 4.5 C 0 km/h
3009 17-01-2004 09:22:58 4.1 C 4.86 g/m*3 4.1 C 0 km/h
3010 17-01-2004 09:34:01 4 C 4.9 g/m*3 4 C 0 km/h
3011 17-01-2004 09:46:01 4 C 4.96 g/m*3 4 C 0 km/h
3012 17-01-2004 09:58:01 4 C 4.96 g/m*3 4 C 0 km/h
3013 17-01-2004 10:10:01 4.2 C 4.96 g/m*3 4.2 C 0 km/h
3014 17-01-2004 10:22:01 4.3 C 4.93 g/m*3 4.3 C 0 km/h
3015 17-01-2004 10:34:00 4.5 C 4.86 g/m*3 4.5 C 0 km/h
3016 17-01-2004 10:46:00 4.5 C 4.8 g/m*3 4.5 C 0 km/h
3017 17-01-2004 10:58:00 4.8 C 4.76 g/m*3 4.8 C 0 km/h
3018 17-01-2004 11:10:58 4.8 C 4.76 g/m*3 4.8 C 0 km/h
3019 17-01-2004 11:22:58 4.8 C 4.76 g/m*3 4.8 C 0 km/h
3020 17-01-2004 11:34:01 4.9 C 4.73 g/m*3 4.9 C 0 km/h
3021 17-01-2004 11:46:01 5.1 C 4.65 g/m*3 5.1 C 0 km/h
3022 17-01-2004 11:58:01 5.3 C 4.64 g/m*3 5.3 C 0 km/h
3023 17-01-2004 12:10:01 5.2 C 4.68 g/m*3 5.2 C 0 km/h
3024 17-01-2004 12:22:01 5.5 C 4.57 g/m*3 5.5 C 0 km/h
3025 17-01-2004 12:34:00 5.7 C 4.55 g/m*3 5.7 C 0 km/h
Sensor: Nr:Datum:Temp:Abs-Feuchte:Windchill:Wind:
Aussen-T/F 3026 17-01-2004 12:46:00 5.7 C 4.63 g/m*3 5.7 C 0 km/h
3027 17-01-2004 12:58:00 6.1 C 4.6 g/m*3 6.1 C 0 km/h
3028 17-01-2004 13:10:59 6.2 C 4.56 g/m*3 6.2 C 0 km/h
3029 17-01-2004 13:22:59 6.4 C 4.47 g/m*3 6.4 C 0 km/h
3030 17-01-2004 13:34:01 6.4 C 4.47 g/m*3 6.4 C 0 km/h
3031 17-01-2004 13:46:01 6.1 C 4.46 g/m*3 6.1 C 0 km/h
3032 17-01-2004 13:58:01 6 C 4.43 g/m*3 6 C 0 km/h
3033 17-01-2004 14:10:01 5.9 C 4.54 g/m*3 5.9 C 0 km/h
3034 17-01-2004 14:22:01 5.8 C 4.51 g/m*3 5.8 C 0 km/h
3035 17-01-2004 14:34:00 5.9 C 4.54 g/m*3 5.9 C 0 km/h
3036 17-01-2004 14:46:00 6.2 C 4.49 g/m*3 6.2 C 0 km/h
3037 17-01-2004 14:58:00 6 C 4.43 g/m*3 6 C 0 km/h
3038 17-01-2004 15:10:59 5.8 C 4.44 g/m*3 5.8 C 0 km/h
3039 17-01-2004 15:22:59 5.7 C 4.41 g/m*3 5.7 C 0 km/h
3040 17-01-2004 15:34:01 5.4 C 4.33 g/m*3 5.4 C 0 km/h
3041 17-01-2004 15:46:01 5.6 C 4.38 g/m*3 5.6 C 0 km/h
3042 17-01-2004 15:58:01 5.6 C 4.17 g/m*3 5.6 C 0 km/h
3043 17-01-2004 16:10:00 5.6 C 4.03 g/m*3 5.6 C 0 km/h
3044 17-01-2004 16:22:00 5.6 C 4.17 g/m*3 5.6 C 0 km/h
3045 17-01-2004 16:34:01 5.6 C 4.17 g/m*3 5.6 C 0 km/h
3046 17-01-2004 16:46:01 5.5 C 4.14 g/m*3 5.5 C 0 km/h
3047 17-01-2004 16:58:01 5.1 C 4.04 g/m*3 5.1 C 0 km/h
3048 17-01-2004 17:10:01 5 C 4.08 g/m*3 5 C 0 km/h
3049 17-01-2004 17:22:01 4.8 C 4.09 g/m*3 4.8 C 0 km/h
3050 17-01-2004 17:34:59 4.6 C 4.1 g/m*3 4.6 C 0 km/h
Sensor: Nr:Datum:Temp:Abs-Feuchte:Windchill:Wind:
Aussen-T/F 3051 17-01-2004 17:46:59 4.5 C 4.21 g/m*3 4.5 C 0 km/h
3052 17-01-2004 17:58:59 4 C 4.2 g/m*3 4 C 0 km/h
3053 17-01-2004 18:10:58 3.4 C 4.21 g/m*3 3.4 C 0 km/h
3054 17-01-2004 18:22:58 3.2 C 4.28 g/m*3 3.2 C 0 km/h
3055 17-01-2004 18:34:01 3.2 C 4.34 g/m*3 3.2 C 0 km/h
3056 17-01-2004 18:46:01 3.5 C 4.43 g/m*3 3.5 C 0 km/h
3057 17-01-2004 18:58:01 3.8 C 4.45 g/m*3 3.8 C 0 km/h
3058 17-01-2004 19:10:01 3.6 C 4.33 g/m*3 3.6 C 0 km/h
3059 17-01-2004 19:22:01 3.3 C 4.37 g/m*3 3.3 C 0 km/h
3060 17-01-2004 19:34:01 2.8 C 4.34 g/m*3 2.8 C 0 km/h
3061 17-01-2004 19:46:01 2.7 C 4.37 g/m*3 2.7 C 0 km/h
3062 17-01-2004 19:58:01 2.6 C 4.4 g/m*3 2.6 C 0 km/h
3063 17-01-2004 20:10:01 2.5 C 4.37 g/m*3 2.5 C 0 km/h
3064 17-01-2004 20:22:01 2.7 C 4.43 g/m*3 2.7 C 0 km/h
3065 17-01-2004 20:34:00 3.2 C 4.46 g/m*3 3.2 C 0 km/h
3066 17-01-2004 20:46:00 3.4 C 4.46 g/m*3 3.4 C 0 km/h
3067 17-01-2004 20:58:00 3.7 C 4.42 g/m*3 3.7 C 0 km/h
3068 17-01-2004 21:10:59 3.7 C 4.42 g/m*3 3.7 C 0 km/h
3069 17-01-2004 21:22:59 3.9 C 4.42 g/m*3 3.9 C 0 km/h
3070 17-01-2004 21:34:01 4.1 C 4.29 g/m*3 4.1 C 0 km/h
3071 17-01-2004 21:46:01 3.8 C 4.33 g/m*3 3.8 C 0 km/h
3072 17-01-2004 21:58:01 3.8 C 4.39 g/m*3 3.8 C 0 km/h
3073 17-01-2004 22:10:00 3.8 C 4.33 g/m*3 3.8 C 0 km/h
3074 17-01-2004 22:22:00 3.8 C 4.33 g/m*3 3.8 C 0 km/h
3075 17-01-2004 22:34:01 3.8 C 4.33 g/m*3 3.8 C 0 km/h
Sensor: Nr:Datum:Temp:Abs-Feuchte:Windchill:Wind:
Aussen-T/F 3076 17-01-2004 22:46:01 3.8 C 4.33 g/m*3 3.8 C 0 km/h
3077 17-01-2004 22:58:01 3.7 C 4.3 g/m*3 3.7 C 0 km/h
3078 17-01-2004 23:10:01 3.7 C 4.36 g/m*3 3.7 C 0 km/h
3079 17-01-2004 23:22:01 3.7 C 4.36 g/m*3 3.7 C 0 km/h
3080 17-01-2004 23:34:00 3.7 C 4.36 g/m*3 3.7 C 0 km/h
3081 17-01-2004 23:46:00 3.7 C 4.36 g/m*3 3.7 C 0 km/h
3082 17-01-2004 23:58:00 3.7 C 4.36 g/m*3 3.7 C 0 km/h
3083 18-01-2004 00:10:58 3.7 C 4.42 g/m*3 3.7 C 0 km/h
3084 18-01-2004 00:22:58 3.7 C 4.42 g/m*3 3.7 C 0 km/h
3085 18-01-2004 00:34:01 3.7 C 4.42 g/m*3 3.7 C 0 km/h
3086 18-01-2004 00:46:01 3.6 C 4.46 g/m*3 3.6 C 0 km/h
3087 18-01-2004 00:58:01 3.3 C 4.61 g/m*3 3.3 C 0 km/h
3088 18-01-2004 01:10:01 3.3 C 4.67 g/m*3 3.3 C 0 km/h
3089 18-01-2004 01:22:01 3.3 C 4.61 g/m*3 3.3 C 0 km/h
3090 18-01-2004 01:34:01 3.3 C 4.61 g/m*3 3.3 C 0 km/h
3091 18-01-2004 01:46:01 3.3 C 4.67 g/m*3 3.3 C 0 km/h
3092 18-01-2004 01:58:01 3.4 C 4.58 g/m*3 3.4 C 0 km/h
3093 18-01-2004 02:10:01 3.4 C 4.58 g/m*3 3.4 C 0 km/h
3094 18-01-2004 02:22:01 3.3 C 4.61 g/m*3 3.3 C 0 km/h
3095 18-01-2004 02:35:01 3.3 C 4.61 g/m*3 3.3 C 0 km/h
3096 18-01-2004 02:47:01 3.2 C 4.7 g/m*3 3.2 C 0 km/h
3097 18-01-2004 02:59:01 3.1 C 4.67 g/m*3 3.1 C 0 km/h
3098 18-01-2004 03:11:00 3.2 C 4.7 g/m*3 3.2 C 0 km/h
3099 18-01-2004 03:23:00 3.2 C 4.7 g/m*3 3.2 C 0 km/h
3100 18-01-2004 03:35:01 3.3 C 4.73 g/m*3 3.3 C 0 km/h
Sensor: Nr:Datum:Temp:Abs-Feuchte:Windchill:Wind:
Aussen-T/F 3101 18-01-2004 03:47:01 3.3 C 4.67 g/m*3 3.3 C 0 km/h
3102 18-01-2004 03:59:01 3.3 C 4.67 g/m*3 3.3 C 0 km/h
3103 18-01-2004 04:11:00 3.3 C 4.67 g/m*3 3.3 C 0 km/h
3104 18-01-2004 04:23:00 3.3 C 4.67 g/m*3 3.3 C 0 km/h
3105 18-01-2004 04:35:01 3.2 C 4.7 g/m*3 3.2 C 0 km/h
3106 18-01-2004 04:47:01 3 C 4.76 g/m*3 3 C 0 km/h
3107 18-01-2004 04:59:01 3 C 4.82 g/m*3 3 C 0 km/h
3108 18-01-2004 05:11:01 3 C 4.88 g/m*3 3 C 0 km/h
3109 18-01-2004 05:23:01 3 C 4.93 g/m*3 3 C 0 km/h
3110 18-01-2004 05:35:01 3.1 C 5.03 g/m*3 3.1 C 0 km/h
3111 18-01-2004 05:47:01 3.2 C 5.06 g/m*3 3.2 C 0 km/h
3112 18-01-2004 05:59:01 3.2 C 5.06 g/m*3 3.2 C 0 km/h
3113 18-01-2004 06:11:01 3.2 C 5.06 g/m*3 3.2 C 0 km/h
3114 18-01-2004 06:23:01 3.3 C 5.1 g/m*3 3.3 C 0 km/h
3115 18-01-2004 06:35:00 3.3 C 5.04 g/m*3 3.3 C 0 km/h
3116 18-01-2004 06:47:00 3.4 C 5.07 g/m*3 3.4 C 0 km/h
3117 18-01-2004 06:59:00 3.5 C 5.1 g/m*3 3.5 C 0 km/h
3118 18-01-2004 07:11:58 3.5 C 5.1 g/m*3 3.5 C 0 km/h
3119 18-01-2004 07:23:58 3.5 C 5.1 g/m*3 3.5 C 0 km/h
3120 18-01-2004 07:35:01 3.5 C 5.04 g/m*3 3.5 C 0 km/h
3121 18-01-2004 07:47:01 3.6 C 5.08 g/m*3 3.6 C 0 km/h
3122 18-01-2004 07:59:01 3.5 C 4.98 g/m*3 3.5 C 0 km/h
3123 18-01-2004 08:11:01 3.4 C 4.95 g/m*3 3.4 C 0 km/h
3124 18-01-2004 08:23:01 3.5 C 4.98 g/m*3 3.5 C 0 km/h
3125 18-01-2004 08:35:00 3.6 C 5.01 g/m*3 3.6 C 0 km/h
Sensor: Nr:Datum:Temp:Abs-Feuchte:Windchill:Wind:
Aussen-T/F 3126 18-01-2004 08:47:00 3.7 C 4.99 g/m*3 3.7 C 0 km/h
3127 18-01-2004 08:59:00 3.8 C 4.96 g/m*3 3.8 C 0 km/h
3128 18-01-2004 09:11:59 3.8 C 4.96 g/m*3 3.8 C 0 km/h
3129 18-01-2004 09:23:59 3.9 C 4.93 g/m*3 3.9 C 0 km/h
3130 18-01-2004 09:35:01 3.9 C 4.86 g/m*3 3.9 C 0 km/h
3131 18-01-2004 09:47:01 4 C 4.64 g/m*3 4 C 0 km/h
3132 18-01-2004 09:59:01 4.1 C 4.54 g/m*3 4.1 C 0 km/h
3133 18-01-2004 10:11:01 3.9 C 4.55 g/m*3 3.9 C 0 km/h
3134 18-01-2004 10:23:01 3.5 C 4.61 g/m*3 3.5 C 0 km/h
3135 18-01-2004 10:35:00 3.3 C 4.73 g/m*3 3.3 C 0 km/h
3136 18-01-2004 10:47:00 3.3 C 4.85 g/m*3 3.3 C 0 km/h
3137 18-01-2004 10:59:00 3.3 C 4.73 g/m*3 3.3 C 0 km/h
3138 18-01-2004 11:11:58 3.7 C 4.8 g/m*3 3.7 C 0 km/h
3139 18-01-2004 11:23:58 3.8 C 4.45 g/m*3 3.8 C 0 km/h
3140 18-01-2004 11:35:01 4 C 4.13 g/m*3 4 C 0 km/h
3141 18-01-2004 11:47:01 4.3 C 3.7 g/m*3 4.3 C 0 km/h
3142 18-01-2004 11:59:01 4.4 C 3.46 g/m*3 4.4 C 0 km/h
3143 18-01-2004 12:11:01 4.5 C 3.35 g/m*3 4.5 C 0 km/h
3144 18-01-2004 12:23:01 4.4 C 3.33 g/m*3 4.4 C 0 km/h
3145 18-01-2004 12:35:01 5.2 C 3.37 g/m*3 5.2 C 0 km/h
3146 18-01-2004 12:47:01 5.4 C 3.21 g/m*3 5.4 C 0 km/h
3147 18-01-2004 12:59:01 5.6 C 3.46 g/m*3 5.6 C 0 km/h
3148 18-01-2004 13:11:01 5.7 C 3.34 g/m*3 5.7 C 0 km/h
3149 18-01-2004 13:23:01 5 C 3.19 g/m*3 5 C 0 km/h
3150 18-01-2004 13:35:00 4.8 C 3.29 g/m*3 4.8 C 0 km/h
Sensor: Nr:Datum:Temp:Abs-Feuchte:Windchill:Wind:
Aussen-T/F 3151 18-01-2004 13:47:00 4.6 C 3.11 g/m*3 4.6 C 0 km/h
3152 18-01-2004 13:59:00 4.7 C 3.13 g/m*3 4.7 C 0 km/h
3153 18-01-2004 14:11:59 5.4 C 3.14 g/m*3 5.4 C 0 km/h
3154 18-01-2004 14:23:59 5 C 3.06 g/m*3 5 C 0 km/h
3155 18-01-2004 14:35:01 4.5 C 2.96 g/m*3 4.5 C 0 km/h
3156 18-01-2004 14:47:01 4.1 C 2.88 g/m*3 4.1 C 0 km/h
3157 18-01-2004 14:59:01 3.8 C 3.07 g/m*3 3.8 C 0 km/h
3158 18-01-2004 15:11:01 3.5 C 3.01 g/m*3 3.5 C 0 km/h
3159 18-01-2004 15:23:01 3.4 C 2.99 g/m*3 3.4 C 0 km/h
3160 18-01-2004 15:35:01 3.3 C 2.97 g/m*3 3.3 C 0 km/h
3161 18-01-2004 15:47:01 3.4 C 2.93 g/m*3 3.4 C 0 km/h
3162 18-01-2004 15:59:01 3.4 C 2.99 g/m*3 3.4 C 0 km/h
3163 18-01-2004 16:11:01 3.1 C 2.99 g/m*3 3.1 C 0 km/h
3164 18-01-2004 16:23:01 2.9 C 3.07 g/m*3 2.9 C 0 km/h
3165 18-01-2004 16:35:00 2.6 C 3.07 g/m*3 2.6 C 0 km/h
3166 18-01-2004 16:47:00 2.2 C 3.1 g/m*3 2.2 C 0 km/h
3167 18-01-2004 16:59:00 2 C 3.06 g/m*3 2 C 0 km/h
3168 18-01-2004 17:11:58 1.8 C 3.18 g/m*3 1.8 C 0 km/h
3169 18-01-2004 17:23:58 1.7 C 3.16 g/m*3 1.7 C 0 km/h
3170 18-01-2004 17:35:01 1.2 C 3.21 g/m*3 1.2 C 0 km/h
3171 18-01-2004 17:47:01 0.8 C 3.33 g/m*3 0.8 C 0 km/h
3172 18-01-2004 17:59:01 0.4 C 3.29 g/m*3 0.4 C 0 km/h
3173 18-01-2004 18:11:01 0.3 C 3.26 g/m*3 0.3 C 0 km/h
3174 18-01-2004 18:23:01 0.3 C 3.26 g/m*3 0.3 C 0 km/h
3175 18-01-2004 18:35:02 0.1 C 3.27 g/m*3 0.1 C 0 km/h
Sensor: Nr:Datum:Temp:Abs-Feuchte:Windchill:Wind:
Aussen-T/F 3176 18-01-2004 18:47:02 0.1 C 3.27 g/m*3 0.1 C 0 km/h
3177 18-01-2004 18:59:02 -0.1 C 3.22 g/m*3 -0.1 C 0 km/h
3178 18-01-2004 19:11:01 -0.2 C 3.25 g/m*3 -0.2 C 0 km/h
3179 18-01-2004 19:23:01 -0.1 C 3.22 g/m*3 -0.1 C 0 km/h
3180 18-01-2004 19:35:01 -0.2 C 3.25 g/m*3 -0.2 C 0 km/h
3181 18-01-2004 19:47:01 -0.2 C 3.25 g/m*3 -0.2 C 0 km/h
3182 18-01-2004 19:59:01 -0.3 C 3.27 g/m*3 -0.3 C 0 km/h
3183 18-01-2004 20:11:00 -0.4 C 3.3 g/m*3 -0.4 C 0 km/h
3184 18-01-2004 20:23:00 -0.5 C 3.28 g/m*3 -0.5 C 0 km/h
3185 18-01-2004 20:35:01 -0.5 C 3.28 g/m*3 -0.5 C 0 km/h
3186 18-01-2004 20:47:01 -0.4 C 3.3 g/m*3 -0.4 C 0 km/h
3187 18-01-2004 20:59:01 -0.4 C 3.3 g/m*3 -0.4 C 0 km/h
3188 18-01-2004 21:11:01 -0.5 C 3.23 g/m*3 -0.5 C 0 km/h
3189 18-01-2004 21:23:01 -0.6 C 3.25 g/m*3 -0.6 C 0 km/h
3190 18-01-2004 21:35:02 -0.8 C 3.25 g/m*3 -0.8 C 0 km/h
3191 18-01-2004 21:47:02 -0.8 C 3.25 g/m*3 -0.8 C 0 km/h
3192 18-01-2004 21:59:02 -0.8 C 3.25 g/m*3 -0.8 C 0 km/h
3193 18-01-2004 22:11:01 -0.8 C 3.25 g/m*3 -0.8 C 0 km/h
3194 18-01-2004 22:23:01 -1 C 3.25 g/m*3 -1 C 0 km/h
3195 18-01-2004 22:35:00 -1 C 3.3 g/m*3 -1 C 0 km/h
3196 18-01-2004 22:47:00 -1.1 C 3.23 g/m*3 -1.1 C 0 km/h
3197 18-01-2004 22:59:00 -1.1 C 3.28 g/m*3 -1.1 C 0 km/h
3198 18-01-2004 23:11:59 -1.1 C 3.28 g/m*3 -1.1 C 0 km/h
3199 18-01-2004 23:23:59 -1.1 C 3.32 g/m*3 -1.1 C 0 km/h
3200 18-01-2004 23:35:01 -1.2 C 3.34 g/m*3 -1.2 C 0 km/h
Sensor: Nr:Datum:Temp:Abs-Feuchte:Windchill:Wind:
Aussen-T/F 3201 18-01-2004 23:47:01 -1.3 C 3.28 g/m*3 -1.3 C 0 km/h
3202 18-01-2004 23:59:01 -1.2 C 3.34 g/m*3 -1.2 C 0 km/h
3203 19-01-2004 00:11:01 -1.3 C 3.32 g/m*3 -1.3 C 0 km/h
3204 19-01-2004 00:23:01 -1.3 C 3.28 g/m*3 -1.3 C 0 km/h
3205 19-01-2004 00:35:00 -1.4 C 3.3 g/m*3 -1.4 C 0 km/h
3206 19-01-2004 00:47:00 -1.6 C 3.25 g/m*3 -1.6 C 0 km/h
3207 19-01-2004 00:59:00 -1.5 C 3.27 g/m*3 -1.5 C 0 km/h
3208 19-01-2004 01:11:58 -1.4 C 3.3 g/m*3 -1.4 C 0 km/h
3209 19-01-2004 01:23:58 -1.5 C 3.32 g/m*3 -1.5 C 0 km/h
3210 19-01-2004 01:35:01 -1.5 C 3.36 g/m*3 -1.5 C 0 km/h
3211 19-01-2004 01:47:01 -1.6 C 3.34 g/m*3 -1.6 C 0 km/h
3212 19-01-2004 01:59:01 -1.6 C 3.34 g/m*3 -1.6 C 0 km/h
3213 19-01-2004 02:11:01 -1.6 C 3.34 g/m*3 -1.6 C 0 km/h
3214 19-01-2004 02:23:01 -1.6 C 3.34 g/m*3 -1.6 C 0 km/h
3215 19-01-2004 02:36:03 -1.2 C 3.34 g/m*3 -1.2 C 0 km/h
3216 19-01-2004 02:48:03 -1.2 C 3.25 g/m*3 -1.2 C 0 km/h
3217 19-01-2004 03:00:03 -0.8 C 3.25 g/m*3 -0.8 C 0 km/h
3218 19-01-2004 03:12:03 -0.7 C 3.18 g/m*3 -0.7 C 0 km/h
3219 19-01-2004 03:24:03 -0.6 C 3.16 g/m*3 -0.6 C 0 km/h
3220 19-01-2004 03:35:59 -0.4 C 3.2 g/m*3 -0.4 C 0 km/h
3221 19-01-2004 03:47:59 -0.7 C 3.14 g/m*3 -0.7 C 0 km/h
3222 19-01-2004 03:59:59 -1 C 3.16 g/m*3 -1 C 0 km/h
3223 19-01-2004 04:12:58 -0.9 C 3.14 g/m*3 -0.9 C 0 km/h
3224 19-01-2004 04:24:58 -0.9 C 3.19 g/m*3 -0.9 C 0 km/h
3225 19-01-2004 04:36:01 -1.1 C 3.14 g/m*3 -1.1 C 0 km/h
Sensor: Nr:Datum:Temp:Abs-Feuchte:Windchill:Wind:
Aussen-T/F 3226 19-01-2004 04:48:01 -1.2 C 3.17 g/m*3 -1.2 C 0 km/h
3227 19-01-2004 05:00:01 -1.1 C 3.14 g/m*3 -1.1 C 0 km/h
3228 19-01-2004 05:12:01 -1 C 3.12 g/m*3 -1 C 0 km/h
3229 19-01-2004 05:24:01 -1.2 C 3.12 g/m*3 -1.2 C 0 km/h
3230 19-01-2004 05:36:01 -1.1 C 3.14 g/m*3 -1.1 C 0 km/h
3231 19-01-2004 05:48:01 -1.2 C 3.12 g/m*3 -1.2 C 0 km/h
3232 19-01-2004 06:00:01 -0.8 C 3.16 g/m*3 -0.8 C 0 km/h
3233 19-01-2004 06:12:01 -0.8 C 3.12 g/m*3 -0.8 C 0 km/h
3234 19-01-2004 06:24:01 -0.9 C 3.1 g/m*3 -0.9 C 0 km/h
3235 19-01-2004 06:36:00 -0.8 C 3.12 g/m*3 -0.8 C 0 km/h
3236 19-01-2004 06:48:00 -0.4 C 3.11 g/m*3 -0.4 C 0 km/h
3237 19-01-2004 07:00:00 -0.3 C 3.13 g/m*3 -0.3 C 0 km/h
3238 19-01-2004 07:12:58 -0.1 C 3.18 g/m*3 -0.1 C 0 km/h
3239 19-01-2004 07:24:58 -0.1 C 3.18 g/m*3 -0.1 C 0 km/h
3240 19-01-2004 07:36:01 0 C 3.2 g/m*3 0 C 0 km/h
3241 19-01-2004 07:48:01 0 C 3.25 g/m*3 0 C 0 km/h
3242 19-01-2004 08:00:01 0.1 C 3.27 g/m*3 0.1 C 0 km/h
3243 19-01-2004 08:12:01 0 C 3.34 g/m*3 0 C 0 km/h
3244 19-01-2004 08:24:01 -0.1 C 3.46 g/m*3 -0.1 C 0 km/h
3245 19-01-2004 08:36:01 -0.1 C 3.51 g/m*3 -0.1 C 0 km/h
3246 19-01-2004 08:48:01 0 C 3.54 g/m*3 0 C 0 km/h
3247 19-01-2004 09:00:01 0 C 3.59 g/m*3 0 C 0 km/h
3248 19-01-2004 09:12:01 0.1 C 3.61 g/m*3 0.1 C 0 km/h
3249 19-01-2004 09:24:01 0.1 C 3.61 g/m*3 0.1 C 0 km/h
3250